<?xml version="1.0" encoding="UTF-8" standalone="no" ?>
<gpx xmlns="http://www.topografix.com/GPX/1/1" xmlns:xsi="http://www.w3.org/2001/XMLSchema-instance" xsi:schemaLocation="http://www.topografix.com/GPX/1/1 http://www.topografix.com/GPX/1/1/gpx.xsd" version="1.1" creator="VisuGPX - https://www.visugpx.com">
  <metadata>
    <name>Pic d Ayous du lac de Bious-Artigues par vallée d Aas de Bielle et col d'Estibère</name>
    <desc><![CDATA[Randonnée prises sur le guide rando Aspe-Ossau]]></desc>
  </metadata>
  <wpt lat="42.85188" lon="-0.49712">
    <ele>2178.697021</ele>
    <name><![CDATA[COL AYOUS]]></name>
  </wpt>
  <wpt lat="42.85187" lon="-0.49715">
    <ele>2194</ele>
    <name><![CDATA[col d'Ayous]]></name>
    <desc><![CDATA[30-AOU-11 15:27:45]]></desc>
  </wpt>
  <wpt lat="42.85442" lon="-0.49084">
    <ele>2292</ele>
    <name><![CDATA[Pic d'Ayous]]></name>
    <desc><![CDATA[30-AOU-11 14:12:13]]></desc>
  </wpt>
  <trk>
    <name><![CDATA[ACTIVE LOG 002]]></name>
    <trkseg>
      <trkpt lat="42.87293" lon="-0.4488">
        <ele>1284.939453</ele>
        <time>2011-08-30T08:41:53Z</time>
      </trkpt>
      <trkpt lat="42.87293" lon="-0.44879">
        <ele>1286.381348</ele>
        <time>2011-08-30T08:41:58Z</time>
      </trkpt>
      <trkpt lat="42.87293" lon="-0.44879">
        <ele>1291.187744</ele>
        <time>2011-08-30T08:42:03Z</time>
      </trkpt>
      <trkpt lat="42.87293" lon="-0.44879">
        <ele>1289.265137</ele>
        <time>2011-08-30T08:42:04Z</time>
      </trkpt>
      <trkpt lat="42.87293" lon="-0.44879">
        <ele>1293.110596</ele>
        <time>2011-08-30T08:42:06Z</time>
      </trkpt>
      <trkpt lat="42.87293" lon="-0.44879">
        <ele>1292.149414</ele>
        <time>2011-08-30T08:42:07Z</time>
      </trkpt>
      <trkpt lat="42.87293" lon="-0.44879">
        <ele>1295.513916</ele>
        <time>2011-08-30T08:42:10Z</time>
      </trkpt>
      <trkpt lat="42.87293" lon="-0.44879">
        <ele>1295.033203</ele>
        <time>2011-08-30T08:42:11Z</time>
      </trkpt>
      <trkpt lat="42.87293" lon="-0.44879">
        <ele>1297.917236</ele>
        <time>2011-08-30T08:42:19Z</time>
      </trkpt>
      <trkpt lat="42.87294" lon="-0.4488">
        <ele>1301.762451</ele>
        <time>2011-08-30T08:42:23Z</time>
      </trkpt>
      <trkpt lat="42.87294" lon="-0.4488">
        <ele>1297.436523</ele>
        <time>2011-08-30T08:42:24Z</time>
      </trkpt>
      <trkpt lat="42.87294" lon="-0.4488">
        <ele>1301.281738</ele>
        <time>2011-08-30T08:42:25Z</time>
      </trkpt>
      <trkpt lat="42.87294" lon="-0.4488">
        <ele>1301.762451</ele>
        <time>2011-08-30T08:42:27Z</time>
      </trkpt>
      <trkpt lat="42.87293" lon="-0.44879">
        <ele>1306.088135</ele>
        <time>2011-08-30T08:42:45Z</time>
      </trkpt>
      <trkpt lat="42.87293" lon="-0.44879">
        <ele>1305.126953</ele>
        <time>2011-08-30T08:42:46Z</time>
      </trkpt>
      <trkpt lat="42.87288" lon="-0.44881">
        <ele>1305.607666</ele>
        <time>2011-08-30T08:43:27Z</time>
      </trkpt>
      <trkpt lat="42.87288" lon="-0.44882">
        <ele>1306.088135</ele>
        <time>2011-08-30T08:43:33Z</time>
      </trkpt>
      <trkpt lat="42.87285" lon="-0.4489">
        <ele>1306.088135</ele>
        <time>2011-08-30T08:43:40Z</time>
      </trkpt>
      <trkpt lat="42.87281" lon="-0.44895">
        <ele>1306.568848</ele>
        <time>2011-08-30T08:43:45Z</time>
      </trkpt>
      <trkpt lat="42.87271" lon="-0.44916">
        <ele>1305.126953</ele>
        <time>2011-08-30T08:44:02Z</time>
      </trkpt>
      <trkpt lat="42.87282" lon="-0.44922">
        <ele>1304.64624</ele>
        <time>2011-08-30T08:44:16Z</time>
      </trkpt>
      <trkpt lat="42.87277" lon="-0.44918">
        <ele>1304.64624</ele>
        <time>2011-08-30T08:46:37Z</time>
      </trkpt>
      <trkpt lat="42.87255" lon="-0.44933">
        <ele>1305.607666</ele>
        <time>2011-08-30T08:46:58Z</time>
      </trkpt>
      <trkpt lat="42.87242" lon="-0.44939">
        <ele>1306.088135</ele>
        <time>2011-08-30T08:47:10Z</time>
      </trkpt>
      <trkpt lat="42.87225" lon="-0.44942">
        <ele>1308.01123</ele>
        <time>2011-08-30T08:47:28Z</time>
      </trkpt>
      <trkpt lat="42.87204" lon="-0.44951">
        <ele>1309.453125</ele>
        <time>2011-08-30T08:47:49Z</time>
      </trkpt>
      <trkpt lat="42.87182" lon="-0.44963">
        <ele>1312.336914</ele>
        <time>2011-08-30T08:48:11Z</time>
      </trkpt>
      <trkpt lat="42.87162" lon="-0.44973">
        <ele>1314.740234</ele>
        <time>2011-08-30T08:48:31Z</time>
      </trkpt>
      <trkpt lat="42.87144" lon="-0.4498">
        <ele>1315.70166</ele>
        <time>2011-08-30T08:48:48Z</time>
      </trkpt>
      <trkpt lat="42.87123" lon="-0.44985">
        <ele>1317.143555</ele>
        <time>2011-08-30T08:49:07Z</time>
      </trkpt>
      <trkpt lat="42.87102" lon="-0.4499">
        <ele>1319.546875</ele>
        <time>2011-08-30T08:49:27Z</time>
      </trkpt>
      <trkpt lat="42.87085" lon="-0.44996">
        <ele>1320.98877</ele>
        <time>2011-08-30T08:49:45Z</time>
      </trkpt>
      <trkpt lat="42.87082" lon="-0.44994">
        <ele>1321.469238</ele>
        <time>2011-08-30T08:49:49Z</time>
      </trkpt>
      <trkpt lat="42.87078" lon="-0.44992">
        <ele>1322.911377</ele>
        <time>2011-08-30T08:49:54Z</time>
      </trkpt>
      <trkpt lat="42.87072" lon="-0.45007">
        <ele>1325.79541</ele>
        <time>2011-08-30T08:50:12Z</time>
      </trkpt>
      <trkpt lat="42.87066" lon="-0.45016">
        <ele>1328.679443</ele>
        <time>2011-08-30T08:50:27Z</time>
      </trkpt>
      <trkpt lat="42.87058" lon="-0.45029">
        <ele>1332.043945</ele>
        <time>2011-08-30T08:50:44Z</time>
      </trkpt>
      <trkpt lat="42.87051" lon="-0.45038">
        <ele>1334.927979</ele>
        <time>2011-08-30T08:51:00Z</time>
      </trkpt>
      <trkpt lat="42.87043" lon="-0.45043">
        <ele>1338.29248</ele>
        <time>2011-08-30T08:51:16Z</time>
      </trkpt>
      <trkpt lat="42.87037" lon="-0.45051">
        <ele>1339.734375</ele>
        <time>2011-08-30T08:51:31Z</time>
      </trkpt>
      <trkpt lat="42.87034" lon="-0.45059">
        <ele>1340.215332</ele>
        <time>2011-08-30T08:51:43Z</time>
      </trkpt>
      <trkpt lat="42.87031" lon="-0.45065">
        <ele>1341.657227</ele>
        <time>2011-08-30T08:52:11Z</time>
      </trkpt>
      <trkpt lat="42.87028" lon="-0.45076">
        <ele>1345.021729</ele>
        <time>2011-08-30T08:52:21Z</time>
      </trkpt>
      <trkpt lat="42.87026" lon="-0.45088">
        <ele>1347.905762</ele>
        <time>2011-08-30T08:52:33Z</time>
      </trkpt>
      <trkpt lat="42.87026" lon="-0.45103">
        <ele>1351.270264</ele>
        <time>2011-08-30T08:52:47Z</time>
      </trkpt>
      <trkpt lat="42.87024" lon="-0.45117">
        <ele>1354.154297</ele>
        <time>2011-08-30T08:53:00Z</time>
      </trkpt>
      <trkpt lat="42.87023" lon="-0.45121">
        <ele>1356.076904</ele>
        <time>2011-08-30T08:53:08Z</time>
      </trkpt>
      <trkpt lat="42.87022" lon="-0.45123">
        <ele>1352.712158</ele>
        <time>2011-08-30T08:53:11Z</time>
      </trkpt>
      <trkpt lat="42.87021" lon="-0.45126">
        <ele>1358.480225</ele>
        <time>2011-08-30T08:53:14Z</time>
      </trkpt>
      <trkpt lat="42.87021" lon="-0.45126">
        <ele>1357.519043</ele>
        <time>2011-08-30T08:53:15Z</time>
      </trkpt>
      <trkpt lat="42.87017" lon="-0.45133">
        <ele>1356.557617</ele>
        <time>2011-08-30T08:53:25Z</time>
      </trkpt>
      <trkpt lat="42.87016" lon="-0.45134">
        <ele>1359.922119</ele>
        <time>2011-08-30T08:53:26Z</time>
      </trkpt>
      <trkpt lat="42.87016" lon="-0.45135">
        <ele>1359.922119</ele>
        <time>2011-08-30T08:53:27Z</time>
      </trkpt>
      <trkpt lat="42.87011" lon="-0.45148">
        <ele>1361.364258</ele>
        <time>2011-08-30T08:53:41Z</time>
      </trkpt>
      <trkpt lat="42.87007" lon="-0.4517">
        <ele>1364.248047</ele>
        <time>2011-08-30T08:54:00Z</time>
      </trkpt>
      <trkpt lat="42.87006" lon="-0.45172">
        <ele>1365.209473</ele>
        <time>2011-08-30T08:54:02Z</time>
      </trkpt>
      <trkpt lat="42.87005" lon="-0.45177">
        <ele>1367.13208</ele>
        <time>2011-08-30T08:54:08Z</time>
      </trkpt>
      <trkpt lat="42.86999" lon="-0.45182">
        <ele>1369.054688</ele>
        <time>2011-08-30T08:54:21Z</time>
      </trkpt>
      <trkpt lat="42.86995" lon="-0.45185">
        <ele>1370.496582</ele>
        <time>2011-08-30T08:54:36Z</time>
      </trkpt>
      <trkpt lat="42.86995" lon="-0.45193">
        <ele>1373.380859</ele>
        <time>2011-08-30T08:54:45Z</time>
      </trkpt>
      <trkpt lat="42.86996" lon="-0.45196">
        <ele>1373.380859</ele>
        <time>2011-08-30T08:54:47Z</time>
      </trkpt>
      <trkpt lat="42.86999" lon="-0.45207">
        <ele>1374.342041</ele>
        <time>2011-08-30T08:54:58Z</time>
      </trkpt>
      <trkpt lat="42.86996" lon="-0.45218">
        <ele>1376.745361</ele>
        <time>2011-08-30T08:55:11Z</time>
      </trkpt>
      <trkpt lat="42.86993" lon="-0.45235">
        <ele>1380.109863</ele>
        <time>2011-08-30T08:55:29Z</time>
      </trkpt>
      <trkpt lat="42.8699" lon="-0.45244">
        <ele>1383.474365</ele>
        <time>2011-08-30T08:55:43Z</time>
      </trkpt>
      <trkpt lat="42.86989" lon="-0.45254">
        <ele>1385.396973</ele>
        <time>2011-08-30T08:55:58Z</time>
      </trkpt>
      <trkpt lat="42.86986" lon="-0.45261">
        <ele>1388.761963</ele>
        <time>2011-08-30T08:56:10Z</time>
      </trkpt>
      <trkpt lat="42.86986" lon="-0.45276">
        <ele>1391.645752</ele>
        <time>2011-08-30T08:56:27Z</time>
      </trkpt>
      <trkpt lat="42.86979" lon="-0.4528">
        <ele>1394.049072</ele>
        <time>2011-08-30T08:56:42Z</time>
      </trkpt>
      <trkpt lat="42.86974" lon="-0.45278">
        <ele>1396.932861</ele>
        <time>2011-08-30T08:56:50Z</time>
      </trkpt>
      <trkpt lat="42.86966" lon="-0.45271">
        <ele>1399.336182</ele>
        <time>2011-08-30T08:57:03Z</time>
      </trkpt>
      <trkpt lat="42.86962" lon="-0.45278">
        <ele>1401.739502</ele>
        <time>2011-08-30T08:57:17Z</time>
      </trkpt>
      <trkpt lat="42.86961" lon="-0.45279">
        <ele>1402.700684</ele>
        <time>2011-08-30T08:57:21Z</time>
      </trkpt>
      <trkpt lat="42.8696" lon="-0.45276">
        <ele>1406.546143</ele>
        <time>2011-08-30T08:57:30Z</time>
      </trkpt>
      <trkpt lat="42.86956" lon="-0.45271">
        <ele>1406.06543</ele>
        <time>2011-08-30T08:57:45Z</time>
      </trkpt>
      <trkpt lat="42.86948" lon="-0.45267">
        <ele>1406.546143</ele>
        <time>2011-08-30T08:57:59Z</time>
      </trkpt>
      <trkpt lat="42.86944" lon="-0.45259">
        <ele>1408.46875</ele>
        <time>2011-08-30T08:58:11Z</time>
      </trkpt>
      <trkpt lat="42.86936" lon="-0.45252">
        <ele>1411.352783</ele>
        <time>2011-08-30T08:58:28Z</time>
      </trkpt>
      <trkpt lat="42.86925" lon="-0.45246">
        <ele>1414.717285</ele>
        <time>2011-08-30T08:58:43Z</time>
      </trkpt>
      <trkpt lat="42.86919" lon="-0.45246">
        <ele>1418.081787</ele>
        <time>2011-08-30T08:58:55Z</time>
      </trkpt>
      <trkpt lat="42.86916" lon="-0.45248">
        <ele>1417.601074</ele>
        <time>2011-08-30T08:59:17Z</time>
      </trkpt>
      <trkpt lat="42.86916" lon="-0.45248">
        <ele>1417.601074</ele>
        <time>2011-08-30T08:59:49Z</time>
      </trkpt>
      <trkpt lat="42.86916" lon="-0.45247">
        <ele>1417.601074</ele>
        <time>2011-08-30T09:00:38Z</time>
      </trkpt>
      <trkpt lat="42.86918" lon="-0.45249">
        <ele>1418.081787</ele>
        <time>2011-08-30T09:01:49Z</time>
      </trkpt>
      <trkpt lat="42.86916" lon="-0.45248">
        <ele>1417.601074</ele>
        <time>2011-08-30T09:02:45Z</time>
      </trkpt>
      <trkpt lat="42.86916" lon="-0.45247">
        <ele>1417.601074</ele>
        <time>2011-08-30T09:03:08Z</time>
      </trkpt>
      <trkpt lat="42.86916" lon="-0.45257">
        <ele>1417.120605</ele>
        <time>2011-08-30T09:03:24Z</time>
      </trkpt>
      <trkpt lat="42.86916" lon="-0.45256">
        <ele>1417.120605</ele>
        <time>2011-08-30T09:03:25Z</time>
      </trkpt>
      <trkpt lat="42.86918" lon="-0.45258">
        <ele>1416.639893</ele>
        <time>2011-08-30T09:03:39Z</time>
      </trkpt>
      <trkpt lat="42.86911" lon="-0.45269">
        <ele>1416.639893</ele>
        <time>2011-08-30T09:03:53Z</time>
      </trkpt>
      <trkpt lat="42.86909" lon="-0.4527">
        <ele>1416.639893</ele>
        <time>2011-08-30T09:04:00Z</time>
      </trkpt>
      <trkpt lat="42.869" lon="-0.45289">
        <ele>1416.15918</ele>
        <time>2011-08-30T09:04:17Z</time>
      </trkpt>
      <trkpt lat="42.86897" lon="-0.45305">
        <ele>1416.639893</ele>
        <time>2011-08-30T09:04:36Z</time>
      </trkpt>
      <trkpt lat="42.86892" lon="-0.45329">
        <ele>1416.639893</ele>
        <time>2011-08-30T09:04:54Z</time>
      </trkpt>
      <trkpt lat="42.86892" lon="-0.45353">
        <ele>1416.639893</ele>
        <time>2011-08-30T09:05:10Z</time>
      </trkpt>
      <trkpt lat="42.86893" lon="-0.45362">
        <ele>1417.120605</ele>
        <time>2011-08-30T09:05:16Z</time>
      </trkpt>
      <trkpt lat="42.86892" lon="-0.45387">
        <ele>1417.120605</ele>
        <time>2011-08-30T09:05:33Z</time>
      </trkpt>
      <trkpt lat="42.86892" lon="-0.45407">
        <ele>1417.601074</ele>
        <time>2011-08-30T09:05:48Z</time>
      </trkpt>
      <trkpt lat="42.86898" lon="-0.45421">
        <ele>1417.601074</ele>
        <time>2011-08-30T09:06:01Z</time>
      </trkpt>
      <trkpt lat="42.86905" lon="-0.45433">
        <ele>1419.043213</ele>
        <time>2011-08-30T09:06:18Z</time>
      </trkpt>
      <trkpt lat="42.86916" lon="-0.45451">
        <ele>1420.485352</ele>
        <time>2011-08-30T09:06:33Z</time>
      </trkpt>
      <trkpt lat="42.86923" lon="-0.45467">
        <ele>1419.043213</ele>
        <time>2011-08-30T09:06:50Z</time>
      </trkpt>
      <trkpt lat="42.86929" lon="-0.45475">
        <ele>1419.043213</ele>
        <time>2011-08-30T09:07:01Z</time>
      </trkpt>
      <trkpt lat="42.8692" lon="-0.455">
        <ele>1419.043213</ele>
        <time>2011-08-30T09:07:21Z</time>
      </trkpt>
      <trkpt lat="42.86915" lon="-0.45516">
        <ele>1419.043213</ele>
        <time>2011-08-30T09:07:35Z</time>
      </trkpt>
      <trkpt lat="42.86914" lon="-0.45549">
        <ele>1420.004639</ele>
        <time>2011-08-30T09:07:54Z</time>
      </trkpt>
      <trkpt lat="42.86919" lon="-0.45582">
        <ele>1420.966064</ele>
        <time>2011-08-30T09:08:15Z</time>
      </trkpt>
      <trkpt lat="42.86924" lon="-0.45601">
        <ele>1420.966064</ele>
        <time>2011-08-30T09:08:27Z</time>
      </trkpt>
      <trkpt lat="42.86933" lon="-0.4562">
        <ele>1420.966064</ele>
        <time>2011-08-30T09:08:42Z</time>
      </trkpt>
      <trkpt lat="42.86944" lon="-0.45633">
        <ele>1419.523926</ele>
        <time>2011-08-30T09:09:00Z</time>
      </trkpt>
      <trkpt lat="42.86959" lon="-0.45645">
        <ele>1419.523926</ele>
        <time>2011-08-30T09:09:16Z</time>
      </trkpt>
      <trkpt lat="42.86968" lon="-0.45648">
        <ele>1421.927246</ele>
        <time>2011-08-30T09:09:30Z</time>
      </trkpt>
      <trkpt lat="42.86971" lon="-0.45656">
        <ele>1424.811279</ele>
        <time>2011-08-30T09:09:47Z</time>
      </trkpt>
      <trkpt lat="42.86967" lon="-0.45669">
        <ele>1426.253174</ele>
        <time>2011-08-30T09:09:59Z</time>
      </trkpt>
      <trkpt lat="42.86948" lon="-0.45689">
        <ele>1425.772461</ele>
        <time>2011-08-30T09:10:18Z</time>
      </trkpt>
      <trkpt lat="42.86932" lon="-0.45705">
        <ele>1426.253174</ele>
        <time>2011-08-30T09:10:32Z</time>
      </trkpt>
      <trkpt lat="42.86924" lon="-0.45709">
        <ele>1426.253174</ele>
        <time>2011-08-30T09:10:46Z</time>
      </trkpt>
      <trkpt lat="42.86914" lon="-0.45705">
        <ele>1426.733887</ele>
        <time>2011-08-30T09:10:58Z</time>
      </trkpt>
      <trkpt lat="42.86906" lon="-0.45717">
        <ele>1426.733887</ele>
        <time>2011-08-30T09:11:10Z</time>
      </trkpt>
      <trkpt lat="42.86905" lon="-0.45718">
        <ele>1426.733887</ele>
        <time>2011-08-30T09:11:11Z</time>
      </trkpt>
      <trkpt lat="42.86898" lon="-0.45735">
        <ele>1426.253174</ele>
        <time>2011-08-30T09:11:25Z</time>
      </trkpt>
      <trkpt lat="42.86892" lon="-0.45741">
        <ele>1426.253174</ele>
        <time>2011-08-30T09:11:32Z</time>
      </trkpt>
      <trkpt lat="42.86876" lon="-0.45747">
        <ele>1426.733887</ele>
        <time>2011-08-30T09:11:46Z</time>
      </trkpt>
      <trkpt lat="42.86872" lon="-0.45757">
        <ele>1426.733887</ele>
        <time>2011-08-30T09:11:59Z</time>
      </trkpt>
      <trkpt lat="42.86871" lon="-0.45761">
        <ele>1426.733887</ele>
        <time>2011-08-30T09:12:01Z</time>
      </trkpt>
      <trkpt lat="42.86867" lon="-0.45774">
        <ele>1426.733887</ele>
        <time>2011-08-30T09:12:09Z</time>
      </trkpt>
      <trkpt lat="42.86865" lon="-0.4578">
        <ele>1426.733887</ele>
        <time>2011-08-30T09:12:13Z</time>
      </trkpt>
      <trkpt lat="42.86856" lon="-0.45807">
        <ele>1427.2146</ele>
        <time>2011-08-30T09:12:30Z</time>
      </trkpt>
      <trkpt lat="42.86861" lon="-0.45813">
        <ele>1429.617676</ele>
        <time>2011-08-30T09:13:15Z</time>
      </trkpt>
      <trkpt lat="42.8686" lon="-0.45828">
        <ele>1432.501709</ele>
        <time>2011-08-30T09:13:34Z</time>
      </trkpt>
      <trkpt lat="42.86862" lon="-0.45839">
        <ele>1435.866211</ele>
        <time>2011-08-30T09:13:45Z</time>
      </trkpt>
      <trkpt lat="42.86861" lon="-0.45853">
        <ele>1437.30835</ele>
        <time>2011-08-30T09:14:00Z</time>
      </trkpt>
      <trkpt lat="42.8686" lon="-0.45858">
        <ele>1440.672852</ele>
        <time>2011-08-30T09:14:11Z</time>
      </trkpt>
      <trkpt lat="42.86861" lon="-0.45869">
        <ele>1442.11499</ele>
        <time>2011-08-30T09:14:23Z</time>
      </trkpt>
      <trkpt lat="42.86861" lon="-0.45878">
        <ele>1445.479492</ele>
        <time>2011-08-30T09:14:32Z</time>
      </trkpt>
      <trkpt lat="42.86865" lon="-0.45894">
        <ele>1448.363281</ele>
        <time>2011-08-30T09:14:52Z</time>
      </trkpt>
      <trkpt lat="42.86875" lon="-0.45905">
        <ele>1451.728027</ele>
        <time>2011-08-30T09:15:06Z</time>
      </trkpt>
      <trkpt lat="42.8687" lon="-0.4592">
        <ele>1454.612061</ele>
        <time>2011-08-30T09:15:29Z</time>
      </trkpt>
      <trkpt lat="42.86871" lon="-0.45931">
        <ele>1457.015381</ele>
        <time>2011-08-30T09:15:41Z</time>
      </trkpt>
      <trkpt lat="42.86879" lon="-0.4595">
        <ele>1460.379883</ele>
        <time>2011-08-30T09:16:00Z</time>
      </trkpt>
      <trkpt lat="42.8689" lon="-0.45964">
        <ele>1463.263916</ele>
        <time>2011-08-30T09:16:17Z</time>
      </trkpt>
      <trkpt lat="42.86888" lon="-0.45967">
        <ele>1466.628418</ele>
        <time>2011-08-30T09:16:31Z</time>
      </trkpt>
      <trkpt lat="42.8689" lon="-0.45977">
        <ele>1469.993164</ele>
        <time>2011-08-30T09:16:48Z</time>
      </trkpt>
      <trkpt lat="42.86885" lon="-0.45992">
        <ele>1472.396484</ele>
        <time>2011-08-30T09:17:09Z</time>
      </trkpt>
      <trkpt lat="42.8688" lon="-0.46007">
        <ele>1474.319092</ele>
        <time>2011-08-30T09:17:24Z</time>
      </trkpt>
      <trkpt lat="42.86879" lon="-0.46022">
        <ele>1476.722412</ele>
        <time>2011-08-30T09:17:38Z</time>
      </trkpt>
      <trkpt lat="42.86873" lon="-0.46037">
        <ele>1480.086914</ele>
        <time>2011-08-30T09:17:59Z</time>
      </trkpt>
      <trkpt lat="42.86869" lon="-0.46059">
        <ele>1481.04834</ele>
        <time>2011-08-30T09:18:19Z</time>
      </trkpt>
      <trkpt lat="42.8687" lon="-0.4607">
        <ele>1483.451416</ele>
        <time>2011-08-30T09:18:29Z</time>
      </trkpt>
      <trkpt lat="42.86867" lon="-0.46079">
        <ele>1486.816162</ele>
        <time>2011-08-30T09:18:40Z</time>
      </trkpt>
      <trkpt lat="42.86856" lon="-0.46083">
        <ele>1488.739014</ele>
        <time>2011-08-30T09:18:54Z</time>
      </trkpt>
      <trkpt lat="42.86853" lon="-0.46095">
        <ele>1492.103516</ele>
        <time>2011-08-30T09:19:10Z</time>
      </trkpt>
      <trkpt lat="42.86855" lon="-0.46096">
        <ele>1492.103516</ele>
        <time>2011-08-30T09:19:11Z</time>
      </trkpt>
      <trkpt lat="42.86855" lon="-0.46095">
        <ele>1493.064697</ele>
        <time>2011-08-30T09:19:57Z</time>
      </trkpt>
      <trkpt lat="42.86855" lon="-0.46097">
        <ele>1492.584229</ele>
        <time>2011-08-30T09:20:33Z</time>
      </trkpt>
      <trkpt lat="42.86857" lon="-0.46097">
        <ele>1493.54541</ele>
        <time>2011-08-30T09:21:20Z</time>
      </trkpt>
      <trkpt lat="42.86857" lon="-0.461">
        <ele>1495.94873</ele>
        <time>2011-08-30T09:21:46Z</time>
      </trkpt>
      <trkpt lat="42.86861" lon="-0.46112">
        <ele>1499.793945</ele>
        <time>2011-08-30T09:21:59Z</time>
      </trkpt>
      <trkpt lat="42.86861" lon="-0.46113">
        <ele>1500.274902</ele>
        <time>2011-08-30T09:22:01Z</time>
      </trkpt>
      <trkpt lat="42.86861" lon="-0.4612">
        <ele>1503.158691</ele>
        <time>2011-08-30T09:22:10Z</time>
      </trkpt>
      <trkpt lat="42.86867" lon="-0.46121">
        <ele>1505.081299</ele>
        <time>2011-08-30T09:22:28Z</time>
      </trkpt>
      <trkpt lat="42.86867" lon="-0.46126">
        <ele>1507.484619</ele>
        <time>2011-08-30T09:22:35Z</time>
      </trkpt>
      <trkpt lat="42.86868" lon="-0.46136">
        <ele>1508.445801</ele>
        <time>2011-08-30T09:22:45Z</time>
      </trkpt>
      <trkpt lat="42.86868" lon="-0.46148">
        <ele>1511.329834</ele>
        <time>2011-08-30T09:22:57Z</time>
      </trkpt>
      <trkpt lat="42.86879" lon="-0.46151">
        <ele>1514.694336</ele>
        <time>2011-08-30T09:23:11Z</time>
      </trkpt>
      <trkpt lat="42.86878" lon="-0.46159">
        <ele>1517.578369</ele>
        <time>2011-08-30T09:23:25Z</time>
      </trkpt>
      <trkpt lat="42.86882" lon="-0.46161">
        <ele>1520.943115</ele>
        <time>2011-08-30T09:23:40Z</time>
      </trkpt>
      <trkpt lat="42.86889" lon="-0.46175">
        <ele>1523.346436</ele>
        <time>2011-08-30T09:23:53Z</time>
      </trkpt>
      <trkpt lat="42.86887" lon="-0.46188">
        <ele>1525.268799</ele>
        <time>2011-08-30T09:24:07Z</time>
      </trkpt>
      <trkpt lat="42.86877" lon="-0.46201">
        <ele>1525.749512</ele>
        <time>2011-08-30T09:24:21Z</time>
      </trkpt>
      <trkpt lat="42.86871" lon="-0.46215">
        <ele>1528.152832</ele>
        <time>2011-08-30T09:24:36Z</time>
      </trkpt>
      <trkpt lat="42.8688" lon="-0.46223">
        <ele>1531.998047</ele>
        <time>2011-08-30T09:24:48Z</time>
      </trkpt>
      <trkpt lat="42.86884" lon="-0.46232">
        <ele>1533.440186</ele>
        <time>2011-08-30T09:25:00Z</time>
      </trkpt>
      <trkpt lat="42.86885" lon="-0.46235">
        <ele>1534.401611</ele>
        <time>2011-08-30T09:25:02Z</time>
      </trkpt>
      <trkpt lat="42.86888" lon="-0.46248">
        <ele>1537.2854</ele>
        <time>2011-08-30T09:25:15Z</time>
      </trkpt>
      <trkpt lat="42.86889" lon="-0.4625">
        <ele>1537.766113</ele>
        <time>2011-08-30T09:25:16Z</time>
      </trkpt>
      <trkpt lat="42.86889" lon="-0.4626">
        <ele>1539.688721</ele>
        <time>2011-08-30T09:25:27Z</time>
      </trkpt>
      <trkpt lat="42.86887" lon="-0.46275">
        <ele>1541.611328</ele>
        <time>2011-08-30T09:25:57Z</time>
      </trkpt>
      <trkpt lat="42.86889" lon="-0.46289">
        <ele>1543.053223</ele>
        <time>2011-08-30T09:26:11Z</time>
      </trkpt>
      <trkpt lat="42.86896" lon="-0.46306">
        <ele>1544.97583</ele>
        <time>2011-08-30T09:26:26Z</time>
      </trkpt>
      <trkpt lat="42.86894" lon="-0.4632">
        <ele>1547.37915</ele>
        <time>2011-08-30T09:26:39Z</time>
      </trkpt>
      <trkpt lat="42.86897" lon="-0.46329">
        <ele>1550.263428</ele>
        <time>2011-08-30T09:26:53Z</time>
      </trkpt>
      <trkpt lat="42.86895" lon="-0.46344">
        <ele>1552.666504</ele>
        <time>2011-08-30T09:27:08Z</time>
      </trkpt>
      <trkpt lat="42.86892" lon="-0.46357">
        <ele>1554.108643</ele>
        <time>2011-08-30T09:27:22Z</time>
      </trkpt>
      <trkpt lat="42.86899" lon="-0.46376">
        <ele>1556.992432</ele>
        <time>2011-08-30T09:27:36Z</time>
      </trkpt>
      <trkpt lat="42.86901" lon="-0.46383">
        <ele>1557.953857</ele>
        <time>2011-08-30T09:27:40Z</time>
      </trkpt>
      <trkpt lat="42.86901" lon="-0.46386">
        <ele>1556.511719</ele>
        <time>2011-08-30T09:27:42Z</time>
      </trkpt>
      <trkpt lat="42.86912" lon="-0.46409">
        <ele>1559.395752</ele>
        <time>2011-08-30T09:27:57Z</time>
      </trkpt>
      <trkpt lat="42.86913" lon="-0.46412">
        <ele>1560.356934</ele>
        <time>2011-08-30T09:27:59Z</time>
      </trkpt>
      <trkpt lat="42.86914" lon="-0.46413">
        <ele>1560.356934</ele>
        <time>2011-08-30T09:28:00Z</time>
      </trkpt>
      <trkpt lat="42.86914" lon="-0.46424">
        <ele>1560.837646</ele>
        <time>2011-08-30T09:28:14Z</time>
      </trkpt>
      <trkpt lat="42.86906" lon="-0.46435">
        <ele>1562.279541</ele>
        <time>2011-08-30T09:28:27Z</time>
      </trkpt>
      <trkpt lat="42.86898" lon="-0.46446">
        <ele>1563.721436</ele>
        <time>2011-08-30T09:28:40Z</time>
      </trkpt>
      <trkpt lat="42.86895" lon="-0.4646">
        <ele>1564.683105</ele>
        <time>2011-08-30T09:28:52Z</time>
      </trkpt>
      <trkpt lat="42.8689" lon="-0.46476">
        <ele>1567.086426</ele>
        <time>2011-08-30T09:29:05Z</time>
      </trkpt>
      <trkpt lat="42.8689" lon="-0.46481">
        <ele>1567.566895</ele>
        <time>2011-08-30T09:29:10Z</time>
      </trkpt>
      <trkpt lat="42.86886" lon="-0.46489">
        <ele>1569.489746</ele>
        <time>2011-08-30T09:29:20Z</time>
      </trkpt>
      <trkpt lat="42.86893" lon="-0.46502">
        <ele>1570.931641</ele>
        <time>2011-08-30T09:29:30Z</time>
      </trkpt>
      <trkpt lat="42.86896" lon="-0.46517">
        <ele>1571.412109</ele>
        <time>2011-08-30T09:29:43Z</time>
      </trkpt>
      <trkpt lat="42.86899" lon="-0.46528">
        <ele>1572.854248</ele>
        <time>2011-08-30T09:29:53Z</time>
      </trkpt>
      <trkpt lat="42.86901" lon="-0.46536">
        <ele>1575.257324</ele>
        <time>2011-08-30T09:30:03Z</time>
      </trkpt>
      <trkpt lat="42.86903" lon="-0.46544">
        <ele>1575.257324</ele>
        <time>2011-08-30T09:30:11Z</time>
      </trkpt>
      <trkpt lat="42.86902" lon="-0.46546">
        <ele>1576.699463</ele>
        <time>2011-08-30T09:30:14Z</time>
      </trkpt>
      <trkpt lat="42.86897" lon="-0.46556">
        <ele>1578.62207</ele>
        <time>2011-08-30T09:30:26Z</time>
      </trkpt>
      <trkpt lat="42.86899" lon="-0.46564">
        <ele>1578.62207</ele>
        <time>2011-08-30T09:30:34Z</time>
      </trkpt>
      <trkpt lat="42.86906" lon="-0.46587">
        <ele>1581.506104</ele>
        <time>2011-08-30T09:30:53Z</time>
      </trkpt>
      <trkpt lat="42.86914" lon="-0.46603">
        <ele>1582.467529</ele>
        <time>2011-08-30T09:31:06Z</time>
      </trkpt>
      <trkpt lat="42.86912" lon="-0.4661">
        <ele>1581.025635</ele>
        <time>2011-08-30T09:31:12Z</time>
      </trkpt>
      <trkpt lat="42.86902" lon="-0.46619">
        <ele>1582.947998</ele>
        <time>2011-08-30T09:31:23Z</time>
      </trkpt>
      <trkpt lat="42.86904" lon="-0.46617">
        <ele>1584.390137</ele>
        <time>2011-08-30T09:31:38Z</time>
      </trkpt>
      <trkpt lat="42.86904" lon="-0.46624">
        <ele>1584.390137</ele>
        <time>2011-08-30T09:32:33Z</time>
      </trkpt>
      <trkpt lat="42.86901" lon="-0.46624">
        <ele>1583.428711</ele>
        <time>2011-08-30T09:32:47Z</time>
      </trkpt>
      <trkpt lat="42.86899" lon="-0.46624">
        <ele>1582.947998</ele>
        <time>2011-08-30T09:32:48Z</time>
      </trkpt>
    </trkseg>
  </trk>
  <trk>
    <name><![CDATA[ACTIVE LOG 003]]></name>
    <trkseg>
      <trkpt lat="42.86834" lon="-0.46607">
        <ele>1583.428711</ele>
        <time>2011-08-30T09:33:20Z</time>
      </trkpt>
    </trkseg>
  </trk>
  <trk>
    <name><![CDATA[ACTIVE LOG 004]]></name>
    <trkseg>
      <trkpt lat="42.86867" lon="-0.46615">
        <ele>1582.947998</ele>
        <time>2011-08-30T09:33:24Z</time>
      </trkpt>
      <trkpt lat="42.86875" lon="-0.46622">
        <ele>1583.909424</ele>
        <time>2011-08-30T09:33:36Z</time>
      </trkpt>
      <trkpt lat="42.86862" lon="-0.46616">
        <ele>1584.390137</ele>
        <time>2011-08-30T09:33:49Z</time>
      </trkpt>
      <trkpt lat="42.86862" lon="-0.46624">
        <ele>1584.390137</ele>
        <time>2011-08-30T09:35:27Z</time>
      </trkpt>
      <trkpt lat="42.86895" lon="-0.46646">
        <ele>1585.351318</ele>
        <time>2011-08-30T09:36:00Z</time>
      </trkpt>
      <trkpt lat="42.86897" lon="-0.46659">
        <ele>1588.235352</ele>
        <time>2011-08-30T09:36:11Z</time>
      </trkpt>
      <trkpt lat="42.86899" lon="-0.46672">
        <ele>1589.196533</ele>
        <time>2011-08-30T09:36:21Z</time>
      </trkpt>
      <trkpt lat="42.869" lon="-0.46687">
        <ele>1591.599854</ele>
        <time>2011-08-30T09:36:34Z</time>
      </trkpt>
      <trkpt lat="42.86906" lon="-0.46699">
        <ele>1592.561279</ele>
        <time>2011-08-30T09:36:48Z</time>
      </trkpt>
      <trkpt lat="42.86914" lon="-0.46711">
        <ele>1593.041748</ele>
        <time>2011-08-30T09:37:02Z</time>
      </trkpt>
      <trkpt lat="42.86916" lon="-0.46723">
        <ele>1593.522461</ele>
        <time>2011-08-30T09:37:14Z</time>
      </trkpt>
      <trkpt lat="42.86899" lon="-0.46733">
        <ele>1595.925781</ele>
        <time>2011-08-30T09:37:28Z</time>
      </trkpt>
      <trkpt lat="42.86899" lon="-0.46746">
        <ele>1597.848633</ele>
        <time>2011-08-30T09:37:36Z</time>
      </trkpt>
      <trkpt lat="42.86903" lon="-0.46756">
        <ele>1598.809814</ele>
        <time>2011-08-30T09:37:45Z</time>
      </trkpt>
      <trkpt lat="42.86903" lon="-0.46768">
        <ele>1599.290527</ele>
        <time>2011-08-30T09:37:58Z</time>
      </trkpt>
      <trkpt lat="42.86896" lon="-0.4678">
        <ele>1600.732422</ele>
        <time>2011-08-30T09:38:11Z</time>
      </trkpt>
      <trkpt lat="42.86881" lon="-0.46787">
        <ele>1602.655029</ele>
        <time>2011-08-30T09:38:21Z</time>
      </trkpt>
      <trkpt lat="42.86877" lon="-0.46802">
        <ele>1604.577637</ele>
        <time>2011-08-30T09:38:34Z</time>
      </trkpt>
      <trkpt lat="42.86883" lon="-0.46816">
        <ele>1605.05835</ele>
        <time>2011-08-30T09:38:46Z</time>
      </trkpt>
      <trkpt lat="42.86876" lon="-0.46834">
        <ele>1607.942383</ele>
        <time>2011-08-30T09:39:04Z</time>
      </trkpt>
      <trkpt lat="42.86868" lon="-0.46845">
        <ele>1608.903564</ele>
        <time>2011-08-30T09:39:15Z</time>
      </trkpt>
      <trkpt lat="42.86859" lon="-0.46861">
        <ele>1609.864746</ele>
        <time>2011-08-30T09:39:28Z</time>
      </trkpt>
      <trkpt lat="42.86848" lon="-0.46876">
        <ele>1610.826172</ele>
        <time>2011-08-30T09:39:40Z</time>
      </trkpt>
      <trkpt lat="42.86831" lon="-0.46893">
        <ele>1613.710205</ele>
        <time>2011-08-30T09:39:57Z</time>
      </trkpt>
      <trkpt lat="42.86825" lon="-0.46908">
        <ele>1614.671631</ele>
        <time>2011-08-30T09:40:09Z</time>
      </trkpt>
      <trkpt lat="42.8682" lon="-0.46921">
        <ele>1617.074951</ele>
        <time>2011-08-30T09:40:19Z</time>
      </trkpt>
      <trkpt lat="42.8683" lon="-0.46938">
        <ele>1619.478271</ele>
        <time>2011-08-30T09:40:33Z</time>
      </trkpt>
      <trkpt lat="42.86867" lon="-0.4696">
        <ele>1622.842773</ele>
        <time>2011-08-30T09:40:57Z</time>
      </trkpt>
      <trkpt lat="42.86856" lon="-0.46976">
        <ele>1624.284668</ele>
        <time>2011-08-30T09:41:11Z</time>
      </trkpt>
      <trkpt lat="42.86851" lon="-0.46989">
        <ele>1623.803955</ele>
        <time>2011-08-30T09:41:21Z</time>
      </trkpt>
      <trkpt lat="42.86858" lon="-0.47001">
        <ele>1626.687988</ele>
        <time>2011-08-30T09:41:33Z</time>
      </trkpt>
      <trkpt lat="42.86858" lon="-0.47014">
        <ele>1629.091309</ele>
        <time>2011-08-30T09:41:47Z</time>
      </trkpt>
      <trkpt lat="42.86856" lon="-0.4702">
        <ele>1630.533447</ele>
        <time>2011-08-30T09:41:52Z</time>
      </trkpt>
      <trkpt lat="42.86862" lon="-0.47045">
        <ele>1632.936523</ele>
        <time>2011-08-30T09:42:11Z</time>
      </trkpt>
      <trkpt lat="42.86858" lon="-0.47057">
        <ele>1633.897949</ele>
        <time>2011-08-30T09:42:23Z</time>
      </trkpt>
      <trkpt lat="42.86854" lon="-0.47072">
        <ele>1636.781738</ele>
        <time>2011-08-30T09:42:37Z</time>
      </trkpt>
      <trkpt lat="42.86848" lon="-0.47083">
        <ele>1637.262451</ele>
        <time>2011-08-30T09:42:47Z</time>
      </trkpt>
      <trkpt lat="42.8685" lon="-0.47103">
        <ele>1639.185059</ele>
        <time>2011-08-30T09:43:03Z</time>
      </trkpt>
      <trkpt lat="42.86857" lon="-0.47113">
        <ele>1639.665771</ele>
        <time>2011-08-30T09:43:14Z</time>
      </trkpt>
      <trkpt lat="42.8686" lon="-0.47125">
        <ele>1639.665771</ele>
        <time>2011-08-30T09:43:26Z</time>
      </trkpt>
      <trkpt lat="42.86858" lon="-0.47126">
        <ele>1640.626953</ele>
        <time>2011-08-30T09:43:27Z</time>
      </trkpt>
      <trkpt lat="42.86856" lon="-0.4714">
        <ele>1641.107666</ele>
        <time>2011-08-30T09:43:39Z</time>
      </trkpt>
      <trkpt lat="42.86861" lon="-0.47154">
        <ele>1644.472412</ele>
        <time>2011-08-30T09:43:55Z</time>
      </trkpt>
      <trkpt lat="42.86862" lon="-0.47166">
        <ele>1646.875732</ele>
        <time>2011-08-30T09:44:08Z</time>
      </trkpt>
      <trkpt lat="42.86861" lon="-0.4717">
        <ele>1647.837158</ele>
        <time>2011-08-30T09:44:12Z</time>
      </trkpt>
      <trkpt lat="42.86854" lon="-0.47178">
        <ele>1652.162842</ele>
        <time>2011-08-30T09:44:26Z</time>
      </trkpt>
      <trkpt lat="42.86854" lon="-0.47179">
        <ele>1652.162842</ele>
        <time>2011-08-30T09:44:27Z</time>
      </trkpt>
      <trkpt lat="42.86853" lon="-0.47185">
        <ele>1653.124268</ele>
        <time>2011-08-30T09:44:43Z</time>
      </trkpt>
      <trkpt lat="42.86846" lon="-0.47196">
        <ele>1656.48877</ele>
        <time>2011-08-30T09:45:57Z</time>
      </trkpt>
      <trkpt lat="42.86843" lon="-0.47204">
        <ele>1657.930908</ele>
        <time>2011-08-30T09:46:06Z</time>
      </trkpt>
      <trkpt lat="42.86843" lon="-0.47209">
        <ele>1659.372803</ele>
        <time>2011-08-30T09:46:23Z</time>
      </trkpt>
      <trkpt lat="42.86843" lon="-0.47218">
        <ele>1659.853271</ele>
        <time>2011-08-30T09:46:43Z</time>
      </trkpt>
      <trkpt lat="42.86846" lon="-0.4723">
        <ele>1660.814941</ele>
        <time>2011-08-30T09:46:56Z</time>
      </trkpt>
      <trkpt lat="42.86837" lon="-0.47253">
        <ele>1662.737549</ele>
        <time>2011-08-30T09:47:54Z</time>
      </trkpt>
      <trkpt lat="42.86836" lon="-0.47256">
        <ele>1663.69873</ele>
        <time>2011-08-30T09:47:58Z</time>
      </trkpt>
      <trkpt lat="42.86833" lon="-0.47272">
        <ele>1667.063477</ele>
        <time>2011-08-30T09:48:16Z</time>
      </trkpt>
      <trkpt lat="42.86831" lon="-0.47278">
        <ele>1670.427979</ele>
        <time>2011-08-30T09:48:25Z</time>
      </trkpt>
      <trkpt lat="42.86818" lon="-0.47281">
        <ele>1670.427979</ele>
        <time>2011-08-30T09:49:00Z</time>
      </trkpt>
      <trkpt lat="42.86815" lon="-0.47277">
        <ele>1670.427979</ele>
        <time>2011-08-30T09:49:13Z</time>
      </trkpt>
      <trkpt lat="42.86811" lon="-0.47275">
        <ele>1670.427979</ele>
        <time>2011-08-30T09:49:23Z</time>
      </trkpt>
      <trkpt lat="42.86818" lon="-0.47281">
        <ele>1670.908691</ele>
        <time>2011-08-30T09:51:39Z</time>
      </trkpt>
      <trkpt lat="42.86819" lon="-0.47294">
        <ele>1672.831299</ele>
        <time>2011-08-30T09:51:53Z</time>
      </trkpt>
      <trkpt lat="42.8682" lon="-0.47305">
        <ele>1675.234375</ele>
        <time>2011-08-30T09:52:04Z</time>
      </trkpt>
      <trkpt lat="42.86822" lon="-0.47314">
        <ele>1678.599365</ele>
        <time>2011-08-30T09:52:15Z</time>
      </trkpt>
      <trkpt lat="42.86824" lon="-0.47325">
        <ele>1679.560547</ele>
        <time>2011-08-30T09:52:28Z</time>
      </trkpt>
      <trkpt lat="42.86821" lon="-0.47335">
        <ele>1682.44458</ele>
        <time>2011-08-30T09:52:40Z</time>
      </trkpt>
      <trkpt lat="42.86819" lon="-0.47346">
        <ele>1684.367188</ele>
        <time>2011-08-30T09:52:53Z</time>
      </trkpt>
      <trkpt lat="42.86814" lon="-0.47367">
        <ele>1687.250977</ele>
        <time>2011-08-30T09:53:12Z</time>
      </trkpt>
      <trkpt lat="42.86811" lon="-0.47376">
        <ele>1687.250977</ele>
        <time>2011-08-30T09:53:21Z</time>
      </trkpt>
      <trkpt lat="42.86809" lon="-0.47388">
        <ele>1687.731689</ele>
        <time>2011-08-30T09:53:32Z</time>
      </trkpt>
      <trkpt lat="42.86806" lon="-0.47403">
        <ele>1690.615479</ele>
        <time>2011-08-30T09:53:50Z</time>
      </trkpt>
      <trkpt lat="42.86798" lon="-0.47418">
        <ele>1690.13501</ele>
        <time>2011-08-30T09:54:12Z</time>
      </trkpt>
      <trkpt lat="42.86789" lon="-0.47428">
        <ele>1690.13501</ele>
        <time>2011-08-30T09:54:28Z</time>
      </trkpt>
      <trkpt lat="42.86784" lon="-0.47439">
        <ele>1688.212402</ele>
        <time>2011-08-30T09:54:49Z</time>
      </trkpt>
      <trkpt lat="42.86778" lon="-0.47451">
        <ele>1687.250977</ele>
        <time>2011-08-30T09:55:05Z</time>
      </trkpt>
      <trkpt lat="42.86775" lon="-0.47458">
        <ele>1687.731689</ele>
        <time>2011-08-30T09:55:13Z</time>
      </trkpt>
      <trkpt lat="42.86772" lon="-0.47461">
        <ele>1686.770264</ele>
        <time>2011-08-30T09:55:17Z</time>
      </trkpt>
      <trkpt lat="42.86763" lon="-0.47466">
        <ele>1687.250977</ele>
        <time>2011-08-30T09:55:30Z</time>
      </trkpt>
      <trkpt lat="42.86763" lon="-0.47471">
        <ele>1685.809082</ele>
        <time>2011-08-30T09:56:21Z</time>
      </trkpt>
      <trkpt lat="42.86754" lon="-0.47481">
        <ele>1685.809082</ele>
        <time>2011-08-30T09:56:35Z</time>
      </trkpt>
      <trkpt lat="42.86746" lon="-0.47487">
        <ele>1681.963867</ele>
        <time>2011-08-30T09:56:46Z</time>
      </trkpt>
      <trkpt lat="42.86738" lon="-0.47497">
        <ele>1682.44458</ele>
        <time>2011-08-30T09:56:58Z</time>
      </trkpt>
      <trkpt lat="42.86732" lon="-0.47502">
        <ele>1681.963867</ele>
        <time>2011-08-30T09:57:06Z</time>
      </trkpt>
      <trkpt lat="42.86717" lon="-0.47524">
        <ele>1681.002686</ele>
        <time>2011-08-30T09:57:27Z</time>
      </trkpt>
      <trkpt lat="42.86708" lon="-0.47533">
        <ele>1680.04126</ele>
        <time>2011-08-30T09:57:38Z</time>
      </trkpt>
      <trkpt lat="42.86693" lon="-0.47553">
        <ele>1679.560547</ele>
        <time>2011-08-30T09:57:58Z</time>
      </trkpt>
      <trkpt lat="42.86686" lon="-0.47554">
        <ele>1678.118652</ele>
        <time>2011-08-30T09:58:05Z</time>
      </trkpt>
      <trkpt lat="42.86683" lon="-0.47555">
        <ele>1677.157471</ele>
        <time>2011-08-30T09:58:08Z</time>
      </trkpt>
      <trkpt lat="42.86674" lon="-0.47562">
        <ele>1677.157471</ele>
        <time>2011-08-30T09:58:23Z</time>
      </trkpt>
      <trkpt lat="42.86666" lon="-0.47568">
        <ele>1679.079834</ele>
        <time>2011-08-30T09:58:35Z</time>
      </trkpt>
      <trkpt lat="42.86665" lon="-0.47569">
        <ele>1680.04126</ele>
        <time>2011-08-30T09:58:41Z</time>
      </trkpt>
      <trkpt lat="42.86664" lon="-0.47571">
        <ele>1680.521973</ele>
        <time>2011-08-30T09:59:40Z</time>
      </trkpt>
      <trkpt lat="42.86675" lon="-0.47566">
        <ele>1679.079834</ele>
        <time>2011-08-30T10:00:27Z</time>
      </trkpt>
      <trkpt lat="42.86657" lon="-0.47595">
        <ele>1680.521973</ele>
        <time>2011-08-30T10:01:12Z</time>
      </trkpt>
      <trkpt lat="42.86655" lon="-0.47602">
        <ele>1681.963867</ele>
        <time>2011-08-30T10:01:29Z</time>
      </trkpt>
      <trkpt lat="42.8664" lon="-0.47617">
        <ele>1680.521973</ele>
        <time>2011-08-30T10:01:47Z</time>
      </trkpt>
      <trkpt lat="42.86631" lon="-0.47628">
        <ele>1680.521973</ele>
        <time>2011-08-30T10:02:00Z</time>
      </trkpt>
      <trkpt lat="42.86614" lon="-0.47655">
        <ele>1681.002686</ele>
        <time>2011-08-30T10:02:24Z</time>
      </trkpt>
      <trkpt lat="42.86606" lon="-0.47671">
        <ele>1681.963867</ele>
        <time>2011-08-30T10:02:39Z</time>
      </trkpt>
      <trkpt lat="42.86596" lon="-0.47687">
        <ele>1682.925049</ele>
        <time>2011-08-30T10:02:55Z</time>
      </trkpt>
      <trkpt lat="42.86593" lon="-0.47694">
        <ele>1683.405762</ele>
        <time>2011-08-30T10:03:01Z</time>
      </trkpt>
      <trkpt lat="42.86591" lon="-0.477">
        <ele>1683.405762</ele>
        <time>2011-08-30T10:03:06Z</time>
      </trkpt>
      <trkpt lat="42.86592" lon="-0.47711">
        <ele>1683.405762</ele>
        <time>2011-08-30T10:03:25Z</time>
      </trkpt>
      <trkpt lat="42.86584" lon="-0.47698">
        <ele>1681.963867</ele>
        <time>2011-08-30T10:04:16Z</time>
      </trkpt>
      <trkpt lat="42.86582" lon="-0.47695">
        <ele>1681.002686</ele>
        <time>2011-08-30T10:04:21Z</time>
      </trkpt>
      <trkpt lat="42.86576" lon="-0.4769">
        <ele>1679.079834</ele>
        <time>2011-08-30T10:04:35Z</time>
      </trkpt>
      <trkpt lat="42.86572" lon="-0.47689">
        <ele>1681.002686</ele>
        <time>2011-08-30T10:04:42Z</time>
      </trkpt>
      <trkpt lat="42.86568" lon="-0.47691">
        <ele>1681.963867</ele>
        <time>2011-08-30T10:04:46Z</time>
      </trkpt>
      <trkpt lat="42.86565" lon="-0.47702">
        <ele>1684.367188</ele>
        <time>2011-08-30T10:05:02Z</time>
      </trkpt>
      <trkpt lat="42.86554" lon="-0.47695">
        <ele>1687.731689</ele>
        <time>2011-08-30T10:05:22Z</time>
      </trkpt>
      <trkpt lat="42.86545" lon="-0.47701">
        <ele>1688.693115</ele>
        <time>2011-08-30T10:05:39Z</time>
      </trkpt>
      <trkpt lat="42.86536" lon="-0.4771">
        <ele>1692.538574</ele>
        <time>2011-08-30T10:05:55Z</time>
      </trkpt>
      <trkpt lat="42.86535" lon="-0.47712">
        <ele>1693.019043</ele>
        <time>2011-08-30T10:05:57Z</time>
      </trkpt>
      <trkpt lat="42.86528" lon="-0.47722">
        <ele>1693.499756</ele>
        <time>2011-08-30T10:06:11Z</time>
      </trkpt>
      <trkpt lat="42.86524" lon="-0.4773">
        <ele>1696.864258</ele>
        <time>2011-08-30T10:06:21Z</time>
      </trkpt>
      <trkpt lat="42.86518" lon="-0.4774">
        <ele>1697.825684</ele>
        <time>2011-08-30T10:06:36Z</time>
      </trkpt>
      <trkpt lat="42.86507" lon="-0.47739">
        <ele>1699.748291</ele>
        <time>2011-08-30T10:06:49Z</time>
      </trkpt>
      <trkpt lat="42.86497" lon="-0.47744">
        <ele>1702.63208</ele>
        <time>2011-08-30T10:07:03Z</time>
      </trkpt>
      <trkpt lat="42.86486" lon="-0.47752">
        <ele>1704.074219</ele>
        <time>2011-08-30T10:07:24Z</time>
      </trkpt>
      <trkpt lat="42.86469" lon="-0.4776">
        <ele>1706.958008</ele>
        <time>2011-08-30T10:07:51Z</time>
      </trkpt>
      <trkpt lat="42.86456" lon="-0.47768">
        <ele>1710.803467</ele>
        <time>2011-08-30T10:08:12Z</time>
      </trkpt>
      <trkpt lat="42.86447" lon="-0.47766">
        <ele>1713.687256</ele>
        <time>2011-08-30T10:08:29Z</time>
      </trkpt>
      <trkpt lat="42.86447" lon="-0.47755">
        <ele>1713.687256</ele>
        <time>2011-08-30T10:08:43Z</time>
      </trkpt>
      <trkpt lat="42.8645" lon="-0.47747">
        <ele>1715.129395</ele>
        <time>2011-08-30T10:09:05Z</time>
      </trkpt>
      <trkpt lat="42.86445" lon="-0.47739">
        <ele>1717.052002</ele>
        <time>2011-08-30T10:09:24Z</time>
      </trkpt>
      <trkpt lat="42.86442" lon="-0.47731">
        <ele>1719.935791</ele>
        <time>2011-08-30T10:09:36Z</time>
      </trkpt>
      <trkpt lat="42.86437" lon="-0.47728">
        <ele>1722.339111</ele>
        <time>2011-08-30T10:09:55Z</time>
      </trkpt>
      <trkpt lat="42.86431" lon="-0.47731">
        <ele>1724.742676</ele>
        <time>2011-08-30T10:10:14Z</time>
      </trkpt>
      <trkpt lat="42.86426" lon="-0.4773">
        <ele>1727.145996</ele>
        <time>2011-08-30T10:10:44Z</time>
      </trkpt>
      <trkpt lat="42.86417" lon="-0.4774">
        <ele>1730.029785</ele>
        <time>2011-08-30T10:11:07Z</time>
      </trkpt>
      <trkpt lat="42.86409" lon="-0.47748">
        <ele>1732.913574</ele>
        <time>2011-08-30T10:11:22Z</time>
      </trkpt>
      <trkpt lat="42.86406" lon="-0.47754">
        <ele>1732.913574</ele>
        <time>2011-08-30T10:11:36Z</time>
      </trkpt>
      <trkpt lat="42.86397" lon="-0.4776">
        <ele>1732.913574</ele>
        <time>2011-08-30T10:11:48Z</time>
      </trkpt>
      <trkpt lat="42.86387" lon="-0.47764">
        <ele>1736.27832</ele>
        <time>2011-08-30T10:12:06Z</time>
      </trkpt>
      <trkpt lat="42.86382" lon="-0.47765">
        <ele>1739.642822</ele>
        <time>2011-08-30T10:12:17Z</time>
      </trkpt>
      <trkpt lat="42.86368" lon="-0.4777">
        <ele>1742.5271</ele>
        <time>2011-08-30T10:12:39Z</time>
      </trkpt>
      <trkpt lat="42.86367" lon="-0.4777">
        <ele>1743.488281</ele>
        <time>2011-08-30T10:12:41Z</time>
      </trkpt>
      <trkpt lat="42.86358" lon="-0.47774">
        <ele>1745.410889</ele>
        <time>2011-08-30T10:12:54Z</time>
      </trkpt>
      <trkpt lat="42.86348" lon="-0.4778">
        <ele>1748.775391</ele>
        <time>2011-08-30T10:13:10Z</time>
      </trkpt>
      <trkpt lat="42.86344" lon="-0.47791">
        <ele>1752.139893</ele>
        <time>2011-08-30T10:13:30Z</time>
      </trkpt>
      <trkpt lat="42.8634" lon="-0.47796">
        <ele>1754.543213</ele>
        <time>2011-08-30T10:13:39Z</time>
      </trkpt>
      <trkpt lat="42.86335" lon="-0.47808">
        <ele>1757.908203</ele>
        <time>2011-08-30T10:13:57Z</time>
      </trkpt>
      <trkpt lat="42.86328" lon="-0.47815">
        <ele>1761.272705</ele>
        <time>2011-08-30T10:14:11Z</time>
      </trkpt>
      <trkpt lat="42.86324" lon="-0.47817">
        <ele>1764.637207</ele>
        <time>2011-08-30T10:14:58Z</time>
      </trkpt>
      <trkpt lat="42.86325" lon="-0.47816">
        <ele>1762.7146</ele>
        <time>2011-08-30T10:15:41Z</time>
      </trkpt>
      <trkpt lat="42.8632" lon="-0.47813">
        <ele>1765.11792</ele>
        <time>2011-08-30T10:16:24Z</time>
      </trkpt>
      <trkpt lat="42.86313" lon="-0.47806">
        <ele>1766.559814</ele>
        <time>2011-08-30T10:16:55Z</time>
      </trkpt>
      <trkpt lat="42.86305" lon="-0.47803">
        <ele>1768.963135</ele>
        <time>2011-08-30T10:17:08Z</time>
      </trkpt>
      <trkpt lat="42.86303" lon="-0.47795">
        <ele>1772.327881</ele>
        <time>2011-08-30T10:17:22Z</time>
      </trkpt>
      <trkpt lat="42.86305" lon="-0.47785">
        <ele>1775.21167</ele>
        <time>2011-08-30T10:17:33Z</time>
      </trkpt>
      <trkpt lat="42.86307" lon="-0.47773">
        <ele>1776.173096</ele>
        <time>2011-08-30T10:17:47Z</time>
      </trkpt>
      <trkpt lat="42.86298" lon="-0.47764">
        <ele>1779.056885</ele>
        <time>2011-08-30T10:18:03Z</time>
      </trkpt>
      <trkpt lat="42.86295" lon="-0.47754">
        <ele>1780.979736</ele>
        <time>2011-08-30T10:18:17Z</time>
      </trkpt>
      <trkpt lat="42.86296" lon="-0.47754">
        <ele>1780.018311</ele>
        <time>2011-08-30T10:18:36Z</time>
      </trkpt>
      <trkpt lat="42.86295" lon="-0.47747">
        <ele>1780.979736</ele>
        <time>2011-08-30T10:18:47Z</time>
      </trkpt>
      <trkpt lat="42.86296" lon="-0.47741">
        <ele>1783.863525</ele>
        <time>2011-08-30T10:18:53Z</time>
      </trkpt>
      <trkpt lat="42.86294" lon="-0.47729">
        <ele>1787.70874</ele>
        <time>2011-08-30T10:19:11Z</time>
      </trkpt>
      <trkpt lat="42.86294" lon="-0.47729">
        <ele>1787.70874</ele>
        <time>2011-08-30T10:19:12Z</time>
      </trkpt>
      <trkpt lat="42.86297" lon="-0.47716">
        <ele>1790.592773</ele>
        <time>2011-08-30T10:19:29Z</time>
      </trkpt>
      <trkpt lat="42.86299" lon="-0.47709">
        <ele>1792.515625</ele>
        <time>2011-08-30T10:19:35Z</time>
      </trkpt>
      <trkpt lat="42.86298" lon="-0.47699">
        <ele>1795.399414</ele>
        <time>2011-08-30T10:19:51Z</time>
      </trkpt>
      <trkpt lat="42.86298" lon="-0.47698">
        <ele>1795.399414</ele>
        <time>2011-08-30T10:19:52Z</time>
      </trkpt>
      <trkpt lat="42.86297" lon="-0.47681">
        <ele>1799.244629</ele>
        <time>2011-08-30T10:20:16Z</time>
      </trkpt>
      <trkpt lat="42.86292" lon="-0.47679">
        <ele>1802.609131</ele>
        <time>2011-08-30T10:20:29Z</time>
      </trkpt>
      <trkpt lat="42.86287" lon="-0.47672">
        <ele>1806.45459</ele>
        <time>2011-08-30T10:20:53Z</time>
      </trkpt>
      <trkpt lat="42.86283" lon="-0.47662">
        <ele>1809.819092</ele>
        <time>2011-08-30T10:21:09Z</time>
      </trkpt>
      <trkpt lat="42.86283" lon="-0.47655">
        <ele>1813.183838</ele>
        <time>2011-08-30T10:21:19Z</time>
      </trkpt>
      <trkpt lat="42.8629" lon="-0.47644">
        <ele>1816.54834</ele>
        <time>2011-08-30T10:21:37Z</time>
      </trkpt>
      <trkpt lat="42.86292" lon="-0.47636">
        <ele>1819.912842</ele>
        <time>2011-08-30T10:21:55Z</time>
      </trkpt>
      <trkpt lat="42.8629" lon="-0.4763">
        <ele>1823.277832</ele>
        <time>2011-08-30T10:22:10Z</time>
      </trkpt>
      <trkpt lat="42.86292" lon="-0.47622">
        <ele>1826.642334</ele>
        <time>2011-08-30T10:22:23Z</time>
      </trkpt>
      <trkpt lat="42.86291" lon="-0.47621">
        <ele>1828.564941</ele>
        <time>2011-08-30T10:22:54Z</time>
      </trkpt>
      <trkpt lat="42.86286" lon="-0.47622">
        <ele>1831.44873</ele>
        <time>2011-08-30T10:23:07Z</time>
      </trkpt>
      <trkpt lat="42.86285" lon="-0.47621">
        <ele>1834.332764</ele>
        <time>2011-08-30T10:23:27Z</time>
      </trkpt>
      <trkpt lat="42.86276" lon="-0.47627">
        <ele>1836.255615</ele>
        <time>2011-08-30T10:24:06Z</time>
      </trkpt>
      <trkpt lat="42.8627" lon="-0.47624">
        <ele>1837.216797</ele>
        <time>2011-08-30T10:24:19Z</time>
      </trkpt>
      <trkpt lat="42.86266" lon="-0.47625">
        <ele>1841.062012</ele>
        <time>2011-08-30T10:24:32Z</time>
      </trkpt>
      <trkpt lat="42.8626" lon="-0.47633">
        <ele>1843.946045</ele>
        <time>2011-08-30T10:24:48Z</time>
      </trkpt>
      <trkpt lat="42.86253" lon="-0.47638">
        <ele>1847.310547</ele>
        <time>2011-08-30T10:25:04Z</time>
      </trkpt>
      <trkpt lat="42.86243" lon="-0.47643">
        <ele>1850.675049</ele>
        <time>2011-08-30T10:25:20Z</time>
      </trkpt>
      <trkpt lat="42.86235" lon="-0.47648">
        <ele>1851.636475</ele>
        <time>2011-08-30T10:25:34Z</time>
      </trkpt>
      <trkpt lat="42.86228" lon="-0.47655">
        <ele>1854.040039</ele>
        <time>2011-08-30T10:25:52Z</time>
      </trkpt>
      <trkpt lat="42.86223" lon="-0.47662">
        <ele>1856.443115</ele>
        <time>2011-08-30T10:26:08Z</time>
      </trkpt>
      <trkpt lat="42.86219" lon="-0.47667">
        <ele>1859.327148</ele>
        <time>2011-08-30T10:26:22Z</time>
      </trkpt>
      <trkpt lat="42.86215" lon="-0.47672">
        <ele>1861.249756</ele>
        <time>2011-08-30T10:26:42Z</time>
      </trkpt>
      <trkpt lat="42.86209" lon="-0.47671">
        <ele>1864.133545</ele>
        <time>2011-08-30T10:26:54Z</time>
      </trkpt>
      <trkpt lat="42.86204" lon="-0.4767">
        <ele>1865.575684</ele>
        <time>2011-08-30T10:27:12Z</time>
      </trkpt>
      <trkpt lat="42.86197" lon="-0.4767">
        <ele>1868.94043</ele>
        <time>2011-08-30T10:27:23Z</time>
      </trkpt>
      <trkpt lat="42.86197" lon="-0.47666">
        <ele>1870.863037</ele>
        <time>2011-08-30T10:27:30Z</time>
      </trkpt>
      <trkpt lat="42.86198" lon="-0.47657">
        <ele>1871.824219</ele>
        <time>2011-08-30T10:27:44Z</time>
      </trkpt>
      <trkpt lat="42.86198" lon="-0.47654">
        <ele>1873.266357</ele>
        <time>2011-08-30T10:28:13Z</time>
      </trkpt>
      <trkpt lat="42.86199" lon="-0.47654">
        <ele>1874.227539</ele>
        <time>2011-08-30T10:28:47Z</time>
      </trkpt>
      <trkpt lat="42.86199" lon="-0.47658">
        <ele>1874.227539</ele>
        <time>2011-08-30T10:29:30Z</time>
      </trkpt>
      <trkpt lat="42.86199" lon="-0.47654">
        <ele>1874.708252</ele>
        <time>2011-08-30T10:30:21Z</time>
      </trkpt>
      <trkpt lat="42.86198" lon="-0.47654">
        <ele>1875.188721</ele>
        <time>2011-08-30T10:30:42Z</time>
      </trkpt>
      <trkpt lat="42.86195" lon="-0.47643">
        <ele>1877.111572</ele>
        <time>2011-08-30T10:30:57Z</time>
      </trkpt>
      <trkpt lat="42.86193" lon="-0.47631">
        <ele>1879.995361</ele>
        <time>2011-08-30T10:31:11Z</time>
      </trkpt>
      <trkpt lat="42.86193" lon="-0.47628">
        <ele>1881.917969</ele>
        <time>2011-08-30T10:31:15Z</time>
      </trkpt>
      <trkpt lat="42.86195" lon="-0.47614">
        <ele>1884.802246</ele>
        <time>2011-08-30T10:31:30Z</time>
      </trkpt>
      <trkpt lat="42.86194" lon="-0.47602">
        <ele>1886.244141</ele>
        <time>2011-08-30T10:31:41Z</time>
      </trkpt>
      <trkpt lat="42.86193" lon="-0.47601">
        <ele>1889.12793</ele>
        <time>2011-08-30T10:31:55Z</time>
      </trkpt>
      <trkpt lat="42.86188" lon="-0.47608">
        <ele>1892.492676</ele>
        <time>2011-08-30T10:32:07Z</time>
      </trkpt>
      <trkpt lat="42.86188" lon="-0.47609">
        <ele>1892.492676</ele>
        <time>2011-08-30T10:32:08Z</time>
      </trkpt>
      <trkpt lat="42.86184" lon="-0.4761">
        <ele>1893.453857</ele>
        <time>2011-08-30T10:32:27Z</time>
      </trkpt>
      <trkpt lat="42.86176" lon="-0.4762">
        <ele>1894.895752</ele>
        <time>2011-08-30T10:32:39Z</time>
      </trkpt>
      <trkpt lat="42.86173" lon="-0.47623">
        <ele>1895.857178</ele>
        <time>2011-08-30T10:32:44Z</time>
      </trkpt>
      <trkpt lat="42.86165" lon="-0.47633">
        <ele>1897.299072</ele>
        <time>2011-08-30T10:33:01Z</time>
      </trkpt>
      <trkpt lat="42.86163" lon="-0.47633">
        <ele>1898.260254</ele>
        <time>2011-08-30T10:33:04Z</time>
      </trkpt>
      <trkpt lat="42.86159" lon="-0.47634">
        <ele>1901.625244</ele>
        <time>2011-08-30T10:33:14Z</time>
      </trkpt>
      <trkpt lat="42.86158" lon="-0.47635">
        <ele>1902.586426</ele>
        <time>2011-08-30T10:33:16Z</time>
      </trkpt>
      <trkpt lat="42.8615" lon="-0.47643">
        <ele>1904.028564</ele>
        <time>2011-08-30T10:33:33Z</time>
      </trkpt>
      <trkpt lat="42.86141" lon="-0.47652">
        <ele>1905.950928</ele>
        <time>2011-08-30T10:33:50Z</time>
      </trkpt>
      <trkpt lat="42.86136" lon="-0.47658">
        <ele>1908.834961</ele>
        <time>2011-08-30T10:34:03Z</time>
      </trkpt>
      <trkpt lat="42.8613" lon="-0.47666">
        <ele>1910.757568</ele>
        <time>2011-08-30T10:34:19Z</time>
      </trkpt>
      <trkpt lat="42.86123" lon="-0.4767">
        <ele>1914.12207</ele>
        <time>2011-08-30T10:34:34Z</time>
      </trkpt>
      <trkpt lat="42.86119" lon="-0.47676">
        <ele>1917.006348</ele>
        <time>2011-08-30T10:34:45Z</time>
      </trkpt>
      <trkpt lat="42.86113" lon="-0.47676">
        <ele>1918.928955</ele>
        <time>2011-08-30T10:35:00Z</time>
      </trkpt>
      <trkpt lat="42.86109" lon="-0.47674">
        <ele>1921.812744</ele>
        <time>2011-08-30T10:35:13Z</time>
      </trkpt>
      <trkpt lat="42.86107" lon="-0.47674">
        <ele>1923.735352</ele>
        <time>2011-08-30T10:35:26Z</time>
      </trkpt>
    </trkseg>
  </trk>
  <trk>
    <name><![CDATA[ACTIVE LOG 005]]></name>
    <trkseg>
      <trkpt lat="42.8611" lon="-0.47673">
        <ele>1925.177246</ele>
        <time>2011-08-30T10:41:43Z</time>
      </trkpt>
      <trkpt lat="42.8611" lon="-0.47673">
        <ele>1922.77417</ele>
        <time>2011-08-30T10:41:44Z</time>
      </trkpt>
    </trkseg>
  </trk>
  <trk>
    <name><![CDATA[ACTIVE LOG 006]]></name>
    <trkseg>
      <trkpt lat="42.86041" lon="-0.47762">
        <ele>1922.293457</ele>
        <time>2011-08-30T10:41:45Z</time>
      </trkpt>
      <trkpt lat="42.86049" lon="-0.4775">
        <ele>1925.657959</ele>
        <time>2011-08-30T10:41:51Z</time>
      </trkpt>
      <trkpt lat="42.86049" lon="-0.47749">
        <ele>1927.580566</ele>
        <time>2011-08-30T10:41:53Z</time>
      </trkpt>
      <trkpt lat="42.8605" lon="-0.47748">
        <ele>1930.4646</ele>
        <time>2011-08-30T10:41:57Z</time>
      </trkpt>
      <trkpt lat="42.8605" lon="-0.47748">
        <ele>1934.310059</ele>
        <time>2011-08-30T10:42:01Z</time>
      </trkpt>
      <trkpt lat="42.8605" lon="-0.47748">
        <ele>1935.27124</ele>
        <time>2011-08-30T10:42:03Z</time>
      </trkpt>
      <trkpt lat="42.86051" lon="-0.47748">
        <ele>1937.674561</ele>
        <time>2011-08-30T10:42:06Z</time>
      </trkpt>
      <trkpt lat="42.86051" lon="-0.47748">
        <ele>1939.597168</ele>
        <time>2011-08-30T10:42:08Z</time>
      </trkpt>
      <trkpt lat="42.86051" lon="-0.47747">
        <ele>1942.481201</ele>
        <time>2011-08-30T10:42:12Z</time>
      </trkpt>
      <trkpt lat="42.86051" lon="-0.47747">
        <ele>1945.845703</ele>
        <time>2011-08-30T10:42:19Z</time>
      </trkpt>
      <trkpt lat="42.86051" lon="-0.47748">
        <ele>1949.210449</ele>
        <time>2011-08-30T10:42:28Z</time>
      </trkpt>
      <trkpt lat="42.8605" lon="-0.47747">
        <ele>1952.574951</ele>
        <time>2011-08-30T10:42:40Z</time>
      </trkpt>
      <trkpt lat="42.8605" lon="-0.47746">
        <ele>1955.458984</ele>
        <time>2011-08-30T10:42:59Z</time>
      </trkpt>
      <trkpt lat="42.86051" lon="-0.47747">
        <ele>1958.342773</ele>
        <time>2011-08-30T10:43:25Z</time>
      </trkpt>
      <trkpt lat="42.86053" lon="-0.47744">
        <ele>1957.862305</ele>
        <time>2011-08-30T10:44:24Z</time>
      </trkpt>
      <trkpt lat="42.86052" lon="-0.47745">
        <ele>1959.304199</ele>
        <time>2011-08-30T10:45:16Z</time>
      </trkpt>
      <trkpt lat="42.86049" lon="-0.47742">
        <ele>1959.784668</ele>
        <time>2011-08-30T10:45:33Z</time>
      </trkpt>
      <trkpt lat="42.86049" lon="-0.47742">
        <ele>1957.862305</ele>
        <time>2011-08-30T10:45:38Z</time>
      </trkpt>
      <trkpt lat="42.86045" lon="-0.4774">
        <ele>1958.823486</ele>
        <time>2011-08-30T10:45:44Z</time>
      </trkpt>
      <trkpt lat="42.86033" lon="-0.47731">
        <ele>1960.746094</ele>
        <time>2011-08-30T10:46:01Z</time>
      </trkpt>
      <trkpt lat="42.8602" lon="-0.47721">
        <ele>1964.11084</ele>
        <time>2011-08-30T10:46:19Z</time>
      </trkpt>
      <trkpt lat="42.86012" lon="-0.47718">
        <ele>1967.956055</ele>
        <time>2011-08-30T10:46:32Z</time>
      </trkpt>
      <trkpt lat="42.86004" lon="-0.47712">
        <ele>1969.878662</ele>
        <time>2011-08-30T10:46:47Z</time>
      </trkpt>
      <trkpt lat="42.86" lon="-0.47712">
        <ele>1971.80127</ele>
        <time>2011-08-30T10:46:52Z</time>
      </trkpt>
      <trkpt lat="42.85988" lon="-0.47709">
        <ele>1972.281982</ele>
        <time>2011-08-30T10:47:07Z</time>
      </trkpt>
      <trkpt lat="42.85976" lon="-0.47707">
        <ele>1975.165771</ele>
        <time>2011-08-30T10:47:22Z</time>
      </trkpt>
      <trkpt lat="42.85964" lon="-0.47703">
        <ele>1977.569092</ele>
        <time>2011-08-30T10:47:38Z</time>
      </trkpt>
      <trkpt lat="42.85963" lon="-0.47702">
        <ele>1979.491699</ele>
        <time>2011-08-30T10:47:41Z</time>
      </trkpt>
      <trkpt lat="42.8596" lon="-0.477">
        <ele>1981.414551</ele>
        <time>2011-08-30T10:47:45Z</time>
      </trkpt>
      <trkpt lat="42.85949" lon="-0.47697">
        <ele>1984.298584</ele>
        <time>2011-08-30T10:48:01Z</time>
      </trkpt>
      <trkpt lat="42.85937" lon="-0.47703">
        <ele>1985.740479</ele>
        <time>2011-08-30T10:48:18Z</time>
      </trkpt>
      <trkpt lat="42.85927" lon="-0.47706">
        <ele>1989.10498</ele>
        <time>2011-08-30T10:48:32Z</time>
      </trkpt>
      <trkpt lat="42.85914" lon="-0.4771">
        <ele>1990.066406</ele>
        <time>2011-08-30T10:48:50Z</time>
      </trkpt>
      <trkpt lat="42.85903" lon="-0.47715">
        <ele>1993.430908</ele>
        <time>2011-08-30T10:49:05Z</time>
      </trkpt>
      <trkpt lat="42.85892" lon="-0.47733">
        <ele>1996.315186</ele>
        <time>2011-08-30T10:49:26Z</time>
      </trkpt>
      <trkpt lat="42.85887" lon="-0.47742">
        <ele>1997.276367</ele>
        <time>2011-08-30T10:49:43Z</time>
      </trkpt>
      <trkpt lat="42.85881" lon="-0.47748">
        <ele>2000.640869</ele>
        <time>2011-08-30T10:49:53Z</time>
      </trkpt>
      <trkpt lat="42.8588" lon="-0.4775">
        <ele>2001.121582</ele>
        <time>2011-08-30T10:49:55Z</time>
      </trkpt>
      <trkpt lat="42.85877" lon="-0.47762">
        <ele>2003.524902</ele>
        <time>2011-08-30T10:50:10Z</time>
      </trkpt>
      <trkpt lat="42.85877" lon="-0.47766">
        <ele>2003.044189</ele>
        <time>2011-08-30T10:50:21Z</time>
      </trkpt>
      <trkpt lat="42.85874" lon="-0.47789">
        <ele>2004.966797</ele>
        <time>2011-08-30T10:50:41Z</time>
      </trkpt>
      <trkpt lat="42.85873" lon="-0.47791">
        <ele>2006.408691</ele>
        <time>2011-08-30T10:50:45Z</time>
      </trkpt>
      <trkpt lat="42.85872" lon="-0.47791">
        <ele>2007.370117</ele>
        <time>2011-08-30T10:50:47Z</time>
      </trkpt>
      <trkpt lat="42.85863" lon="-0.47803">
        <ele>2009.773193</ele>
        <time>2011-08-30T10:51:03Z</time>
      </trkpt>
      <trkpt lat="42.8585" lon="-0.47816">
        <ele>2011.696045</ele>
        <time>2011-08-30T10:51:22Z</time>
      </trkpt>
      <trkpt lat="42.85843" lon="-0.47836">
        <ele>2013.138184</ele>
        <time>2011-08-30T10:51:41Z</time>
      </trkpt>
      <trkpt lat="42.85842" lon="-0.47837">
        <ele>2013.138184</ele>
        <time>2011-08-30T10:51:42Z</time>
      </trkpt>
      <trkpt lat="42.85834" lon="-0.4785">
        <ele>2016.502686</ele>
        <time>2011-08-30T10:52:00Z</time>
      </trkpt>
      <trkpt lat="42.85829" lon="-0.47855">
        <ele>2017.463867</ele>
        <time>2011-08-30T10:52:08Z</time>
      </trkpt>
      <trkpt lat="42.85816" lon="-0.47862">
        <ele>2016.502686</ele>
        <time>2011-08-30T10:52:23Z</time>
      </trkpt>
      <trkpt lat="42.85803" lon="-0.4787">
        <ele>2017.94458</ele>
        <time>2011-08-30T10:52:39Z</time>
      </trkpt>
      <trkpt lat="42.8579" lon="-0.47879">
        <ele>2020.3479</ele>
        <time>2011-08-30T10:52:56Z</time>
      </trkpt>
      <trkpt lat="42.85777" lon="-0.47894">
        <ele>2021.789795</ele>
        <time>2011-08-30T10:53:14Z</time>
      </trkpt>
      <trkpt lat="42.85771" lon="-0.47909">
        <ele>2022.270508</ele>
        <time>2011-08-30T10:53:31Z</time>
      </trkpt>
      <trkpt lat="42.85765" lon="-0.47918">
        <ele>2025.63501</ele>
        <time>2011-08-30T10:53:44Z</time>
      </trkpt>
      <trkpt lat="42.85759" lon="-0.47924">
        <ele>2027.557617</ele>
        <time>2011-08-30T10:54:00Z</time>
      </trkpt>
      <trkpt lat="42.85756" lon="-0.4793">
        <ele>2030.441895</ele>
        <time>2011-08-30T10:54:08Z</time>
      </trkpt>
      <trkpt lat="42.85752" lon="-0.4794">
        <ele>2032.844971</ele>
        <time>2011-08-30T10:54:22Z</time>
      </trkpt>
      <trkpt lat="42.85748" lon="-0.47951">
        <ele>2034.767822</ele>
        <time>2011-08-30T10:54:38Z</time>
      </trkpt>
      <trkpt lat="42.85746" lon="-0.47963">
        <ele>2036.690186</ele>
        <time>2011-08-30T10:54:53Z</time>
      </trkpt>
      <trkpt lat="42.85746" lon="-0.47969">
        <ele>2038.132324</ele>
        <time>2011-08-30T10:55:02Z</time>
      </trkpt>
      <trkpt lat="42.85748" lon="-0.47974">
        <ele>2039.574219</ele>
        <time>2011-08-30T10:55:20Z</time>
      </trkpt>
      <trkpt lat="42.85751" lon="-0.47979">
        <ele>2041.016113</ele>
        <time>2011-08-30T10:55:35Z</time>
      </trkpt>
      <trkpt lat="42.85753" lon="-0.47985">
        <ele>2042.458252</ele>
        <time>2011-08-30T10:55:50Z</time>
      </trkpt>
      <trkpt lat="42.85757" lon="-0.47993">
        <ele>2044.380859</ele>
        <time>2011-08-30T10:56:04Z</time>
      </trkpt>
      <trkpt lat="42.85763" lon="-0.48007">
        <ele>2042.938721</ele>
        <time>2011-08-30T10:56:19Z</time>
      </trkpt>
      <trkpt lat="42.85772" lon="-0.48024">
        <ele>2044.380859</ele>
        <time>2011-08-30T10:56:37Z</time>
      </trkpt>
      <trkpt lat="42.85781" lon="-0.48034">
        <ele>2042.938721</ele>
        <time>2011-08-30T10:56:52Z</time>
      </trkpt>
      <trkpt lat="42.85786" lon="-0.48037">
        <ele>2041.977539</ele>
        <time>2011-08-30T10:57:00Z</time>
      </trkpt>
      <trkpt lat="42.85803" lon="-0.48053">
        <ele>2042.458252</ele>
        <time>2011-08-30T10:57:22Z</time>
      </trkpt>
      <trkpt lat="42.85809" lon="-0.48065">
        <ele>2043.419434</ele>
        <time>2011-08-30T10:57:36Z</time>
      </trkpt>
      <trkpt lat="42.85816" lon="-0.48074">
        <ele>2042.458252</ele>
        <time>2011-08-30T10:57:49Z</time>
      </trkpt>
      <trkpt lat="42.85823" lon="-0.48092">
        <ele>2044.861572</ele>
        <time>2011-08-30T10:58:08Z</time>
      </trkpt>
      <trkpt lat="42.85828" lon="-0.48102">
        <ele>2045.822998</ele>
        <time>2011-08-30T10:58:22Z</time>
      </trkpt>
      <trkpt lat="42.85833" lon="-0.48125">
        <ele>2047.745605</ele>
        <time>2011-08-30T10:58:44Z</time>
      </trkpt>
      <trkpt lat="42.85841" lon="-0.48134">
        <ele>2047.745605</ele>
        <time>2011-08-30T10:58:59Z</time>
      </trkpt>
      <trkpt lat="42.85844" lon="-0.48143">
        <ele>2048.706787</ele>
        <time>2011-08-30T10:59:16Z</time>
      </trkpt>
      <trkpt lat="42.85847" lon="-0.4815">
        <ele>2048.706787</ele>
        <time>2011-08-30T10:59:47Z</time>
      </trkpt>
      <trkpt lat="42.85848" lon="-0.48167">
        <ele>2049.668213</ele>
        <time>2011-08-30T11:00:03Z</time>
      </trkpt>
      <trkpt lat="42.85852" lon="-0.48184">
        <ele>2048.226074</ele>
        <time>2011-08-30T11:00:20Z</time>
      </trkpt>
      <trkpt lat="42.85856" lon="-0.48206">
        <ele>2047.745605</ele>
        <time>2011-08-30T11:00:38Z</time>
      </trkpt>
      <trkpt lat="42.85863" lon="-0.48223">
        <ele>2048.706787</ele>
        <time>2011-08-30T11:00:55Z</time>
      </trkpt>
      <trkpt lat="42.85874" lon="-0.48247">
        <ele>2047.745605</ele>
        <time>2011-08-30T11:01:17Z</time>
      </trkpt>
      <trkpt lat="42.8588" lon="-0.48259">
        <ele>2047.745605</ele>
        <time>2011-08-30T11:01:34Z</time>
      </trkpt>
      <trkpt lat="42.85877" lon="-0.48266">
        <ele>2047.745605</ele>
        <time>2011-08-30T11:01:44Z</time>
      </trkpt>
      <trkpt lat="42.85873" lon="-0.48274">
        <ele>2048.226074</ele>
        <time>2011-08-30T11:02:00Z</time>
      </trkpt>
      <trkpt lat="42.85874" lon="-0.48275">
        <ele>2048.706787</ele>
        <time>2011-08-30T11:03:26Z</time>
      </trkpt>
      <trkpt lat="42.85875" lon="-0.48275">
        <ele>2048.706787</ele>
        <time>2011-08-30T11:03:44Z</time>
      </trkpt>
      <trkpt lat="42.85874" lon="-0.48275">
        <ele>2047.745605</ele>
        <time>2011-08-30T11:04:19Z</time>
      </trkpt>
      <trkpt lat="42.85872" lon="-0.48278">
        <ele>2047.264893</ele>
        <time>2011-08-30T11:04:43Z</time>
      </trkpt>
      <trkpt lat="42.85871" lon="-0.4828">
        <ele>2049.1875</ele>
        <time>2011-08-30T11:04:58Z</time>
      </trkpt>
      <trkpt lat="42.8586" lon="-0.48285">
        <ele>2046.78418</ele>
        <time>2011-08-30T11:05:14Z</time>
      </trkpt>
      <trkpt lat="42.85853" lon="-0.48289">
        <ele>2045.822998</ele>
        <time>2011-08-30T11:05:24Z</time>
      </trkpt>
      <trkpt lat="42.85847" lon="-0.48296">
        <ele>2047.745605</ele>
        <time>2011-08-30T11:05:32Z</time>
      </trkpt>
      <trkpt lat="42.85847" lon="-0.48299">
        <ele>2046.78418</ele>
        <time>2011-08-30T11:05:50Z</time>
      </trkpt>
      <trkpt lat="42.85847" lon="-0.48299">
        <ele>2047.264893</ele>
        <time>2011-08-30T11:06:46Z</time>
      </trkpt>
      <trkpt lat="42.85846" lon="-0.48306">
        <ele>2047.264893</ele>
        <time>2011-08-30T11:07:12Z</time>
      </trkpt>
      <trkpt lat="42.8585" lon="-0.48322">
        <ele>2048.706787</ele>
        <time>2011-08-30T11:07:28Z</time>
      </trkpt>
      <trkpt lat="42.85854" lon="-0.4833">
        <ele>2048.226074</ele>
        <time>2011-08-30T11:07:36Z</time>
      </trkpt>
      <trkpt lat="42.85852" lon="-0.48354">
        <ele>2048.226074</ele>
        <time>2011-08-30T11:07:54Z</time>
      </trkpt>
      <trkpt lat="42.85845" lon="-0.4837">
        <ele>2050.629395</ele>
        <time>2011-08-30T11:08:09Z</time>
      </trkpt>
      <trkpt lat="42.85838" lon="-0.48383">
        <ele>2050.629395</ele>
        <time>2011-08-30T11:08:21Z</time>
      </trkpt>
      <trkpt lat="42.85839" lon="-0.48389">
        <ele>2050.148926</ele>
        <time>2011-08-30T11:08:26Z</time>
      </trkpt>
      <trkpt lat="42.85844" lon="-0.48409">
        <ele>2051.110107</ele>
        <time>2011-08-30T11:08:42Z</time>
      </trkpt>
      <trkpt lat="42.85844" lon="-0.48425">
        <ele>2053.994141</ele>
        <time>2011-08-30T11:08:57Z</time>
      </trkpt>
      <trkpt lat="42.85842" lon="-0.48428">
        <ele>2055.436035</ele>
        <time>2011-08-30T11:09:01Z</time>
      </trkpt>
      <trkpt lat="42.8584" lon="-0.48426">
        <ele>2056.397217</ele>
        <time>2011-08-30T11:09:07Z</time>
      </trkpt>
      <trkpt lat="42.85838" lon="-0.48428">
        <ele>2057.839355</ele>
        <time>2011-08-30T11:09:12Z</time>
      </trkpt>
      <trkpt lat="42.85832" lon="-0.48439">
        <ele>2060.242676</ele>
        <time>2011-08-30T11:09:25Z</time>
      </trkpt>
      <trkpt lat="42.85816" lon="-0.48451">
        <ele>2059.761719</ele>
        <time>2011-08-30T11:09:44Z</time>
      </trkpt>
      <trkpt lat="42.85805" lon="-0.48463">
        <ele>2060.242676</ele>
        <time>2011-08-30T11:10:01Z</time>
      </trkpt>
      <trkpt lat="42.85802" lon="-0.48472">
        <ele>2061.204102</ele>
        <time>2011-08-30T11:10:14Z</time>
      </trkpt>
      <trkpt lat="42.85802" lon="-0.4848">
        <ele>2063.126709</ele>
        <time>2011-08-30T11:10:23Z</time>
      </trkpt>
      <trkpt lat="42.85811" lon="-0.48497">
        <ele>2061.684814</ele>
        <time>2011-08-30T11:10:39Z</time>
      </trkpt>
      <trkpt lat="42.85811" lon="-0.48498">
        <ele>2062.165283</ele>
        <time>2011-08-30T11:10:40Z</time>
      </trkpt>
      <trkpt lat="42.85819" lon="-0.48508">
        <ele>2061.684814</ele>
        <time>2011-08-30T11:10:51Z</time>
      </trkpt>
      <trkpt lat="42.85824" lon="-0.48531">
        <ele>2061.204102</ele>
        <time>2011-08-30T11:11:10Z</time>
      </trkpt>
      <trkpt lat="42.85827" lon="-0.4855">
        <ele>2063.126709</ele>
        <time>2011-08-30T11:11:26Z</time>
      </trkpt>
      <trkpt lat="42.85828" lon="-0.48571">
        <ele>2064.568604</ele>
        <time>2011-08-30T11:11:45Z</time>
      </trkpt>
      <trkpt lat="42.85827" lon="-0.48592">
        <ele>2065.530029</ele>
        <time>2011-08-30T11:12:03Z</time>
      </trkpt>
      <trkpt lat="42.85827" lon="-0.48598">
        <ele>2066.491211</ele>
        <time>2011-08-30T11:12:09Z</time>
      </trkpt>
      <trkpt lat="42.85825" lon="-0.4862">
        <ele>2066.491211</ele>
        <time>2011-08-30T11:12:27Z</time>
      </trkpt>
      <trkpt lat="42.85831" lon="-0.48634">
        <ele>2066.491211</ele>
        <time>2011-08-30T11:12:42Z</time>
      </trkpt>
      <trkpt lat="42.85842" lon="-0.4865">
        <ele>2066.971924</ele>
        <time>2011-08-30T11:12:59Z</time>
      </trkpt>
      <trkpt lat="42.85843" lon="-0.48662">
        <ele>2068.413818</ele>
        <time>2011-08-30T11:13:09Z</time>
      </trkpt>
      <trkpt lat="42.85843" lon="-0.48677">
        <ele>2071.77832</ele>
        <time>2011-08-30T11:13:24Z</time>
      </trkpt>
      <trkpt lat="42.85844" lon="-0.48697">
        <ele>2074.181641</ele>
        <time>2011-08-30T11:13:42Z</time>
      </trkpt>
      <trkpt lat="42.85843" lon="-0.48708">
        <ele>2075.623535</ele>
        <time>2011-08-30T11:13:56Z</time>
      </trkpt>
      <trkpt lat="42.85844" lon="-0.48711">
        <ele>2077.065918</ele>
        <time>2011-08-30T11:13:59Z</time>
      </trkpt>
      <trkpt lat="42.85844" lon="-0.48719">
        <ele>2079.468994</ele>
        <time>2011-08-30T11:14:12Z</time>
      </trkpt>
      <trkpt lat="42.85848" lon="-0.48726">
        <ele>2082.833496</ele>
        <time>2011-08-30T11:14:22Z</time>
      </trkpt>
      <trkpt lat="42.85848" lon="-0.48731">
        <ele>2082.833496</ele>
        <time>2011-08-30T11:14:40Z</time>
      </trkpt>
      <trkpt lat="42.85842" lon="-0.48736">
        <ele>2086.198242</ele>
        <time>2011-08-30T11:14:55Z</time>
      </trkpt>
      <trkpt lat="42.85835" lon="-0.48733">
        <ele>2087.159424</ele>
        <time>2011-08-30T11:15:09Z</time>
      </trkpt>
      <trkpt lat="42.85833" lon="-0.48736">
        <ele>2088.12085</ele>
        <time>2011-08-30T11:15:22Z</time>
      </trkpt>
      <trkpt lat="42.85834" lon="-0.48735">
        <ele>2089.082031</ele>
        <time>2011-08-30T11:15:37Z</time>
      </trkpt>
      <trkpt lat="42.85829" lon="-0.48728">
        <ele>2089.082031</ele>
        <time>2011-08-30T11:15:55Z</time>
      </trkpt>
      <trkpt lat="42.85823" lon="-0.48723">
        <ele>2091.485352</ele>
        <time>2011-08-30T11:16:12Z</time>
      </trkpt>
      <trkpt lat="42.85821" lon="-0.48719">
        <ele>2091.966064</ele>
        <time>2011-08-30T11:16:17Z</time>
      </trkpt>
      <trkpt lat="42.85813" lon="-0.48713">
        <ele>2093.888916</ele>
        <time>2011-08-30T11:16:32Z</time>
      </trkpt>
      <trkpt lat="42.85817" lon="-0.48719">
        <ele>2096.292236</ele>
        <time>2011-08-30T11:16:47Z</time>
      </trkpt>
      <trkpt lat="42.85821" lon="-0.48725">
        <ele>2095.811523</ele>
        <time>2011-08-30T11:17:04Z</time>
      </trkpt>
      <trkpt lat="42.85822" lon="-0.48727">
        <ele>2096.772705</ele>
        <time>2011-08-30T11:17:22Z</time>
      </trkpt>
      <trkpt lat="42.85822" lon="-0.48731">
        <ele>2098.2146</ele>
        <time>2011-08-30T11:17:38Z</time>
      </trkpt>
      <trkpt lat="42.85823" lon="-0.48739">
        <ele>2098.2146</ele>
        <time>2011-08-30T11:17:51Z</time>
      </trkpt>
      <trkpt lat="42.8583" lon="-0.48751">
        <ele>2099.656738</ele>
        <time>2011-08-30T11:18:07Z</time>
      </trkpt>
      <trkpt lat="42.85835" lon="-0.48761">
        <ele>2101.579346</ele>
        <time>2011-08-30T11:18:23Z</time>
      </trkpt>
      <trkpt lat="42.85834" lon="-0.48768">
        <ele>2103.982666</ele>
        <time>2011-08-30T11:18:37Z</time>
      </trkpt>
      <trkpt lat="42.85834" lon="-0.48775">
        <ele>2105.424561</ele>
        <time>2011-08-30T11:18:52Z</time>
      </trkpt>
      <trkpt lat="42.85831" lon="-0.48779">
        <ele>2108.308594</ele>
        <time>2011-08-30T11:19:05Z</time>
      </trkpt>
      <trkpt lat="42.85827" lon="-0.48792">
        <ele>2110.711914</ele>
        <time>2011-08-30T11:19:25Z</time>
      </trkpt>
      <trkpt lat="42.85826" lon="-0.48794">
        <ele>2113.115234</ele>
        <time>2011-08-30T11:19:42Z</time>
      </trkpt>
      <trkpt lat="42.85828" lon="-0.48803">
        <ele>2114.557129</ele>
        <time>2011-08-30T11:19:56Z</time>
      </trkpt>
      <trkpt lat="42.85833" lon="-0.48808">
        <ele>2117.440918</ele>
        <time>2011-08-30T11:20:10Z</time>
      </trkpt>
      <trkpt lat="42.85842" lon="-0.48813">
        <ele>2118.883057</ele>
        <time>2011-08-30T11:20:24Z</time>
      </trkpt>
      <trkpt lat="42.8585" lon="-0.4882">
        <ele>2122.247559</ele>
        <time>2011-08-30T11:20:40Z</time>
      </trkpt>
      <trkpt lat="42.85857" lon="-0.48826">
        <ele>2123.689453</ele>
        <time>2011-08-30T11:20:54Z</time>
      </trkpt>
      <trkpt lat="42.85866" lon="-0.48835">
        <ele>2126.57373</ele>
        <time>2011-08-30T11:21:11Z</time>
      </trkpt>
      <trkpt lat="42.85873" lon="-0.48841">
        <ele>2129.45752</ele>
        <time>2011-08-30T11:21:24Z</time>
      </trkpt>
      <trkpt lat="42.85874" lon="-0.48841">
        <ele>2129.938232</ele>
        <time>2011-08-30T11:21:25Z</time>
      </trkpt>
      <trkpt lat="42.8588" lon="-0.48846">
        <ele>2129.938232</ele>
        <time>2011-08-30T11:21:42Z</time>
      </trkpt>
      <trkpt lat="42.8588" lon="-0.48844">
        <ele>2128.976807</ele>
        <time>2011-08-30T11:21:46Z</time>
      </trkpt>
      <trkpt lat="42.85884" lon="-0.48837">
        <ele>2128.496338</ele>
        <time>2011-08-30T11:22:00Z</time>
      </trkpt>
      <trkpt lat="42.85883" lon="-0.48836">
        <ele>2127.534912</ele>
        <time>2011-08-30T11:22:30Z</time>
      </trkpt>
      <trkpt lat="42.85882" lon="-0.48839">
        <ele>2128.976807</ele>
        <time>2011-08-30T11:22:59Z</time>
      </trkpt>
      <trkpt lat="42.85881" lon="-0.48841">
        <ele>2128.496338</ele>
        <time>2011-08-30T11:23:16Z</time>
      </trkpt>
      <trkpt lat="42.85881" lon="-0.48841">
        <ele>2128.976807</ele>
        <time>2011-08-30T11:24:11Z</time>
      </trkpt>
      <trkpt lat="42.85882" lon="-0.4884">
        <ele>2128.496338</ele>
        <time>2011-08-30T11:26:58Z</time>
      </trkpt>
      <trkpt lat="42.85882" lon="-0.48839">
        <ele>2127.534912</ele>
        <time>2011-08-30T11:31:23Z</time>
      </trkpt>
      <trkpt lat="42.85881" lon="-0.4884">
        <ele>2127.534912</ele>
        <time>2011-08-30T11:32:08Z</time>
      </trkpt>
      <trkpt lat="42.85881" lon="-0.4884">
        <ele>2127.534912</ele>
        <time>2011-08-30T11:32:15Z</time>
      </trkpt>
      <trkpt lat="42.85878" lon="-0.48842">
        <ele>2129.45752</ele>
        <time>2011-08-30T11:32:47Z</time>
      </trkpt>
      <trkpt lat="42.85869" lon="-0.48849">
        <ele>2131.86084</ele>
        <time>2011-08-30T11:33:04Z</time>
      </trkpt>
      <trkpt lat="42.85859" lon="-0.4885">
        <ele>2132.341553</ele>
        <time>2011-08-30T11:33:19Z</time>
      </trkpt>
      <trkpt lat="42.85858" lon="-0.48851">
        <ele>2132.341553</ele>
        <time>2011-08-30T11:33:21Z</time>
      </trkpt>
      <trkpt lat="42.85853" lon="-0.48853">
        <ele>2134.744873</ele>
        <time>2011-08-30T11:33:38Z</time>
      </trkpt>
      <trkpt lat="42.85854" lon="-0.48856">
        <ele>2135.706055</ele>
        <time>2011-08-30T11:33:42Z</time>
      </trkpt>
      <trkpt lat="42.8586" lon="-0.48867">
        <ele>2139.55127</ele>
        <time>2011-08-30T11:34:00Z</time>
      </trkpt>
      <trkpt lat="42.85859" lon="-0.48868">
        <ele>2140.032227</ele>
        <time>2011-08-30T11:34:02Z</time>
      </trkpt>
      <trkpt lat="42.85858" lon="-0.48876">
        <ele>2142.435547</ele>
        <time>2011-08-30T11:34:17Z</time>
      </trkpt>
      <trkpt lat="42.85852" lon="-0.48881">
        <ele>2145.800049</ele>
        <time>2011-08-30T11:34:30Z</time>
      </trkpt>
      <trkpt lat="42.85845" lon="-0.48889">
        <ele>2147.241943</ele>
        <time>2011-08-30T11:34:46Z</time>
      </trkpt>
      <trkpt lat="42.85831" lon="-0.48899">
        <ele>2149.645264</ele>
        <time>2011-08-30T11:35:06Z</time>
      </trkpt>
      <trkpt lat="42.85825" lon="-0.48908">
        <ele>2152.04834</ele>
        <time>2011-08-30T11:35:25Z</time>
      </trkpt>
      <trkpt lat="42.85822" lon="-0.48912">
        <ele>2153.490479</ele>
        <time>2011-08-30T11:35:44Z</time>
      </trkpt>
      <trkpt lat="42.85818" lon="-0.4892">
        <ele>2154.45166</ele>
        <time>2011-08-30T11:35:57Z</time>
      </trkpt>
      <trkpt lat="42.85809" lon="-0.48923">
        <ele>2157.81665</ele>
        <time>2011-08-30T11:36:15Z</time>
      </trkpt>
      <trkpt lat="42.85802" lon="-0.48931">
        <ele>2159.258545</ele>
        <time>2011-08-30T11:36:30Z</time>
      </trkpt>
      <trkpt lat="42.85796" lon="-0.48935">
        <ele>2161.181152</ele>
        <time>2011-08-30T11:36:46Z</time>
      </trkpt>
      <trkpt lat="42.8579" lon="-0.48939">
        <ele>2163.10376</ele>
        <time>2011-08-30T11:37:14Z</time>
      </trkpt>
      <trkpt lat="42.85777" lon="-0.48943">
        <ele>2162.623047</ele>
        <time>2011-08-30T11:37:30Z</time>
      </trkpt>
      <trkpt lat="42.85769" lon="-0.48938">
        <ele>2166.468262</ele>
        <time>2011-08-30T11:37:40Z</time>
      </trkpt>
      <trkpt lat="42.85759" lon="-0.48937">
        <ele>2168.390869</ele>
        <time>2011-08-30T11:37:59Z</time>
      </trkpt>
      <trkpt lat="42.85755" lon="-0.48953">
        <ele>2169.832764</ele>
        <time>2011-08-30T11:38:17Z</time>
      </trkpt>
      <trkpt lat="42.85745" lon="-0.48965">
        <ele>2171.755371</ele>
        <time>2011-08-30T11:38:35Z</time>
      </trkpt>
      <trkpt lat="42.85736" lon="-0.48968">
        <ele>2171.755371</ele>
        <time>2011-08-30T11:38:45Z</time>
      </trkpt>
      <trkpt lat="42.85726" lon="-0.48964">
        <ele>2173.678223</ele>
        <time>2011-08-30T11:38:58Z</time>
      </trkpt>
      <trkpt lat="42.85713" lon="-0.48968">
        <ele>2177.042969</ele>
        <time>2011-08-30T11:39:14Z</time>
      </trkpt>
      <trkpt lat="42.85703" lon="-0.4897">
        <ele>2178.965332</ele>
        <time>2011-08-30T11:39:29Z</time>
      </trkpt>
      <trkpt lat="42.85695" lon="-0.48986">
        <ele>2179.926758</ele>
        <time>2011-08-30T11:39:46Z</time>
      </trkpt>
      <trkpt lat="42.8569" lon="-0.48989">
        <ele>2181.368652</ele>
        <time>2011-08-30T11:40:01Z</time>
      </trkpt>
      <trkpt lat="42.85678" lon="-0.48989">
        <ele>2184.252686</ele>
        <time>2011-08-30T11:40:20Z</time>
      </trkpt>
      <trkpt lat="42.85677" lon="-0.48989">
        <ele>2184.252686</ele>
        <time>2011-08-30T11:40:21Z</time>
      </trkpt>
      <trkpt lat="42.85669" lon="-0.48988">
        <ele>2185.213867</ele>
        <time>2011-08-30T11:40:33Z</time>
      </trkpt>
      <trkpt lat="42.85657" lon="-0.48984">
        <ele>2187.617188</ele>
        <time>2011-08-30T11:40:50Z</time>
      </trkpt>
      <trkpt lat="42.85653" lon="-0.48983">
        <ele>2190.020752</ele>
        <time>2011-08-30T11:40:55Z</time>
      </trkpt>
      <trkpt lat="42.85644" lon="-0.48975">
        <ele>2191.943359</ele>
        <time>2011-08-30T11:41:10Z</time>
      </trkpt>
      <trkpt lat="42.85637" lon="-0.48985">
        <ele>2193.865967</ele>
        <time>2011-08-30T11:41:26Z</time>
      </trkpt>
      <trkpt lat="42.85624" lon="-0.48988">
        <ele>2197.230469</ele>
        <time>2011-08-30T11:41:45Z</time>
      </trkpt>
      <trkpt lat="42.85615" lon="-0.48998">
        <ele>2199.153076</ele>
        <time>2011-08-30T11:42:02Z</time>
      </trkpt>
      <trkpt lat="42.85612" lon="-0.49004">
        <ele>2201.556396</ele>
        <time>2011-08-30T11:42:18Z</time>
      </trkpt>
      <trkpt lat="42.85611" lon="-0.49004">
        <ele>2201.075684</ele>
        <time>2011-08-30T11:42:59Z</time>
      </trkpt>
      <trkpt lat="42.85611" lon="-0.49008">
        <ele>2200.594971</ele>
        <time>2011-08-30T11:43:11Z</time>
      </trkpt>
      <trkpt lat="42.85609" lon="-0.49006">
        <ele>2202.517578</ele>
        <time>2011-08-30T11:44:01Z</time>
      </trkpt>
      <trkpt lat="42.85606" lon="-0.49005">
        <ele>2204.44043</ele>
        <time>2011-08-30T11:44:07Z</time>
      </trkpt>
      <trkpt lat="42.85596" lon="-0.49002">
        <ele>2205.882324</ele>
        <time>2011-08-30T11:44:25Z</time>
      </trkpt>
      <trkpt lat="42.85588" lon="-0.49004">
        <ele>2209.24707</ele>
        <time>2011-08-30T11:44:39Z</time>
      </trkpt>
      <trkpt lat="42.85586" lon="-0.49005">
        <ele>2210.208252</ele>
        <time>2011-08-30T11:44:43Z</time>
      </trkpt>
      <trkpt lat="42.85584" lon="-0.49004">
        <ele>2211.650391</ele>
        <time>2011-08-30T11:44:46Z</time>
      </trkpt>
      <trkpt lat="42.85577" lon="-0.48996">
        <ele>2214.053467</ele>
        <time>2011-08-30T11:45:04Z</time>
      </trkpt>
      <trkpt lat="42.85574" lon="-0.48986">
        <ele>2216.9375</ele>
        <time>2011-08-30T11:45:17Z</time>
      </trkpt>
      <trkpt lat="42.85567" lon="-0.48985">
        <ele>2218.860107</ele>
        <time>2011-08-30T11:45:34Z</time>
      </trkpt>
      <trkpt lat="42.85558" lon="-0.48995">
        <ele>2222.224854</ele>
        <time>2011-08-30T11:45:51Z</time>
      </trkpt>
      <trkpt lat="42.85556" lon="-0.48996">
        <ele>2223.186279</ele>
        <time>2011-08-30T11:45:55Z</time>
      </trkpt>
      <trkpt lat="42.8555" lon="-0.49">
        <ele>2226.550781</ele>
        <time>2011-08-30T11:46:07Z</time>
      </trkpt>
      <trkpt lat="42.8554" lon="-0.49004">
        <ele>2227.031494</ele>
        <time>2011-08-30T11:46:24Z</time>
      </trkpt>
      <trkpt lat="42.85536" lon="-0.49005">
        <ele>2228.473389</ele>
        <time>2011-08-30T11:46:57Z</time>
      </trkpt>
      <trkpt lat="42.85529" lon="-0.49005">
        <ele>2231.837891</ele>
        <time>2011-08-30T11:47:10Z</time>
      </trkpt>
      <trkpt lat="42.85519" lon="-0.49005">
        <ele>2234.241211</ele>
        <time>2011-08-30T11:47:26Z</time>
      </trkpt>
      <trkpt lat="42.85512" lon="-0.49002">
        <ele>2237.125244</ele>
        <time>2011-08-30T11:47:38Z</time>
      </trkpt>
      <trkpt lat="42.855" lon="-0.48999">
        <ele>2239.528564</ele>
        <time>2011-08-30T11:47:55Z</time>
      </trkpt>
      <trkpt lat="42.85499" lon="-0.4898">
        <ele>2240.970459</ele>
        <time>2011-08-30T11:48:11Z</time>
      </trkpt>
      <trkpt lat="42.85493" lon="-0.48973">
        <ele>2244.334961</ele>
        <time>2011-08-30T11:48:25Z</time>
      </trkpt>
      <trkpt lat="42.85485" lon="-0.48966">
        <ele>2246.738281</ele>
        <time>2011-08-30T11:48:41Z</time>
      </trkpt>
      <trkpt lat="42.85478" lon="-0.48969">
        <ele>2248.660889</ele>
        <time>2011-08-30T11:48:58Z</time>
      </trkpt>
      <trkpt lat="42.8547" lon="-0.48982">
        <ele>2250.103027</ele>
        <time>2011-08-30T11:49:35Z</time>
      </trkpt>
      <trkpt lat="42.85469" lon="-0.48983">
        <ele>2250.583496</ele>
        <time>2011-08-30T11:49:36Z</time>
      </trkpt>
      <trkpt lat="42.85467" lon="-0.4899">
        <ele>2250.103027</ele>
        <time>2011-08-30T11:49:58Z</time>
      </trkpt>
      <trkpt lat="42.85467" lon="-0.4899">
        <ele>2250.583496</ele>
        <time>2011-08-30T11:51:02Z</time>
      </trkpt>
      <trkpt lat="42.85469" lon="-0.48993">
        <ele>2249.622314</ele>
        <time>2011-08-30T11:52:11Z</time>
      </trkpt>
      <trkpt lat="42.85468" lon="-0.48992">
        <ele>2248.660889</ele>
        <time>2011-08-30T11:52:39Z</time>
      </trkpt>
      <trkpt lat="42.85468" lon="-0.48994">
        <ele>2249.141602</ele>
        <time>2011-08-30T11:53:10Z</time>
      </trkpt>
      <trkpt lat="42.85466" lon="-0.49001">
        <ele>2251.064209</ele>
        <time>2011-08-30T11:53:35Z</time>
      </trkpt>
      <trkpt lat="42.85461" lon="-0.4901">
        <ele>2254.428955</ele>
        <time>2011-08-30T11:53:46Z</time>
      </trkpt>
      <trkpt lat="42.85457" lon="-0.49017">
        <ele>2257.312988</ele>
        <time>2011-08-30T11:53:57Z</time>
      </trkpt>
      <trkpt lat="42.85454" lon="-0.49021">
        <ele>2259.716064</ele>
        <time>2011-08-30T11:54:05Z</time>
      </trkpt>
      <trkpt lat="42.85453" lon="-0.49035">
        <ele>2262.600098</ele>
        <time>2011-08-30T11:54:22Z</time>
      </trkpt>
      <trkpt lat="42.85454" lon="-0.49048">
        <ele>2265.9646</ele>
        <time>2011-08-30T11:54:38Z</time>
      </trkpt>
      <trkpt lat="42.85458" lon="-0.49065">
        <ele>2268.848877</ele>
        <time>2011-08-30T11:54:58Z</time>
      </trkpt>
      <trkpt lat="42.85461" lon="-0.49078">
        <ele>2272.213379</ele>
        <time>2011-08-30T11:55:14Z</time>
      </trkpt>
      <trkpt lat="42.85469" lon="-0.49095">
        <ele>2276.058594</ele>
        <time>2011-08-30T11:55:34Z</time>
      </trkpt>
      <trkpt lat="42.85474" lon="-0.49103">
        <ele>2277.500488</ele>
        <time>2011-08-30T11:55:45Z</time>
      </trkpt>
      <trkpt lat="42.85481" lon="-0.49116">
        <ele>2280.865234</ele>
        <time>2011-08-30T11:56:05Z</time>
      </trkpt>
      <trkpt lat="42.85481" lon="-0.49121">
        <ele>2282.787598</ele>
        <time>2011-08-30T11:56:11Z</time>
      </trkpt>
      <trkpt lat="42.85483" lon="-0.49123">
        <ele>2281.826416</ele>
        <time>2011-08-30T11:56:26Z</time>
      </trkpt>
      <trkpt lat="42.85491" lon="-0.4913">
        <ele>2282.307129</ele>
        <time>2011-08-30T11:56:42Z</time>
      </trkpt>
      <trkpt lat="42.85494" lon="-0.49138">
        <ele>2280.384521</ele>
        <time>2011-08-30T11:56:58Z</time>
      </trkpt>
      <trkpt lat="42.85497" lon="-0.49133">
        <ele>2281.345703</ele>
        <time>2011-08-30T11:57:24Z</time>
      </trkpt>
      <trkpt lat="42.85499" lon="-0.49133">
        <ele>2280.865234</ele>
        <time>2011-08-30T11:57:26Z</time>
      </trkpt>
      <trkpt lat="42.85496" lon="-0.49134">
        <ele>2280.865234</ele>
        <time>2011-08-30T11:57:38Z</time>
      </trkpt>
      <trkpt lat="42.85499" lon="-0.49144">
        <ele>2281.826416</ele>
        <time>2011-08-30T11:57:55Z</time>
      </trkpt>
      <trkpt lat="42.85498" lon="-0.49139">
        <ele>2282.307129</ele>
        <time>2011-08-30T11:58:10Z</time>
      </trkpt>
      <trkpt lat="42.85498" lon="-0.49139">
        <ele>2281.345703</ele>
        <time>2011-08-30T11:58:31Z</time>
      </trkpt>
      <trkpt lat="42.85498" lon="-0.49142">
        <ele>2280.865234</ele>
        <time>2011-08-30T12:00:16Z</time>
      </trkpt>
      <trkpt lat="42.85499" lon="-0.49139">
        <ele>2281.345703</ele>
        <time>2011-08-30T12:01:35Z</time>
      </trkpt>
      <trkpt lat="42.85499" lon="-0.49143">
        <ele>2280.865234</ele>
        <time>2011-08-30T12:03:52Z</time>
      </trkpt>
      <trkpt lat="42.85499" lon="-0.49144">
        <ele>2283.749023</ele>
        <time>2011-08-30T12:05:27Z</time>
      </trkpt>
      <trkpt lat="42.85501" lon="-0.49141">
        <ele>2289.51709</ele>
        <time>2011-08-30T12:10:16Z</time>
      </trkpt>
      <trkpt lat="42.85501" lon="-0.4914">
        <ele>2286.152588</ele>
        <time>2011-08-30T12:10:17Z</time>
      </trkpt>
      <trkpt lat="42.85501" lon="-0.49139">
        <ele>2286.152588</ele>
        <time>2011-08-30T12:10:19Z</time>
      </trkpt>
      <trkpt lat="42.855" lon="-0.49136">
        <ele>2285.191162</ele>
        <time>2011-08-30T12:10:21Z</time>
      </trkpt>
      <trkpt lat="42.85493" lon="-0.49128">
        <ele>2287.11377</ele>
        <time>2011-08-30T12:10:29Z</time>
      </trkpt>
      <trkpt lat="42.8549" lon="-0.49125">
        <ele>2285.671875</ele>
        <time>2011-08-30T12:10:33Z</time>
      </trkpt>
      <trkpt lat="42.85483" lon="-0.4912">
        <ele>2287.11377</ele>
        <time>2011-08-30T12:10:40Z</time>
      </trkpt>
      <trkpt lat="42.8547" lon="-0.4911">
        <ele>2289.036377</ele>
        <time>2011-08-30T12:10:50Z</time>
      </trkpt>
      <trkpt lat="42.85462" lon="-0.49103">
        <ele>2287.594482</ele>
        <time>2011-08-30T12:10:58Z</time>
      </trkpt>
      <trkpt lat="42.85461" lon="-0.49103">
        <ele>2291.439697</ele>
        <time>2011-08-30T12:10:59Z</time>
      </trkpt>
      <trkpt lat="42.85457" lon="-0.49099">
        <ele>2288.075195</ele>
        <time>2011-08-30T12:11:03Z</time>
      </trkpt>
      <trkpt lat="42.85447" lon="-0.49092">
        <ele>2291.439697</ele>
        <time>2011-08-30T12:11:15Z</time>
      </trkpt>
      <trkpt lat="42.85445" lon="-0.49092">
        <ele>2292.881592</ele>
        <time>2011-08-30T12:11:18Z</time>
      </trkpt>
      <trkpt lat="42.85445" lon="-0.49091">
        <ele>2291.439697</ele>
        <time>2011-08-30T12:11:30Z</time>
      </trkpt>
      <trkpt lat="42.85446" lon="-0.49091">
        <ele>2290.958984</ele>
        <time>2011-08-30T12:11:40Z</time>
      </trkpt>
      <trkpt lat="42.85443" lon="-0.49086">
        <ele>2290.958984</ele>
        <time>2011-08-30T12:11:45Z</time>
      </trkpt>
      <trkpt lat="42.85442" lon="-0.49084">
        <ele>2293.362305</ele>
        <time>2011-08-30T12:11:47Z</time>
      </trkpt>
      <trkpt lat="42.85441" lon="-0.49082">
        <ele>2292.401123</ele>
        <time>2011-08-30T12:11:49Z</time>
      </trkpt>
      <trkpt lat="42.85438" lon="-0.49082">
        <ele>2289.51709</ele>
        <time>2011-08-30T12:11:55Z</time>
      </trkpt>
      <trkpt lat="42.85438" lon="-0.49082">
        <ele>2293.362305</ele>
        <time>2011-08-30T12:11:57Z</time>
      </trkpt>
      <trkpt lat="42.85439" lon="-0.49082">
        <ele>2291.92041</ele>
        <time>2011-08-30T12:12:00Z</time>
      </trkpt>
      <trkpt lat="42.85442" lon="-0.49084">
        <ele>2291.439697</ele>
        <time>2011-08-30T12:12:20Z</time>
      </trkpt>
      <trkpt lat="42.85441" lon="-0.49084">
        <ele>2290.478271</ele>
        <time>2011-08-30T12:12:27Z</time>
      </trkpt>
      <trkpt lat="42.8544" lon="-0.49081">
        <ele>2290.478271</ele>
        <time>2011-08-30T12:12:30Z</time>
      </trkpt>
      <trkpt lat="42.85433" lon="-0.49072">
        <ele>2289.51709</ele>
        <time>2011-08-30T12:12:41Z</time>
      </trkpt>
      <trkpt lat="42.85431" lon="-0.49069">
        <ele>2290.958984</ele>
        <time>2011-08-30T12:12:49Z</time>
      </trkpt>
      <trkpt lat="42.85431" lon="-0.49069">
        <ele>2285.671875</ele>
        <time>2011-08-30T12:12:51Z</time>
      </trkpt>
      <trkpt lat="42.85431" lon="-0.49069">
        <ele>2293.843018</ele>
        <time>2011-08-30T12:12:52Z</time>
      </trkpt>
      <trkpt lat="42.85432" lon="-0.4907">
        <ele>2289.997803</ele>
        <time>2011-08-30T12:12:53Z</time>
      </trkpt>
      <trkpt lat="42.85432" lon="-0.4907">
        <ele>2289.036377</ele>
        <time>2011-08-30T12:12:55Z</time>
      </trkpt>
      <trkpt lat="42.85432" lon="-0.4907">
        <ele>2290.478271</ele>
        <time>2011-08-30T12:12:57Z</time>
      </trkpt>
      <trkpt lat="42.85431" lon="-0.49073">
        <ele>2289.036377</ele>
        <time>2011-08-30T12:13:17Z</time>
      </trkpt>
      <trkpt lat="42.85431" lon="-0.49072">
        <ele>2289.997803</ele>
        <time>2011-08-30T12:13:45Z</time>
      </trkpt>
      <trkpt lat="42.8543" lon="-0.49072">
        <ele>2288.075195</ele>
        <time>2011-08-30T12:14:08Z</time>
      </trkpt>
      <trkpt lat="42.85434" lon="-0.49075">
        <ele>2290.958984</ele>
        <time>2011-08-30T12:14:31Z</time>
      </trkpt>
      <trkpt lat="42.85435" lon="-0.49076">
        <ele>2291.439697</ele>
        <time>2011-08-30T12:14:35Z</time>
      </trkpt>
      <trkpt lat="42.85439" lon="-0.49083">
        <ele>2290.958984</ele>
        <time>2011-08-30T12:14:39Z</time>
      </trkpt>
      <trkpt lat="42.85441" lon="-0.49088">
        <ele>2290.478271</ele>
        <time>2011-08-30T12:14:52Z</time>
      </trkpt>
      <trkpt lat="42.85446" lon="-0.49095">
        <ele>2289.51709</ele>
        <time>2011-08-30T12:14:58Z</time>
      </trkpt>
      <trkpt lat="42.85449" lon="-0.49096">
        <ele>2288.555908</ele>
        <time>2011-08-30T12:15:01Z</time>
      </trkpt>
      <trkpt lat="42.85453" lon="-0.49108">
        <ele>2287.11377</ele>
        <time>2011-08-30T12:15:08Z</time>
      </trkpt>
      <trkpt lat="42.85453" lon="-0.49109">
        <ele>2286.633057</ele>
        <time>2011-08-30T12:15:10Z</time>
      </trkpt>
      <trkpt lat="42.85454" lon="-0.4911">
        <ele>2285.191162</ele>
        <time>2011-08-30T12:15:12Z</time>
      </trkpt>
      <trkpt lat="42.85457" lon="-0.49114">
        <ele>2285.191162</ele>
        <time>2011-08-30T12:15:17Z</time>
      </trkpt>
      <trkpt lat="42.85471" lon="-0.4912">
        <ele>2286.152588</ele>
        <time>2011-08-30T12:15:28Z</time>
      </trkpt>
      <trkpt lat="42.8548" lon="-0.49122">
        <ele>2287.11377</ele>
        <time>2011-08-30T12:15:36Z</time>
      </trkpt>
      <trkpt lat="42.85492" lon="-0.49133">
        <ele>2286.152588</ele>
        <time>2011-08-30T12:15:46Z</time>
      </trkpt>
      <trkpt lat="42.85496" lon="-0.49137">
        <ele>2287.11377</ele>
        <time>2011-08-30T12:15:51Z</time>
      </trkpt>
      <trkpt lat="42.85499" lon="-0.49145">
        <ele>2285.671875</ele>
        <time>2011-08-30T12:16:02Z</time>
      </trkpt>
      <trkpt lat="42.85504" lon="-0.49138">
        <ele>2287.11377</ele>
        <time>2011-08-30T12:16:27Z</time>
      </trkpt>
      <trkpt lat="42.85498" lon="-0.49142">
        <ele>2288.075195</ele>
        <time>2011-08-30T12:16:59Z</time>
      </trkpt>
      <trkpt lat="42.855" lon="-0.4914">
        <ele>2284.710693</ele>
        <time>2011-08-30T12:18:13Z</time>
      </trkpt>
      <trkpt lat="42.855" lon="-0.4914">
        <ele>2286.633057</ele>
        <time>2011-08-30T12:18:16Z</time>
      </trkpt>
      <trkpt lat="42.855" lon="-0.49138">
        <ele>2283.268311</ele>
        <time>2011-08-30T12:18:22Z</time>
      </trkpt>
      <trkpt lat="42.855" lon="-0.49138">
        <ele>2283.749023</ele>
        <time>2011-08-30T12:18:23Z</time>
      </trkpt>
      <trkpt lat="42.85499" lon="-0.49139">
        <ele>2284.710693</ele>
        <time>2011-08-30T12:18:25Z</time>
      </trkpt>
      <trkpt lat="42.85497" lon="-0.49144">
        <ele>2287.594482</ele>
        <time>2011-08-30T12:21:26Z</time>
      </trkpt>
      <trkpt lat="42.85502" lon="-0.4912">
        <ele>2287.11377</ele>
        <time>2011-08-30T12:25:27Z</time>
      </trkpt>
      <trkpt lat="42.855" lon="-0.49137">
        <ele>2287.594482</ele>
        <time>2011-08-30T12:25:56Z</time>
      </trkpt>
      <trkpt lat="42.855" lon="-0.49141">
        <ele>2290.478271</ele>
        <time>2011-08-30T12:31:27Z</time>
      </trkpt>
      <trkpt lat="42.855" lon="-0.49139">
        <ele>2287.11377</ele>
        <time>2011-08-30T12:32:33Z</time>
      </trkpt>
      <trkpt lat="42.85498" lon="-0.49136">
        <ele>2289.036377</ele>
        <time>2011-08-30T12:36:26Z</time>
      </trkpt>
      <trkpt lat="42.85501" lon="-0.49141">
        <ele>2288.555908</ele>
        <time>2011-08-30T12:43:14Z</time>
      </trkpt>
      <trkpt lat="42.855" lon="-0.49139">
        <ele>2287.11377</ele>
        <time>2011-08-30T12:43:36Z</time>
      </trkpt>
      <trkpt lat="42.85503" lon="-0.49139">
        <ele>2288.555908</ele>
        <time>2011-08-30T12:44:22Z</time>
      </trkpt>
      <trkpt lat="42.85503" lon="-0.4914">
        <ele>2287.594482</ele>
        <time>2011-08-30T12:48:36Z</time>
      </trkpt>
      <trkpt lat="42.85503" lon="-0.4914">
        <ele>2284.22998</ele>
        <time>2011-08-30T12:50:56Z</time>
      </trkpt>
      <trkpt lat="42.85503" lon="-0.4914">
        <ele>2287.11377</ele>
        <time>2011-08-30T12:51:57Z</time>
      </trkpt>
      <trkpt lat="42.85502" lon="-0.4914">
        <ele>2285.671875</ele>
        <time>2011-08-30T12:55:39Z</time>
      </trkpt>
      <trkpt lat="42.85505" lon="-0.49139">
        <ele>2287.11377</ele>
        <time>2011-08-30T12:56:15Z</time>
      </trkpt>
      <trkpt lat="42.85503" lon="-0.4914">
        <ele>2283.749023</ele>
        <time>2011-08-30T13:00:01Z</time>
      </trkpt>
      <trkpt lat="42.85502" lon="-0.49139">
        <ele>2285.191162</ele>
        <time>2011-08-30T13:08:10Z</time>
      </trkpt>
      <trkpt lat="42.855" lon="-0.49138">
        <ele>2286.152588</ele>
        <time>2011-08-30T13:08:21Z</time>
      </trkpt>
      <trkpt lat="42.855" lon="-0.49138">
        <ele>2284.710693</ele>
        <time>2011-08-30T13:08:24Z</time>
      </trkpt>
      <trkpt lat="42.855" lon="-0.49139">
        <ele>2285.671875</ele>
        <time>2011-08-30T13:09:06Z</time>
      </trkpt>
      <trkpt lat="42.85499" lon="-0.49138">
        <ele>2285.191162</ele>
        <time>2011-08-30T13:09:55Z</time>
      </trkpt>
      <trkpt lat="42.85502" lon="-0.4914">
        <ele>2284.22998</ele>
        <time>2011-08-30T13:10:48Z</time>
      </trkpt>
      <trkpt lat="42.85501" lon="-0.4914">
        <ele>2281.826416</ele>
        <time>2011-08-30T13:10:53Z</time>
      </trkpt>
      <trkpt lat="42.85502" lon="-0.4914">
        <ele>2284.710693</ele>
        <time>2011-08-30T13:10:56Z</time>
      </trkpt>
      <trkpt lat="42.85501" lon="-0.4914">
        <ele>2286.152588</ele>
        <time>2011-08-30T13:11:07Z</time>
      </trkpt>
      <trkpt lat="42.85501" lon="-0.4914">
        <ele>2282.787598</ele>
        <time>2011-08-30T13:11:13Z</time>
      </trkpt>
      <trkpt lat="42.85501" lon="-0.4914">
        <ele>2282.787598</ele>
        <time>2011-08-30T13:11:14Z</time>
      </trkpt>
      <trkpt lat="42.855" lon="-0.4914">
        <ele>2285.191162</ele>
        <time>2011-08-30T13:11:21Z</time>
      </trkpt>
      <trkpt lat="42.85491" lon="-0.4914">
        <ele>2283.749023</ele>
        <time>2011-08-30T13:11:37Z</time>
      </trkpt>
      <trkpt lat="42.85483" lon="-0.49137">
        <ele>2283.749023</ele>
        <time>2011-08-30T13:11:48Z</time>
      </trkpt>
      <trkpt lat="42.85472" lon="-0.49133">
        <ele>2280.384521</ele>
        <time>2011-08-30T13:12:05Z</time>
      </trkpt>
      <trkpt lat="42.85467" lon="-0.49134">
        <ele>2276.539307</ele>
        <time>2011-08-30T13:12:15Z</time>
      </trkpt>
      <trkpt lat="42.85458" lon="-0.49136">
        <ele>2275.097168</ele>
        <time>2011-08-30T13:12:32Z</time>
      </trkpt>
      <trkpt lat="42.85446" lon="-0.49138">
        <ele>2271.732666</ele>
        <time>2011-08-30T13:12:50Z</time>
      </trkpt>
      <trkpt lat="42.85443" lon="-0.4914">
        <ele>2269.810059</ele>
        <time>2011-08-30T13:12:54Z</time>
      </trkpt>
      <trkpt lat="42.85431" lon="-0.49139">
        <ele>2268.368164</ele>
        <time>2011-08-30T13:13:12Z</time>
      </trkpt>
      <trkpt lat="42.85428" lon="-0.49137">
        <ele>2266.926025</ele>
        <time>2011-08-30T13:13:28Z</time>
      </trkpt>
      <trkpt lat="42.85426" lon="-0.49138">
        <ele>2265.9646</ele>
        <time>2011-08-30T13:13:32Z</time>
      </trkpt>
      <trkpt lat="42.8542" lon="-0.4914">
        <ele>2266.926025</ele>
        <time>2011-08-30T13:13:46Z</time>
      </trkpt>
      <trkpt lat="42.85421" lon="-0.49139">
        <ele>2268.848877</ele>
        <time>2011-08-30T13:14:16Z</time>
      </trkpt>
      <trkpt lat="42.8542" lon="-0.49138">
        <ele>2266.926025</ele>
        <time>2011-08-30T13:14:35Z</time>
      </trkpt>
      <trkpt lat="42.85424" lon="-0.49146">
        <ele>2265.9646</ele>
        <time>2011-08-30T13:15:02Z</time>
      </trkpt>
      <trkpt lat="42.85422" lon="-0.49153">
        <ele>2263.561279</ele>
        <time>2011-08-30T13:15:11Z</time>
      </trkpt>
      <trkpt lat="42.8542" lon="-0.49155">
        <ele>2262.600098</ele>
        <time>2011-08-30T13:15:15Z</time>
      </trkpt>
      <trkpt lat="42.85418" lon="-0.49158">
        <ele>2262.119385</ele>
        <time>2011-08-30T13:15:34Z</time>
      </trkpt>
      <trkpt lat="42.85417" lon="-0.49159">
        <ele>2261.638916</ele>
        <time>2011-08-30T13:15:35Z</time>
      </trkpt>
      <trkpt lat="42.85414" lon="-0.49161">
        <ele>2260.67749</ele>
        <time>2011-08-30T13:15:51Z</time>
      </trkpt>
      <trkpt lat="42.85407" lon="-0.49168">
        <ele>2257.312988</ele>
        <time>2011-08-30T13:16:06Z</time>
      </trkpt>
      <trkpt lat="42.85403" lon="-0.49172">
        <ele>2255.390381</ele>
        <time>2011-08-30T13:16:14Z</time>
      </trkpt>
      <trkpt lat="42.85399" lon="-0.49178">
        <ele>2253.948486</ele>
        <time>2011-08-30T13:16:23Z</time>
      </trkpt>
      <trkpt lat="42.85395" lon="-0.49189">
        <ele>2251.064209</ele>
        <time>2011-08-30T13:16:39Z</time>
      </trkpt>
      <trkpt lat="42.85387" lon="-0.49204">
        <ele>2248.180176</ele>
        <time>2011-08-30T13:17:00Z</time>
      </trkpt>
      <trkpt lat="42.85376" lon="-0.49218">
        <ele>2244.815674</ele>
        <time>2011-08-30T13:17:20Z</time>
      </trkpt>
      <trkpt lat="42.8537" lon="-0.49236">
        <ele>2240.489746</ele>
        <time>2011-08-30T13:17:40Z</time>
      </trkpt>
      <trkpt lat="42.85366" lon="-0.49256">
        <ele>2238.567383</ele>
        <time>2011-08-30T13:17:58Z</time>
      </trkpt>
      <trkpt lat="42.85366" lon="-0.49259">
        <ele>2237.125244</ele>
        <time>2011-08-30T13:18:01Z</time>
      </trkpt>
      <trkpt lat="42.85363" lon="-0.49274">
        <ele>2233.760498</ele>
        <time>2011-08-30T13:18:15Z</time>
      </trkpt>
      <trkpt lat="42.85363" lon="-0.49287">
        <ele>2230.876709</ele>
        <time>2011-08-30T13:18:28Z</time>
      </trkpt>
      <trkpt lat="42.85361" lon="-0.49303">
        <ele>2227.511963</ele>
        <time>2011-08-30T13:18:43Z</time>
      </trkpt>
      <trkpt lat="42.8536" lon="-0.49326">
        <ele>2226.550781</ele>
        <time>2011-08-30T13:19:04Z</time>
      </trkpt>
      <trkpt lat="42.85361" lon="-0.4934">
        <ele>2223.186279</ele>
        <time>2011-08-30T13:19:18Z</time>
      </trkpt>
      <trkpt lat="42.85361" lon="-0.49361">
        <ele>2220.782959</ele>
        <time>2011-08-30T13:19:39Z</time>
      </trkpt>
      <trkpt lat="42.85357" lon="-0.49374">
        <ele>2217.417969</ele>
        <time>2011-08-30T13:19:53Z</time>
      </trkpt>
      <trkpt lat="42.85358" lon="-0.49379">
        <ele>2216.456787</ele>
        <time>2011-08-30T13:19:58Z</time>
      </trkpt>
      <trkpt lat="42.85352" lon="-0.49407">
        <ele>2217.417969</ele>
        <time>2011-08-30T13:20:20Z</time>
      </trkpt>
      <trkpt lat="42.85352" lon="-0.49425">
        <ele>2216.456787</ele>
        <time>2011-08-30T13:20:38Z</time>
      </trkpt>
      <trkpt lat="42.85359" lon="-0.49431">
        <ele>2213.572754</ele>
        <time>2011-08-30T13:20:51Z</time>
      </trkpt>
      <trkpt lat="42.85366" lon="-0.49436">
        <ele>2212.611572</ele>
        <time>2011-08-30T13:21:05Z</time>
      </trkpt>
      <trkpt lat="42.85368" lon="-0.49436">
        <ele>2211.169678</ele>
        <time>2011-08-30T13:21:07Z</time>
      </trkpt>
      <trkpt lat="42.85371" lon="-0.49454">
        <ele>2209.727539</ele>
        <time>2011-08-30T13:21:23Z</time>
      </trkpt>
      <trkpt lat="42.85368" lon="-0.49483">
        <ele>2210.208252</ele>
        <time>2011-08-30T13:21:44Z</time>
      </trkpt>
      <trkpt lat="42.8536" lon="-0.49504">
        <ele>2210.208252</ele>
        <time>2011-08-30T13:22:03Z</time>
      </trkpt>
      <trkpt lat="42.85352" lon="-0.49511">
        <ele>2210.688965</ele>
        <time>2011-08-30T13:22:18Z</time>
      </trkpt>
      <trkpt lat="42.85354" lon="-0.49514">
        <ele>2210.688965</ele>
        <time>2011-08-30T13:22:29Z</time>
      </trkpt>
      <trkpt lat="42.85353" lon="-0.49516">
        <ele>2210.208252</ele>
        <time>2011-08-30T13:22:50Z</time>
      </trkpt>
      <trkpt lat="42.85348" lon="-0.49517">
        <ele>2211.650391</ele>
        <time>2011-08-30T13:23:06Z</time>
      </trkpt>
      <trkpt lat="42.85342" lon="-0.49523">
        <ele>2214.053467</ele>
        <time>2011-08-30T13:23:16Z</time>
      </trkpt>
      <trkpt lat="42.85332" lon="-0.4953">
        <ele>2216.456787</ele>
        <time>2011-08-30T13:23:31Z</time>
      </trkpt>
      <trkpt lat="42.8532" lon="-0.49551">
        <ele>2214.53418</ele>
        <time>2011-08-30T13:23:49Z</time>
      </trkpt>
      <trkpt lat="42.85307" lon="-0.49572">
        <ele>2215.014893</ele>
        <time>2011-08-30T13:24:06Z</time>
      </trkpt>
      <trkpt lat="42.85301" lon="-0.49576">
        <ele>2215.014893</ele>
        <time>2011-08-30T13:24:12Z</time>
      </trkpt>
      <trkpt lat="42.85299" lon="-0.49577">
        <ele>2214.53418</ele>
        <time>2011-08-30T13:24:14Z</time>
      </trkpt>
      <trkpt lat="42.85295" lon="-0.49577">
        <ele>2213.572754</ele>
        <time>2011-08-30T13:24:18Z</time>
      </trkpt>
      <trkpt lat="42.85276" lon="-0.4959">
        <ele>2209.727539</ele>
        <time>2011-08-30T13:24:37Z</time>
      </trkpt>
      <trkpt lat="42.85259" lon="-0.49597">
        <ele>2209.727539</ele>
        <time>2011-08-30T13:24:53Z</time>
      </trkpt>
      <trkpt lat="42.85245" lon="-0.49606">
        <ele>2206.363037</ele>
        <time>2011-08-30T13:25:10Z</time>
      </trkpt>
      <trkpt lat="42.85243" lon="-0.4961">
        <ele>2206.363037</ele>
        <time>2011-08-30T13:25:14Z</time>
      </trkpt>
      <trkpt lat="42.85238" lon="-0.4962">
        <ele>2202.998291</ele>
        <time>2011-08-30T13:25:24Z</time>
      </trkpt>
      <trkpt lat="42.85234" lon="-0.49629">
        <ele>2201.556396</ele>
        <time>2011-08-30T13:25:31Z</time>
      </trkpt>
      <trkpt lat="42.85229" lon="-0.49646">
        <ele>2202.036865</ele>
        <time>2011-08-30T13:25:44Z</time>
      </trkpt>
      <trkpt lat="42.85219" lon="-0.49669">
        <ele>2200.594971</ele>
        <time>2011-08-30T13:26:04Z</time>
      </trkpt>
      <trkpt lat="42.85217" lon="-0.49672">
        <ele>2197.230469</ele>
        <time>2011-08-30T13:26:09Z</time>
      </trkpt>
      <trkpt lat="42.85212" lon="-0.49682">
        <ele>2196.269287</ele>
        <time>2011-08-30T13:26:25Z</time>
      </trkpt>
      <trkpt lat="42.85208" lon="-0.49693">
        <ele>2193.865967</ele>
        <time>2011-08-30T13:26:41Z</time>
      </trkpt>
      <trkpt lat="42.85208" lon="-0.49695">
        <ele>2193.385254</ele>
        <time>2011-08-30T13:26:59Z</time>
      </trkpt>
      <trkpt lat="42.85202" lon="-0.49698">
        <ele>2194.827148</ele>
        <time>2011-08-30T13:27:19Z</time>
      </trkpt>
      <trkpt lat="42.85197" lon="-0.49703">
        <ele>2196.749756</ele>
        <time>2011-08-30T13:27:26Z</time>
      </trkpt>
      <trkpt lat="42.85196" lon="-0.49705">
        <ele>2195.307861</ele>
        <time>2011-08-30T13:27:28Z</time>
      </trkpt>
      <trkpt lat="42.85191" lon="-0.49707">
        <ele>2194.346436</ele>
        <time>2011-08-30T13:27:34Z</time>
      </trkpt>
      <trkpt lat="42.85186" lon="-0.49715">
        <ele>2193.865967</ele>
        <time>2011-08-30T13:27:50Z</time>
      </trkpt>
      <trkpt lat="42.85187" lon="-0.49715">
        <ele>2192.904541</ele>
        <time>2011-08-30T13:28:14Z</time>
      </trkpt>
      <trkpt lat="42.85187" lon="-0.49711">
        <ele>2192.904541</ele>
        <time>2011-08-30T13:28:34Z</time>
      </trkpt>
      <trkpt lat="42.85186" lon="-0.4971">
        <ele>2191.943359</ele>
        <time>2011-08-30T13:28:39Z</time>
      </trkpt>
      <trkpt lat="42.8518" lon="-0.49706">
        <ele>2191.462646</ele>
        <time>2011-08-30T13:28:53Z</time>
      </trkpt>
      <trkpt lat="42.85176" lon="-0.49706">
        <ele>2189.540039</ele>
        <time>2011-08-30T13:29:05Z</time>
      </trkpt>
      <trkpt lat="42.85177" lon="-0.49697">
        <ele>2187.136475</ele>
        <time>2011-08-30T13:29:13Z</time>
      </trkpt>
      <trkpt lat="42.85178" lon="-0.4969">
        <ele>2184.252686</ele>
        <time>2011-08-30T13:29:22Z</time>
      </trkpt>
      <trkpt lat="42.85178" lon="-0.49675">
        <ele>2183.771973</ele>
        <time>2011-08-30T13:29:36Z</time>
      </trkpt>
      <trkpt lat="42.85179" lon="-0.49674">
        <ele>2183.29126</ele>
        <time>2011-08-30T13:29:37Z</time>
      </trkpt>
      <trkpt lat="42.85181" lon="-0.49653">
        <ele>2179.446045</ele>
        <time>2011-08-30T13:29:54Z</time>
      </trkpt>
      <trkpt lat="42.85188" lon="-0.4964">
        <ele>2177.042969</ele>
        <time>2011-08-30T13:30:09Z</time>
      </trkpt>
      <trkpt lat="42.85192" lon="-0.49636">
        <ele>2175.60083</ele>
        <time>2011-08-30T13:30:14Z</time>
      </trkpt>
      <trkpt lat="42.85194" lon="-0.49631">
        <ele>2174.158936</ele>
        <time>2011-08-30T13:30:18Z</time>
      </trkpt>
      <trkpt lat="42.852" lon="-0.49611">
        <ele>2172.236328</ele>
        <time>2011-08-30T13:30:36Z</time>
      </trkpt>
      <trkpt lat="42.85202" lon="-0.49603">
        <ele>2171.274658</ele>
        <time>2011-08-30T13:30:46Z</time>
      </trkpt>
      <trkpt lat="42.85202" lon="-0.49592">
        <ele>2170.313477</ele>
        <time>2011-08-30T13:30:55Z</time>
      </trkpt>
      <trkpt lat="42.85203" lon="-0.49585">
        <ele>2167.910156</ele>
        <time>2011-08-30T13:31:01Z</time>
      </trkpt>
      <trkpt lat="42.85199" lon="-0.49576">
        <ele>2166.468262</ele>
        <time>2011-08-30T13:31:14Z</time>
      </trkpt>
      <trkpt lat="42.85196" lon="-0.49561">
        <ele>2165.026367</ele>
        <time>2011-08-30T13:31:31Z</time>
      </trkpt>
      <trkpt lat="42.85195" lon="-0.49555">
        <ele>2161.661865</ele>
        <time>2011-08-30T13:31:38Z</time>
      </trkpt>
      <trkpt lat="42.85195" lon="-0.49542">
        <ele>2157.81665</ele>
        <time>2011-08-30T13:31:50Z</time>
      </trkpt>
      <trkpt lat="42.85196" lon="-0.49541">
        <ele>2157.81665</ele>
        <time>2011-08-30T13:31:51Z</time>
      </trkpt>
      <trkpt lat="42.85192" lon="-0.4953">
        <ele>2156.374512</ele>
        <time>2011-08-30T13:32:04Z</time>
      </trkpt>
      <trkpt lat="42.85187" lon="-0.49518">
        <ele>2153.009766</ele>
        <time>2011-08-30T13:32:16Z</time>
      </trkpt>
      <trkpt lat="42.85185" lon="-0.49503">
        <ele>2150.125977</ele>
        <time>2011-08-30T13:32:31Z</time>
      </trkpt>
      <trkpt lat="42.85186" lon="-0.49499">
        <ele>2150.606445</ele>
        <time>2011-08-30T13:32:34Z</time>
      </trkpt>
      <trkpt lat="42.85187" lon="-0.49492">
        <ele>2146.76123</ele>
        <time>2011-08-30T13:32:40Z</time>
      </trkpt>
      <trkpt lat="42.85187" lon="-0.49486">
        <ele>2145.800049</ele>
        <time>2011-08-30T13:32:46Z</time>
      </trkpt>
      <trkpt lat="42.8519" lon="-0.49474">
        <ele>2143.877441</ele>
        <time>2011-08-30T13:32:56Z</time>
      </trkpt>
      <trkpt lat="42.85189" lon="-0.49471">
        <ele>2144.35791</ele>
        <time>2011-08-30T13:32:58Z</time>
      </trkpt>
      <trkpt lat="42.85189" lon="-0.49467">
        <ele>2142.435547</ele>
        <time>2011-08-30T13:33:01Z</time>
      </trkpt>
      <trkpt lat="42.85191" lon="-0.4945">
        <ele>2140.512695</ele>
        <time>2011-08-30T13:33:18Z</time>
      </trkpt>
      <trkpt lat="42.85194" lon="-0.4944">
        <ele>2138.109375</ele>
        <time>2011-08-30T13:33:30Z</time>
      </trkpt>
      <trkpt lat="42.85193" lon="-0.49436">
        <ele>2137.628662</ele>
        <time>2011-08-30T13:33:36Z</time>
      </trkpt>
      <trkpt lat="42.8519" lon="-0.4943">
        <ele>2133.302734</ele>
        <time>2011-08-30T13:33:41Z</time>
      </trkpt>
      <trkpt lat="42.8519" lon="-0.49419">
        <ele>2130.418945</ele>
        <time>2011-08-30T13:33:53Z</time>
      </trkpt>
      <trkpt lat="42.85188" lon="-0.49412">
        <ele>2129.45752</ele>
        <time>2011-08-30T13:34:06Z</time>
      </trkpt>
      <trkpt lat="42.85187" lon="-0.4941">
        <ele>2128.015625</ele>
        <time>2011-08-30T13:34:09Z</time>
      </trkpt>
      <trkpt lat="42.85187" lon="-0.49406">
        <ele>2125.131592</ele>
        <time>2011-08-30T13:34:14Z</time>
      </trkpt>
      <trkpt lat="42.85187" lon="-0.49401">
        <ele>2125.612305</ele>
        <time>2011-08-30T13:34:20Z</time>
      </trkpt>
      <trkpt lat="42.85183" lon="-0.49389">
        <ele>2122.728271</ele>
        <time>2011-08-30T13:34:34Z</time>
      </trkpt>
      <trkpt lat="42.85184" lon="-0.49378">
        <ele>2118.402344</ele>
        <time>2011-08-30T13:34:46Z</time>
      </trkpt>
      <trkpt lat="42.85185" lon="-0.49376">
        <ele>2116.960449</ele>
        <time>2011-08-30T13:34:48Z</time>
      </trkpt>
      <trkpt lat="42.85185" lon="-0.49376">
        <ele>2117.440918</ele>
        <time>2011-08-30T13:34:49Z</time>
      </trkpt>
      <trkpt lat="42.8519" lon="-0.49374">
        <ele>2116.479736</ele>
        <time>2011-08-30T13:34:54Z</time>
      </trkpt>
      <trkpt lat="42.85193" lon="-0.49364">
        <ele>2115.518555</ele>
        <time>2011-08-30T13:35:09Z</time>
      </trkpt>
      <trkpt lat="42.85193" lon="-0.4936">
        <ele>2114.557129</ele>
        <time>2011-08-30T13:35:15Z</time>
      </trkpt>
      <trkpt lat="42.85191" lon="-0.49357">
        <ele>2113.595703</ele>
        <time>2011-08-30T13:35:20Z</time>
      </trkpt>
      <trkpt lat="42.85188" lon="-0.49354">
        <ele>2109.750488</ele>
        <time>2011-08-30T13:35:25Z</time>
      </trkpt>
      <trkpt lat="42.85188" lon="-0.49352">
        <ele>2111.67334</ele>
        <time>2011-08-30T13:36:04Z</time>
      </trkpt>
      <trkpt lat="42.85189" lon="-0.49347">
        <ele>2110.711914</ele>
        <time>2011-08-30T13:36:25Z</time>
      </trkpt>
      <trkpt lat="42.85185" lon="-0.49343">
        <ele>2108.308594</ele>
        <time>2011-08-30T13:36:36Z</time>
      </trkpt>
      <trkpt lat="42.85184" lon="-0.49339">
        <ele>2106.866455</ele>
        <time>2011-08-30T13:36:45Z</time>
      </trkpt>
      <trkpt lat="42.8519" lon="-0.49331">
        <ele>2104.943848</ele>
        <time>2011-08-30T13:37:02Z</time>
      </trkpt>
      <trkpt lat="42.85194" lon="-0.49326">
        <ele>2103.501953</ele>
        <time>2011-08-30T13:37:16Z</time>
      </trkpt>
      <trkpt lat="42.85196" lon="-0.49326">
        <ele>2102.059814</ele>
        <time>2011-08-30T13:37:20Z</time>
      </trkpt>
      <trkpt lat="42.85201" lon="-0.49316">
        <ele>2100.137451</ele>
        <time>2011-08-30T13:37:36Z</time>
      </trkpt>
      <trkpt lat="42.852" lon="-0.49312">
        <ele>2098.695312</ele>
        <time>2011-08-30T13:37:44Z</time>
      </trkpt>
      <trkpt lat="42.85203" lon="-0.49311">
        <ele>2099.176025</ele>
        <time>2011-08-30T13:37:48Z</time>
      </trkpt>
      <trkpt lat="42.85204" lon="-0.4931">
        <ele>2098.2146</ele>
        <time>2011-08-30T13:37:51Z</time>
      </trkpt>
      <trkpt lat="42.85208" lon="-0.493">
        <ele>2095.330811</ele>
        <time>2011-08-30T13:38:04Z</time>
      </trkpt>
      <trkpt lat="42.85209" lon="-0.49293">
        <ele>2093.888916</ele>
        <time>2011-08-30T13:38:14Z</time>
      </trkpt>
      <trkpt lat="42.85208" lon="-0.49289">
        <ele>2092.447021</ele>
        <time>2011-08-30T13:38:20Z</time>
      </trkpt>
      <trkpt lat="42.85213" lon="-0.49279">
        <ele>2090.523926</ele>
        <time>2011-08-30T13:38:33Z</time>
      </trkpt>
      <trkpt lat="42.85218" lon="-0.4927">
        <ele>2090.523926</ele>
        <time>2011-08-30T13:38:44Z</time>
      </trkpt>
      <trkpt lat="42.8522" lon="-0.4926">
        <ele>2087.159424</ele>
        <time>2011-08-30T13:38:53Z</time>
      </trkpt>
      <trkpt lat="42.85215" lon="-0.49259">
        <ele>2086.198242</ele>
        <time>2011-08-30T13:39:08Z</time>
      </trkpt>
      <trkpt lat="42.85213" lon="-0.49251">
        <ele>2083.314209</ele>
        <time>2011-08-30T13:39:23Z</time>
      </trkpt>
      <trkpt lat="42.85215" lon="-0.4924">
        <ele>2079.949707</ele>
        <time>2011-08-30T13:39:34Z</time>
      </trkpt>
      <trkpt lat="42.85216" lon="-0.49234">
        <ele>2079.468994</ele>
        <time>2011-08-30T13:39:39Z</time>
      </trkpt>
      <trkpt lat="42.85216" lon="-0.49219">
        <ele>2078.988281</ele>
        <time>2011-08-30T13:39:55Z</time>
      </trkpt>
      <trkpt lat="42.85216" lon="-0.49209">
        <ele>2078.507812</ele>
        <time>2011-08-30T13:40:07Z</time>
      </trkpt>
      <trkpt lat="42.85215" lon="-0.49197">
        <ele>2076.585205</ele>
        <time>2011-08-30T13:40:19Z</time>
      </trkpt>
      <trkpt lat="42.85215" lon="-0.49189">
        <ele>2074.181641</ele>
        <time>2011-08-30T13:40:27Z</time>
      </trkpt>
      <trkpt lat="42.85215" lon="-0.49185">
        <ele>2073.220459</ele>
        <time>2011-08-30T13:40:31Z</time>
      </trkpt>
      <trkpt lat="42.85216" lon="-0.49174">
        <ele>2070.817139</ele>
        <time>2011-08-30T13:40:41Z</time>
      </trkpt>
      <trkpt lat="42.8522" lon="-0.49154">
        <ele>2068.894531</ele>
        <time>2011-08-30T13:41:00Z</time>
      </trkpt>
      <trkpt lat="42.85215" lon="-0.49143">
        <ele>2066.491211</ele>
        <time>2011-08-30T13:41:20Z</time>
      </trkpt>
      <trkpt lat="42.85213" lon="-0.49133">
        <ele>2065.049316</ele>
        <time>2011-08-30T13:41:32Z</time>
      </trkpt>
      <trkpt lat="42.85213" lon="-0.49121">
        <ele>2063.607178</ele>
        <time>2011-08-30T13:41:47Z</time>
      </trkpt>
      <trkpt lat="42.8521" lon="-0.49111">
        <ele>2062.645996</ele>
        <time>2011-08-30T13:41:57Z</time>
      </trkpt>
      <trkpt lat="42.8521" lon="-0.49101">
        <ele>2061.204102</ele>
        <time>2011-08-30T13:42:08Z</time>
      </trkpt>
      <trkpt lat="42.85209" lon="-0.49085">
        <ele>2058.800537</ele>
        <time>2011-08-30T13:42:23Z</time>
      </trkpt>
      <trkpt lat="42.85211" lon="-0.49081">
        <ele>2058.319824</ele>
        <time>2011-08-30T13:42:36Z</time>
      </trkpt>
      <trkpt lat="42.85211" lon="-0.49081">
        <ele>2058.800537</ele>
        <time>2011-08-30T13:42:51Z</time>
      </trkpt>
      <trkpt lat="42.85208" lon="-0.49076">
        <ele>2054.955322</ele>
        <time>2011-08-30T13:43:06Z</time>
      </trkpt>
      <trkpt lat="42.85207" lon="-0.49052">
        <ele>2051.110107</ele>
        <time>2011-08-30T13:43:24Z</time>
      </trkpt>
      <trkpt lat="42.85208" lon="-0.49051">
        <ele>2051.110107</ele>
        <time>2011-08-30T13:43:25Z</time>
      </trkpt>
      <trkpt lat="42.85207" lon="-0.49036">
        <ele>2048.226074</ele>
        <time>2011-08-30T13:43:39Z</time>
      </trkpt>
      <trkpt lat="42.85206" lon="-0.49034">
        <ele>2047.745605</ele>
        <time>2011-08-30T13:43:41Z</time>
      </trkpt>
      <trkpt lat="42.85203" lon="-0.49018">
        <ele>2045.822998</ele>
        <time>2011-08-30T13:43:55Z</time>
      </trkpt>
      <trkpt lat="42.85202" lon="-0.49016">
        <ele>2044.861572</ele>
        <time>2011-08-30T13:43:57Z</time>
      </trkpt>
      <trkpt lat="42.85201" lon="-0.49011">
        <ele>2042.938721</ele>
        <time>2011-08-30T13:44:00Z</time>
      </trkpt>
      <trkpt lat="42.85198" lon="-0.48995">
        <ele>2041.016113</ele>
        <time>2011-08-30T13:44:13Z</time>
      </trkpt>
      <trkpt lat="42.85195" lon="-0.4899">
        <ele>2040.054932</ele>
        <time>2011-08-30T13:44:26Z</time>
      </trkpt>
      <trkpt lat="42.85192" lon="-0.48995">
        <ele>2038.613037</ele>
        <time>2011-08-30T13:44:32Z</time>
      </trkpt>
      <trkpt lat="42.85187" lon="-0.49005">
        <ele>2036.690186</ele>
        <time>2011-08-30T13:44:42Z</time>
      </trkpt>
      <trkpt lat="42.85181" lon="-0.49018">
        <ele>2035.248291</ele>
        <time>2011-08-30T13:44:54Z</time>
      </trkpt>
      <trkpt lat="42.85175" lon="-0.49027">
        <ele>2032.364502</ele>
        <time>2011-08-30T13:45:04Z</time>
      </trkpt>
      <trkpt lat="42.85175" lon="-0.49027">
        <ele>2032.364502</ele>
        <time>2011-08-30T13:45:05Z</time>
      </trkpt>
      <trkpt lat="42.85173" lon="-0.49024">
        <ele>2030.922607</ele>
        <time>2011-08-30T13:45:09Z</time>
      </trkpt>
      <trkpt lat="42.85171" lon="-0.49007">
        <ele>2028.038574</ele>
        <time>2011-08-30T13:45:25Z</time>
      </trkpt>
      <trkpt lat="42.85168" lon="-0.48996">
        <ele>2027.557617</ele>
        <time>2011-08-30T13:45:37Z</time>
      </trkpt>
      <trkpt lat="42.85164" lon="-0.48981">
        <ele>2025.154297</ele>
        <time>2011-08-30T13:45:53Z</time>
      </trkpt>
      <trkpt lat="42.85163" lon="-0.48978">
        <ele>2025.154297</ele>
        <time>2011-08-30T13:46:12Z</time>
      </trkpt>
      <trkpt lat="42.85162" lon="-0.48974">
        <ele>2023.231934</ele>
        <time>2011-08-30T13:46:28Z</time>
      </trkpt>
      <trkpt lat="42.85159" lon="-0.48972">
        <ele>2022.270508</ele>
        <time>2011-08-30T13:46:52Z</time>
      </trkpt>
      <trkpt lat="42.85155" lon="-0.48964">
        <ele>2022.270508</ele>
        <time>2011-08-30T13:47:09Z</time>
      </trkpt>
      <trkpt lat="42.85149" lon="-0.48957">
        <ele>2020.828613</ele>
        <time>2011-08-30T13:47:23Z</time>
      </trkpt>
      <trkpt lat="42.85144" lon="-0.48952">
        <ele>2020.828613</ele>
        <time>2011-08-30T13:47:48Z</time>
      </trkpt>
      <trkpt lat="42.85139" lon="-0.48944">
        <ele>2017.94458</ele>
        <time>2011-08-30T13:47:56Z</time>
      </trkpt>
      <trkpt lat="42.85125" lon="-0.48934">
        <ele>2014.580078</ele>
        <time>2011-08-30T13:48:13Z</time>
      </trkpt>
      <trkpt lat="42.85111" lon="-0.48917">
        <ele>2013.138184</ele>
        <time>2011-08-30T13:48:32Z</time>
      </trkpt>
      <trkpt lat="42.85099" lon="-0.48911">
        <ele>2011.215332</ele>
        <time>2011-08-30T13:49:34Z</time>
      </trkpt>
      <trkpt lat="42.85092" lon="-0.48904">
        <ele>2010.253906</ele>
        <time>2011-08-30T13:49:49Z</time>
      </trkpt>
      <trkpt lat="42.85084" lon="-0.48904">
        <ele>2008.812012</ele>
        <time>2011-08-30T13:50:02Z</time>
      </trkpt>
      <trkpt lat="42.8508" lon="-0.4891">
        <ele>2008.331299</ele>
        <time>2011-08-30T13:50:10Z</time>
      </trkpt>
      <trkpt lat="42.85075" lon="-0.48929">
        <ele>2005.927979</ele>
        <time>2011-08-30T13:50:29Z</time>
      </trkpt>
      <trkpt lat="42.85067" lon="-0.48917">
        <ele>2002.563477</ele>
        <time>2011-08-30T13:50:48Z</time>
      </trkpt>
      <trkpt lat="42.85062" lon="-0.48904">
        <ele>2000.640869</ele>
        <time>2011-08-30T13:51:02Z</time>
      </trkpt>
      <trkpt lat="42.85058" lon="-0.48891">
        <ele>1998.718262</ele>
        <time>2011-08-30T13:51:16Z</time>
      </trkpt>
      <trkpt lat="42.85054" lon="-0.48875">
        <ele>1996.795654</ele>
        <time>2011-08-30T13:51:31Z</time>
      </trkpt>
      <trkpt lat="42.85053" lon="-0.48868">
        <ele>1994.872803</ele>
        <time>2011-08-30T13:51:39Z</time>
      </trkpt>
      <trkpt lat="42.85052" lon="-0.48858">
        <ele>1992.469727</ele>
        <time>2011-08-30T13:51:50Z</time>
      </trkpt>
      <trkpt lat="42.85049" lon="-0.48844">
        <ele>1991.508301</ele>
        <time>2011-08-30T13:52:03Z</time>
      </trkpt>
      <trkpt lat="42.85045" lon="-0.48832">
        <ele>1990.066406</ele>
        <time>2011-08-30T13:52:17Z</time>
      </trkpt>
      <trkpt lat="42.85044" lon="-0.48828">
        <ele>1990.066406</ele>
        <time>2011-08-30T13:52:21Z</time>
      </trkpt>
      <trkpt lat="42.85042" lon="-0.48809">
        <ele>1988.143799</ele>
        <time>2011-08-30T13:52:38Z</time>
      </trkpt>
      <trkpt lat="42.8504" lon="-0.48798">
        <ele>1985.259766</ele>
        <time>2011-08-30T13:52:52Z</time>
      </trkpt>
      <trkpt lat="42.85033" lon="-0.48786">
        <ele>1981.895264</ele>
        <time>2011-08-30T13:53:10Z</time>
      </trkpt>
      <trkpt lat="42.85027" lon="-0.48779">
        <ele>1979.010986</ele>
        <time>2011-08-30T13:53:20Z</time>
      </trkpt>
      <trkpt lat="42.85027" lon="-0.48779">
        <ele>1979.491699</ele>
        <time>2011-08-30T13:53:21Z</time>
      </trkpt>
      <trkpt lat="42.85019" lon="-0.48768">
        <ele>1976.60791</ele>
        <time>2011-08-30T13:53:36Z</time>
      </trkpt>
      <trkpt lat="42.85013" lon="-0.48761">
        <ele>1973.723877</ele>
        <time>2011-08-30T13:53:45Z</time>
      </trkpt>
      <trkpt lat="42.85007" lon="-0.48753">
        <ele>1971.320557</ele>
        <time>2011-08-30T13:53:54Z</time>
      </trkpt>
      <trkpt lat="42.85004" lon="-0.48744">
        <ele>1970.840088</ele>
        <time>2011-08-30T13:54:03Z</time>
      </trkpt>
      <trkpt lat="42.84999" lon="-0.4873">
        <ele>1967.956055</ele>
        <time>2011-08-30T13:54:19Z</time>
      </trkpt>
      <trkpt lat="42.84999" lon="-0.4873">
        <ele>1967.956055</ele>
        <time>2011-08-30T13:54:20Z</time>
      </trkpt>
      <trkpt lat="42.84997" lon="-0.48727">
        <ele>1968.436768</ele>
        <time>2011-08-30T13:54:25Z</time>
      </trkpt>
      <trkpt lat="42.84996" lon="-0.48706">
        <ele>1966.994873</ele>
        <time>2011-08-30T13:54:43Z</time>
      </trkpt>
      <trkpt lat="42.84998" lon="-0.4868">
        <ele>1965.552979</ele>
        <time>2011-08-30T13:55:03Z</time>
      </trkpt>
      <trkpt lat="42.84996" lon="-0.48671">
        <ele>1964.11084</ele>
        <time>2011-08-30T13:55:12Z</time>
      </trkpt>
      <trkpt lat="42.84985" lon="-0.48651">
        <ele>1964.11084</ele>
        <time>2011-08-30T13:55:33Z</time>
      </trkpt>
      <trkpt lat="42.84983" lon="-0.48641">
        <ele>1961.226807</ele>
        <time>2011-08-30T13:55:48Z</time>
      </trkpt>
      <trkpt lat="42.8498" lon="-0.48637">
        <ele>1960.746094</ele>
        <time>2011-08-30T13:56:02Z</time>
      </trkpt>
      <trkpt lat="42.8498" lon="-0.4864">
        <ele>1959.304199</ele>
        <time>2011-08-30T13:56:17Z</time>
      </trkpt>
      <trkpt lat="42.84979" lon="-0.48641">
        <ele>1957.862305</ele>
        <time>2011-08-30T14:00:12Z</time>
      </trkpt>
      <trkpt lat="42.84982" lon="-0.48639">
        <ele>1957.381592</ele>
        <time>2011-08-30T14:01:19Z</time>
      </trkpt>
      <trkpt lat="42.84981" lon="-0.48639">
        <ele>1958.342773</ele>
        <time>2011-08-30T14:02:11Z</time>
      </trkpt>
      <trkpt lat="42.84981" lon="-0.48639">
        <ele>1960.265381</ele>
        <time>2011-08-30T14:03:33Z</time>
      </trkpt>
      <trkpt lat="42.8498" lon="-0.48639">
        <ele>1959.304199</ele>
        <time>2011-08-30T14:04:51Z</time>
      </trkpt>
      <trkpt lat="42.84981" lon="-0.48637">
        <ele>1955.939453</ele>
        <time>2011-08-30T14:10:13Z</time>
      </trkpt>
      <trkpt lat="42.84981" lon="-0.48637">
        <ele>1956.900879</ele>
        <time>2011-08-30T14:11:28Z</time>
      </trkpt>
      <trkpt lat="42.84981" lon="-0.48638">
        <ele>1957.381592</ele>
        <time>2011-08-30T14:12:16Z</time>
      </trkpt>
      <trkpt lat="42.84987" lon="-0.48638">
        <ele>1958.823486</ele>
        <time>2011-08-30T14:13:03Z</time>
      </trkpt>
      <trkpt lat="42.84997" lon="-0.48635">
        <ele>1956.900879</ele>
        <time>2011-08-30T14:13:17Z</time>
      </trkpt>
      <trkpt lat="42.85002" lon="-0.4863">
        <ele>1955.939453</ele>
        <time>2011-08-30T14:13:24Z</time>
      </trkpt>
      <trkpt lat="42.85014" lon="-0.48624">
        <ele>1958.823486</ele>
        <time>2011-08-30T14:13:39Z</time>
      </trkpt>
      <trkpt lat="42.85016" lon="-0.48624">
        <ele>1957.381592</ele>
        <time>2011-08-30T14:13:42Z</time>
      </trkpt>
      <trkpt lat="42.85019" lon="-0.48623">
        <ele>1955.939453</ele>
        <time>2011-08-30T14:13:47Z</time>
      </trkpt>
      <trkpt lat="42.85031" lon="-0.48618">
        <ele>1954.497559</ele>
        <time>2011-08-30T14:14:05Z</time>
      </trkpt>
      <trkpt lat="42.85045" lon="-0.48606">
        <ele>1951.133057</ele>
        <time>2011-08-30T14:14:21Z</time>
      </trkpt>
      <trkpt lat="42.85049" lon="-0.48591">
        <ele>1951.133057</ele>
        <time>2011-08-30T14:14:37Z</time>
      </trkpt>
      <trkpt lat="42.85056" lon="-0.48579">
        <ele>1947.768311</ele>
        <time>2011-08-30T14:14:55Z</time>
      </trkpt>
      <trkpt lat="42.8506" lon="-0.48571">
        <ele>1946.326416</ele>
        <time>2011-08-30T14:15:04Z</time>
      </trkpt>
      <trkpt lat="42.85059" lon="-0.48566">
        <ele>1945.36499</ele>
        <time>2011-08-30T14:15:09Z</time>
      </trkpt>
      <trkpt lat="42.85057" lon="-0.48553">
        <ele>1943.923096</ele>
        <time>2011-08-30T14:15:18Z</time>
      </trkpt>
      <trkpt lat="42.8505" lon="-0.48538">
        <ele>1946.806885</ele>
        <time>2011-08-30T14:15:30Z</time>
      </trkpt>
      <trkpt lat="42.85046" lon="-0.48533">
        <ele>1947.768311</ele>
        <time>2011-08-30T14:15:36Z</time>
      </trkpt>
      <trkpt lat="42.85031" lon="-0.48521">
        <ele>1949.691162</ele>
        <time>2011-08-30T14:15:53Z</time>
      </trkpt>
      <trkpt lat="42.85028" lon="-0.48517">
        <ele>1950.171875</ele>
        <time>2011-08-30T14:15:57Z</time>
      </trkpt>
      <trkpt lat="42.85025" lon="-0.48505">
        <ele>1950.171875</ele>
        <time>2011-08-30T14:16:10Z</time>
      </trkpt>
      <trkpt lat="42.85024" lon="-0.48503">
        <ele>1950.652344</ele>
        <time>2011-08-30T14:16:12Z</time>
      </trkpt>
      <trkpt lat="42.85014" lon="-0.48479">
        <ele>1951.61377</ele>
        <time>2011-08-30T14:16:32Z</time>
      </trkpt>
      <trkpt lat="42.85012" lon="-0.48474">
        <ele>1951.133057</ele>
        <time>2011-08-30T14:16:36Z</time>
      </trkpt>
      <trkpt lat="42.85013" lon="-0.48456">
        <ele>1950.171875</ele>
        <time>2011-08-30T14:16:53Z</time>
      </trkpt>
      <trkpt lat="42.85013" lon="-0.48451">
        <ele>1947.768311</ele>
        <time>2011-08-30T14:16:57Z</time>
      </trkpt>
      <trkpt lat="42.85013" lon="-0.48426">
        <ele>1947.768311</ele>
        <time>2011-08-30T14:17:14Z</time>
      </trkpt>
      <trkpt lat="42.85016" lon="-0.48422">
        <ele>1945.36499</ele>
        <time>2011-08-30T14:17:18Z</time>
      </trkpt>
      <trkpt lat="42.85019" lon="-0.48398">
        <ele>1942.000488</ele>
        <time>2011-08-30T14:17:33Z</time>
      </trkpt>
      <trkpt lat="42.85018" lon="-0.48367">
        <ele>1941.519775</ele>
        <time>2011-08-30T14:17:54Z</time>
      </trkpt>
      <trkpt lat="42.85021" lon="-0.48359">
        <ele>1941.039062</ele>
        <time>2011-08-30T14:18:01Z</time>
      </trkpt>
      <trkpt lat="42.85033" lon="-0.48336">
        <ele>1939.597168</ele>
        <time>2011-08-30T14:18:20Z</time>
      </trkpt>
      <trkpt lat="42.85038" lon="-0.48314">
        <ele>1939.116455</ele>
        <time>2011-08-30T14:18:39Z</time>
      </trkpt>
      <trkpt lat="42.85039" lon="-0.48316">
        <ele>1938.155273</ele>
        <time>2011-08-30T14:20:15Z</time>
      </trkpt>
      <trkpt lat="42.85042" lon="-0.48299">
        <ele>1937.674561</ele>
        <time>2011-08-30T14:20:30Z</time>
      </trkpt>
      <trkpt lat="42.85047" lon="-0.48271">
        <ele>1938.155273</ele>
        <time>2011-08-30T14:20:49Z</time>
      </trkpt>
      <trkpt lat="42.85053" lon="-0.48255">
        <ele>1936.713135</ele>
        <time>2011-08-30T14:21:07Z</time>
      </trkpt>
      <trkpt lat="42.85053" lon="-0.48232">
        <ele>1934.790771</ele>
        <time>2011-08-30T14:21:23Z</time>
      </trkpt>
      <trkpt lat="42.85041" lon="-0.48212">
        <ele>1932.387451</ele>
        <time>2011-08-30T14:21:41Z</time>
      </trkpt>
      <trkpt lat="42.85029" lon="-0.48187">
        <ele>1929.503174</ele>
        <time>2011-08-30T14:22:01Z</time>
      </trkpt>
      <trkpt lat="42.8502" lon="-0.48164">
        <ele>1926.619385</ele>
        <time>2011-08-30T14:22:19Z</time>
      </trkpt>
      <trkpt lat="42.85013" lon="-0.48152">
        <ele>1923.254883</ele>
        <time>2011-08-30T14:22:30Z</time>
      </trkpt>
      <trkpt lat="42.85008" lon="-0.48146">
        <ele>1923.254883</ele>
        <time>2011-08-30T14:22:37Z</time>
      </trkpt>
      <trkpt lat="42.85005" lon="-0.48135">
        <ele>1921.812744</ele>
        <time>2011-08-30T14:22:47Z</time>
      </trkpt>
      <trkpt lat="42.85004" lon="-0.48126">
        <ele>1920.851562</ele>
        <time>2011-08-30T14:22:55Z</time>
      </trkpt>
      <trkpt lat="42.85004" lon="-0.48109">
        <ele>1917.486816</ele>
        <time>2011-08-30T14:23:11Z</time>
      </trkpt>
      <trkpt lat="42.85005" lon="-0.48104">
        <ele>1915.564209</ele>
        <time>2011-08-30T14:23:24Z</time>
      </trkpt>
      <trkpt lat="42.85007" lon="-0.48101">
        <ele>1915.564209</ele>
        <time>2011-08-30T14:23:41Z</time>
      </trkpt>
      <trkpt lat="42.85014" lon="-0.48101">
        <ele>1913.160889</ele>
        <time>2011-08-30T14:23:55Z</time>
      </trkpt>
      <trkpt lat="42.85012" lon="-0.48096">
        <ele>1911.238281</ele>
        <time>2011-08-30T14:24:09Z</time>
      </trkpt>
      <trkpt lat="42.85016" lon="-0.4809">
        <ele>1909.315674</ele>
        <time>2011-08-30T14:24:22Z</time>
      </trkpt>
      <trkpt lat="42.85015" lon="-0.48086">
        <ele>1906.912354</ele>
        <time>2011-08-30T14:24:37Z</time>
      </trkpt>
      <trkpt lat="42.85016" lon="-0.48073">
        <ele>1904.509033</ele>
        <time>2011-08-30T14:24:54Z</time>
      </trkpt>
      <trkpt lat="42.85022" lon="-0.48057">
        <ele>1902.586426</ele>
        <time>2011-08-30T14:25:10Z</time>
      </trkpt>
      <trkpt lat="42.85017" lon="-0.48058">
        <ele>1903.067139</ele>
        <time>2011-08-30T14:25:35Z</time>
      </trkpt>
      <trkpt lat="42.85015" lon="-0.4805">
        <ele>1900.663818</ele>
        <time>2011-08-30T14:25:59Z</time>
      </trkpt>
      <trkpt lat="42.85017" lon="-0.4804">
        <ele>1899.702393</ele>
        <time>2011-08-30T14:26:16Z</time>
      </trkpt>
      <trkpt lat="42.85023" lon="-0.48037">
        <ele>1899.22168</ele>
        <time>2011-08-30T14:26:35Z</time>
      </trkpt>
      <trkpt lat="42.85026" lon="-0.4803">
        <ele>1898.260254</ele>
        <time>2011-08-30T14:26:55Z</time>
      </trkpt>
      <trkpt lat="42.8503" lon="-0.48018">
        <ele>1894.895752</ele>
        <time>2011-08-30T14:27:11Z</time>
      </trkpt>
      <trkpt lat="42.8502" lon="-0.48024">
        <ele>1893.453857</ele>
        <time>2011-08-30T14:27:25Z</time>
      </trkpt>
      <trkpt lat="42.85011" lon="-0.48031">
        <ele>1891.050537</ele>
        <time>2011-08-30T14:27:41Z</time>
      </trkpt>
      <trkpt lat="42.85008" lon="-0.48029">
        <ele>1889.12793</ele>
        <time>2011-08-30T14:27:53Z</time>
      </trkpt>
      <trkpt lat="42.8501" lon="-0.48017">
        <ele>1886.724609</ele>
        <time>2011-08-30T14:28:09Z</time>
      </trkpt>
      <trkpt lat="42.85008" lon="-0.48009">
        <ele>1883.840576</ele>
        <time>2011-08-30T14:28:21Z</time>
      </trkpt>
      <trkpt lat="42.85007" lon="-0.47995">
        <ele>1880.956787</ele>
        <time>2011-08-30T14:28:39Z</time>
      </trkpt>
      <trkpt lat="42.85005" lon="-0.47996">
        <ele>1878.072754</ele>
        <time>2011-08-30T14:28:45Z</time>
      </trkpt>
      <trkpt lat="42.85002" lon="-0.47984">
        <ele>1876.630859</ele>
        <time>2011-08-30T14:29:01Z</time>
      </trkpt>
      <trkpt lat="42.85006" lon="-0.47969">
        <ele>1874.227539</ele>
        <time>2011-08-30T14:29:21Z</time>
      </trkpt>
      <trkpt lat="42.85009" lon="-0.47957">
        <ele>1871.824219</ele>
        <time>2011-08-30T14:29:39Z</time>
      </trkpt>
      <trkpt lat="42.85011" lon="-0.47948">
        <ele>1870.382324</ele>
        <time>2011-08-30T14:29:47Z</time>
      </trkpt>
      <trkpt lat="42.85013" lon="-0.47941">
        <ele>1869.901611</ele>
        <time>2011-08-30T14:29:53Z</time>
      </trkpt>
      <trkpt lat="42.85004" lon="-0.47916">
        <ele>1866.536865</ele>
        <time>2011-08-30T14:30:14Z</time>
      </trkpt>
      <trkpt lat="42.8499" lon="-0.47901">
        <ele>1867.017578</ele>
        <time>2011-08-30T14:30:32Z</time>
      </trkpt>
      <trkpt lat="42.84974" lon="-0.47888">
        <ele>1866.056152</ele>
        <time>2011-08-30T14:30:51Z</time>
      </trkpt>
      <trkpt lat="42.84971" lon="-0.47886">
        <ele>1866.056152</ele>
        <time>2011-08-30T14:31:21Z</time>
      </trkpt>
      <trkpt lat="42.84959" lon="-0.47867">
        <ele>1865.575684</ele>
        <time>2011-08-30T14:31:42Z</time>
      </trkpt>
      <trkpt lat="42.84949" lon="-0.47851">
        <ele>1864.614258</ele>
        <time>2011-08-30T14:31:59Z</time>
      </trkpt>
      <trkpt lat="42.84937" lon="-0.4783">
        <ele>1864.133545</ele>
        <time>2011-08-30T14:32:18Z</time>
      </trkpt>
      <trkpt lat="42.84924" lon="-0.47808">
        <ele>1864.133545</ele>
        <time>2011-08-30T14:32:38Z</time>
      </trkpt>
      <trkpt lat="42.84911" lon="-0.47787">
        <ele>1865.094971</ele>
        <time>2011-08-30T14:32:57Z</time>
      </trkpt>
      <trkpt lat="42.84905" lon="-0.47778">
        <ele>1865.094971</ele>
        <time>2011-08-30T14:33:13Z</time>
      </trkpt>
      <trkpt lat="42.84897" lon="-0.47756">
        <ele>1865.575684</ele>
        <time>2011-08-30T14:33:31Z</time>
      </trkpt>
      <trkpt lat="42.84894" lon="-0.47739">
        <ele>1864.614258</ele>
        <time>2011-08-30T14:33:44Z</time>
      </trkpt>
      <trkpt lat="42.84898" lon="-0.47707">
        <ele>1862.69165</ele>
        <time>2011-08-30T14:34:06Z</time>
      </trkpt>
      <trkpt lat="42.84902" lon="-0.47679">
        <ele>1862.210938</ele>
        <time>2011-08-30T14:34:27Z</time>
      </trkpt>
      <trkpt lat="42.84901" lon="-0.47673">
        <ele>1860.769043</ele>
        <time>2011-08-30T14:34:34Z</time>
      </trkpt>
      <trkpt lat="42.84909" lon="-0.47655">
        <ele>1857.885254</ele>
        <time>2011-08-30T14:34:52Z</time>
      </trkpt>
      <trkpt lat="42.8491" lon="-0.47652">
        <ele>1856.443115</ele>
        <time>2011-08-30T14:34:55Z</time>
      </trkpt>
      <trkpt lat="42.84915" lon="-0.47641">
        <ele>1854.520508</ele>
        <time>2011-08-30T14:35:06Z</time>
      </trkpt>
      <trkpt lat="42.84926" lon="-0.47629">
        <ele>1851.155762</ele>
        <time>2011-08-30T14:35:22Z</time>
      </trkpt>
      <trkpt lat="42.84928" lon="-0.47628">
        <ele>1850.19458</ele>
        <time>2011-08-30T14:35:24Z</time>
      </trkpt>
      <trkpt lat="42.84942" lon="-0.47611">
        <ele>1847.79126</ele>
        <time>2011-08-30T14:35:41Z</time>
      </trkpt>
      <trkpt lat="42.84952" lon="-0.476">
        <ele>1844.907227</ele>
        <time>2011-08-30T14:35:55Z</time>
      </trkpt>
      <trkpt lat="42.84957" lon="-0.4759">
        <ele>1842.50415</ele>
        <time>2011-08-30T14:36:11Z</time>
      </trkpt>
      <trkpt lat="42.84965" lon="-0.4758">
        <ele>1839.620117</ele>
        <time>2011-08-30T14:36:24Z</time>
      </trkpt>
      <trkpt lat="42.8498" lon="-0.47568">
        <ele>1838.658936</ele>
        <time>2011-08-30T14:36:42Z</time>
      </trkpt>
      <trkpt lat="42.84984" lon="-0.4756">
        <ele>1836.736084</ele>
        <time>2011-08-30T14:36:58Z</time>
      </trkpt>
      <trkpt lat="42.84989" lon="-0.47553">
        <ele>1835.293945</ele>
        <time>2011-08-30T14:37:15Z</time>
      </trkpt>
      <trkpt lat="42.84992" lon="-0.47548">
        <ele>1832.410156</ele>
        <time>2011-08-30T14:37:23Z</time>
      </trkpt>
      <trkpt lat="42.85" lon="-0.47538">
        <ele>1830.006836</ele>
        <time>2011-08-30T14:37:38Z</time>
      </trkpt>
      <trkpt lat="42.85004" lon="-0.47527">
        <ele>1828.084229</ele>
        <time>2011-08-30T14:37:52Z</time>
      </trkpt>
      <trkpt lat="42.8501" lon="-0.47517">
        <ele>1824.719727</ele>
        <time>2011-08-30T14:38:03Z</time>
      </trkpt>
      <trkpt lat="42.85018" lon="-0.47509">
        <ele>1823.277832</ele>
        <time>2011-08-30T14:38:16Z</time>
      </trkpt>
      <trkpt lat="42.85019" lon="-0.47503">
        <ele>1822.797119</ele>
        <time>2011-08-30T14:38:20Z</time>
      </trkpt>
      <trkpt lat="42.85027" lon="-0.47484">
        <ele>1823.277832</ele>
        <time>2011-08-30T14:38:37Z</time>
      </trkpt>
      <trkpt lat="42.85026" lon="-0.47464">
        <ele>1819.912842</ele>
        <time>2011-08-30T14:38:54Z</time>
      </trkpt>
      <trkpt lat="42.85026" lon="-0.47463">
        <ele>1819.432373</ele>
        <time>2011-08-30T14:38:55Z</time>
      </trkpt>
      <trkpt lat="42.85033" lon="-0.47442">
        <ele>1818.470947</ele>
        <time>2011-08-30T14:39:13Z</time>
      </trkpt>
      <trkpt lat="42.85037" lon="-0.47427">
        <ele>1817.990234</ele>
        <time>2011-08-30T14:39:26Z</time>
      </trkpt>
      <trkpt lat="42.85037" lon="-0.47426">
        <ele>1817.509521</ele>
        <time>2011-08-30T14:39:27Z</time>
      </trkpt>
      <trkpt lat="42.85045" lon="-0.47404">
        <ele>1815.106445</ele>
        <time>2011-08-30T14:39:47Z</time>
      </trkpt>
      <trkpt lat="42.85054" lon="-0.4739">
        <ele>1812.703125</ele>
        <time>2011-08-30T14:40:03Z</time>
      </trkpt>
      <trkpt lat="42.85066" lon="-0.47369">
        <ele>1810.299805</ele>
        <time>2011-08-30T14:40:23Z</time>
      </trkpt>
      <trkpt lat="42.85069" lon="-0.47363">
        <ele>1808.377197</ele>
        <time>2011-08-30T14:40:35Z</time>
      </trkpt>
      <trkpt lat="42.85069" lon="-0.47362">
        <ele>1808.377197</ele>
        <time>2011-08-30T14:40:36Z</time>
      </trkpt>
      <trkpt lat="42.85078" lon="-0.47348">
        <ele>1805.493408</ele>
        <time>2011-08-30T14:40:51Z</time>
      </trkpt>
      <trkpt lat="42.85078" lon="-0.47348">
        <ele>1805.493408</ele>
        <time>2011-08-30T14:40:52Z</time>
      </trkpt>
      <trkpt lat="42.85093" lon="-0.47333">
        <ele>1803.570557</ele>
        <time>2011-08-30T14:41:13Z</time>
      </trkpt>
      <trkpt lat="42.85103" lon="-0.47327">
        <ele>1800.206055</ele>
        <time>2011-08-30T14:41:26Z</time>
      </trkpt>
      <trkpt lat="42.85109" lon="-0.47321">
        <ele>1797.802734</ele>
        <time>2011-08-30T14:41:35Z</time>
      </trkpt>
      <trkpt lat="42.85119" lon="-0.47316">
        <ele>1797.322021</ele>
        <time>2011-08-30T14:41:45Z</time>
      </trkpt>
      <trkpt lat="42.85127" lon="-0.47313">
        <ele>1797.322021</ele>
        <time>2011-08-30T14:41:54Z</time>
      </trkpt>
      <trkpt lat="42.85142" lon="-0.47298">
        <ele>1793.95752</ele>
        <time>2011-08-30T14:42:14Z</time>
      </trkpt>
      <trkpt lat="42.85158" lon="-0.47298">
        <ele>1792.034912</ele>
        <time>2011-08-30T14:42:31Z</time>
      </trkpt>
      <trkpt lat="42.85177" lon="-0.47298">
        <ele>1789.150879</ele>
        <time>2011-08-30T14:42:50Z</time>
      </trkpt>
      <trkpt lat="42.85192" lon="-0.47306">
        <ele>1787.228027</ele>
        <time>2011-08-30T14:43:06Z</time>
      </trkpt>
      <trkpt lat="42.85207" lon="-0.47313">
        <ele>1785.30542</ele>
        <time>2011-08-30T14:43:25Z</time>
      </trkpt>
      <trkpt lat="42.85216" lon="-0.47311">
        <ele>1784.824951</ele>
        <time>2011-08-30T14:43:36Z</time>
      </trkpt>
      <trkpt lat="42.85229" lon="-0.47313">
        <ele>1783.382812</ele>
        <time>2011-08-30T14:43:55Z</time>
      </trkpt>
      <trkpt lat="42.85234" lon="-0.47308">
        <ele>1781.940918</ele>
        <time>2011-08-30T14:44:04Z</time>
      </trkpt>
      <trkpt lat="42.85246" lon="-0.473">
        <ele>1780.018311</ele>
        <time>2011-08-30T14:44:18Z</time>
      </trkpt>
      <trkpt lat="42.85254" lon="-0.47293">
        <ele>1777.61499</ele>
        <time>2011-08-30T14:44:31Z</time>
      </trkpt>
      <trkpt lat="42.85265" lon="-0.4728">
        <ele>1775.692383</ele>
        <time>2011-08-30T14:44:49Z</time>
      </trkpt>
      <trkpt lat="42.85271" lon="-0.47275">
        <ele>1774.731201</ele>
        <time>2011-08-30T14:44:58Z</time>
      </trkpt>
      <trkpt lat="42.85278" lon="-0.47259">
        <ele>1773.289307</ele>
        <time>2011-08-30T14:45:13Z</time>
      </trkpt>
      <trkpt lat="42.85284" lon="-0.47254">
        <ele>1771.366211</ele>
        <time>2011-08-30T14:45:27Z</time>
      </trkpt>
      <trkpt lat="42.85289" lon="-0.47247">
        <ele>1770.405029</ele>
        <time>2011-08-30T14:45:44Z</time>
      </trkpt>
      <trkpt lat="42.85299" lon="-0.47232">
        <ele>1768.963135</ele>
        <time>2011-08-30T14:46:00Z</time>
      </trkpt>
      <trkpt lat="42.85301" lon="-0.47225">
        <ele>1767.040527</ele>
        <time>2011-08-30T14:46:07Z</time>
      </trkpt>
      <trkpt lat="42.85307" lon="-0.47217">
        <ele>1765.11792</ele>
        <time>2011-08-30T14:46:21Z</time>
      </trkpt>
      <trkpt lat="42.85314" lon="-0.47211">
        <ele>1763.195312</ele>
        <time>2011-08-30T14:46:35Z</time>
      </trkpt>
      <trkpt lat="42.85315" lon="-0.47208">
        <ele>1761.753418</ele>
        <time>2011-08-30T14:46:39Z</time>
      </trkpt>
      <trkpt lat="42.85318" lon="-0.47198">
        <ele>1760.311279</ele>
        <time>2011-08-30T14:46:51Z</time>
      </trkpt>
      <trkpt lat="42.85327" lon="-0.47181">
        <ele>1758.388672</ele>
        <time>2011-08-30T14:47:07Z</time>
      </trkpt>
      <trkpt lat="42.85334" lon="-0.47157">
        <ele>1755.985107</ele>
        <time>2011-08-30T14:47:24Z</time>
      </trkpt>
      <trkpt lat="42.85339" lon="-0.47147">
        <ele>1754.062744</ele>
        <time>2011-08-30T14:47:32Z</time>
      </trkpt>
      <trkpt lat="42.85345" lon="-0.47123">
        <ele>1752.620605</ele>
        <time>2011-08-30T14:47:50Z</time>
      </trkpt>
      <trkpt lat="42.85353" lon="-0.47117">
        <ele>1752.139893</ele>
        <time>2011-08-30T14:48:02Z</time>
      </trkpt>
      <trkpt lat="42.85365" lon="-0.47108">
        <ele>1752.620605</ele>
        <time>2011-08-30T14:48:15Z</time>
      </trkpt>
      <trkpt lat="42.8537" lon="-0.47085">
        <ele>1752.139893</ele>
        <time>2011-08-30T14:48:31Z</time>
      </trkpt>
      <trkpt lat="42.85382" lon="-0.47069">
        <ele>1750.217529</ele>
        <time>2011-08-30T14:48:47Z</time>
      </trkpt>
      <trkpt lat="42.85386" lon="-0.47059">
        <ele>1746.372314</ele>
        <time>2011-08-30T14:48:59Z</time>
      </trkpt>
      <trkpt lat="42.85397" lon="-0.47046">
        <ele>1743.488281</ele>
        <time>2011-08-30T14:49:14Z</time>
      </trkpt>
      <trkpt lat="42.85403" lon="-0.47037">
        <ele>1742.046387</ele>
        <time>2011-08-30T14:49:22Z</time>
      </trkpt>
      <trkpt lat="42.85414" lon="-0.47021">
        <ele>1741.565674</ele>
        <time>2011-08-30T14:49:40Z</time>
      </trkpt>
      <trkpt lat="42.85427" lon="-0.47012">
        <ele>1738.681641</ele>
        <time>2011-08-30T14:49:56Z</time>
      </trkpt>
      <trkpt lat="42.85426" lon="-0.46996">
        <ele>1736.758789</ele>
        <time>2011-08-30T14:50:11Z</time>
      </trkpt>
      <trkpt lat="42.85428" lon="-0.46984">
        <ele>1735.316895</ele>
        <time>2011-08-30T14:50:22Z</time>
      </trkpt>
      <trkpt lat="42.85429" lon="-0.46972">
        <ele>1731.952393</ele>
        <time>2011-08-30T14:50:34Z</time>
      </trkpt>
      <trkpt lat="42.85429" lon="-0.4696">
        <ele>1729.549072</ele>
        <time>2011-08-30T14:50:51Z</time>
      </trkpt>
      <trkpt lat="42.85429" lon="-0.46959">
        <ele>1729.549072</ele>
        <time>2011-08-30T14:50:52Z</time>
      </trkpt>
      <trkpt lat="42.8543" lon="-0.46953">
        <ele>1727.626465</ele>
        <time>2011-08-30T14:50:57Z</time>
      </trkpt>
      <trkpt lat="42.85431" lon="-0.46949">
        <ele>1726.18457</ele>
        <time>2011-08-30T14:51:01Z</time>
      </trkpt>
      <trkpt lat="42.85433" lon="-0.46932">
        <ele>1722.819824</ele>
        <time>2011-08-30T14:51:20Z</time>
      </trkpt>
      <trkpt lat="42.85433" lon="-0.46931">
        <ele>1722.819824</ele>
        <time>2011-08-30T14:51:21Z</time>
      </trkpt>
      <trkpt lat="42.85428" lon="-0.46914">
        <ele>1719.935791</ele>
        <time>2011-08-30T14:51:36Z</time>
      </trkpt>
      <trkpt lat="42.85427" lon="-0.4691">
        <ele>1719.935791</ele>
        <time>2011-08-30T14:51:39Z</time>
      </trkpt>
      <trkpt lat="42.85422" lon="-0.4688">
        <ele>1718.493896</ele>
        <time>2011-08-30T14:51:59Z</time>
      </trkpt>
      <trkpt lat="42.85418" lon="-0.46868">
        <ele>1718.013184</ele>
        <time>2011-08-30T14:52:17Z</time>
      </trkpt>
      <trkpt lat="42.85416" lon="-0.46859">
        <ele>1717.532471</ele>
        <time>2011-08-30T14:52:36Z</time>
      </trkpt>
      <trkpt lat="42.85412" lon="-0.46845">
        <ele>1717.532471</ele>
        <time>2011-08-30T14:52:50Z</time>
      </trkpt>
      <trkpt lat="42.8541" lon="-0.46831">
        <ele>1717.052002</ele>
        <time>2011-08-30T14:53:05Z</time>
      </trkpt>
      <trkpt lat="42.85406" lon="-0.46815">
        <ele>1717.052002</ele>
        <time>2011-08-30T14:53:18Z</time>
      </trkpt>
      <trkpt lat="42.85403" lon="-0.46809">
        <ele>1717.052002</ele>
        <time>2011-08-30T14:53:23Z</time>
      </trkpt>
      <trkpt lat="42.854" lon="-0.46796">
        <ele>1715.610107</ele>
        <time>2011-08-30T14:53:38Z</time>
      </trkpt>
      <trkpt lat="42.85401" lon="-0.46795">
        <ele>1715.129395</ele>
        <time>2011-08-30T14:53:58Z</time>
      </trkpt>
      <trkpt lat="42.85398" lon="-0.46788">
        <ele>1714.648682</ele>
        <time>2011-08-30T14:55:22Z</time>
      </trkpt>
      <trkpt lat="42.85409" lon="-0.4679">
        <ele>1715.129395</ele>
        <time>2011-08-30T14:56:25Z</time>
      </trkpt>
      <trkpt lat="42.85398" lon="-0.4679">
        <ele>1714.167969</ele>
        <time>2011-08-30T14:57:26Z</time>
      </trkpt>
      <trkpt lat="42.85396" lon="-0.46781">
        <ele>1711.764893</ele>
        <time>2011-08-30T14:57:39Z</time>
      </trkpt>
      <trkpt lat="42.85394" lon="-0.4677">
        <ele>1708.880859</ele>
        <time>2011-08-30T14:57:51Z</time>
      </trkpt>
      <trkpt lat="42.85392" lon="-0.46752">
        <ele>1706.958008</ele>
        <time>2011-08-30T14:58:06Z</time>
      </trkpt>
      <trkpt lat="42.85386" lon="-0.46738">
        <ele>1705.996582</ele>
        <time>2011-08-30T14:58:20Z</time>
      </trkpt>
      <trkpt lat="42.85377" lon="-0.46742">
        <ele>1703.593506</ele>
        <time>2011-08-30T14:58:34Z</time>
      </trkpt>
      <trkpt lat="42.85371" lon="-0.46748">
        <ele>1702.151367</ele>
        <time>2011-08-30T14:58:52Z</time>
      </trkpt>
      <trkpt lat="42.85369" lon="-0.46751">
        <ele>1700.709473</ele>
        <time>2011-08-30T14:58:56Z</time>
      </trkpt>
      <trkpt lat="42.85361" lon="-0.46747">
        <ele>1696.864258</ele>
        <time>2011-08-30T14:59:11Z</time>
      </trkpt>
      <trkpt lat="42.85359" lon="-0.46733">
        <ele>1695.422363</ele>
        <time>2011-08-30T14:59:26Z</time>
      </trkpt>
      <trkpt lat="42.8535" lon="-0.46724">
        <ele>1691.576904</ele>
        <time>2011-08-30T14:59:40Z</time>
      </trkpt>
      <trkpt lat="42.85349" lon="-0.46724">
        <ele>1692.057861</ele>
        <time>2011-08-30T14:59:41Z</time>
      </trkpt>
      <trkpt lat="42.85345" lon="-0.46725">
        <ele>1690.615479</ele>
        <time>2011-08-30T14:59:46Z</time>
      </trkpt>
      <trkpt lat="42.8534" lon="-0.46718">
        <ele>1690.13501</ele>
        <time>2011-08-30T14:59:57Z</time>
      </trkpt>
      <trkpt lat="42.8534" lon="-0.46712">
        <ele>1686.770264</ele>
        <time>2011-08-30T15:00:05Z</time>
      </trkpt>
      <trkpt lat="42.85338" lon="-0.46694">
        <ele>1685.328369</ele>
        <time>2011-08-30T15:00:20Z</time>
      </trkpt>
      <trkpt lat="42.85336" lon="-0.46678">
        <ele>1682.44458</ele>
        <time>2011-08-30T15:00:33Z</time>
      </trkpt>
      <trkpt lat="42.85327" lon="-0.46677">
        <ele>1679.560547</ele>
        <time>2011-08-30T15:00:46Z</time>
      </trkpt>
      <trkpt lat="42.85321" lon="-0.46678">
        <ele>1677.157471</ele>
        <time>2011-08-30T15:00:58Z</time>
      </trkpt>
      <trkpt lat="42.85322" lon="-0.46666">
        <ele>1673.79248</ele>
        <time>2011-08-30T15:01:10Z</time>
      </trkpt>
      <trkpt lat="42.85322" lon="-0.46652">
        <ele>1672.350586</ele>
        <time>2011-08-30T15:01:22Z</time>
      </trkpt>
      <trkpt lat="42.85321" lon="-0.46638">
        <ele>1671.869873</ele>
        <time>2011-08-30T15:01:36Z</time>
      </trkpt>
      <trkpt lat="42.85321" lon="-0.46633">
        <ele>1671.38916</ele>
        <time>2011-08-30T15:01:43Z</time>
      </trkpt>
      <trkpt lat="42.8532" lon="-0.46622">
        <ele>1668.024658</ele>
        <time>2011-08-30T15:01:56Z</time>
      </trkpt>
      <trkpt lat="42.85322" lon="-0.46604">
        <ele>1664.660156</ele>
        <time>2011-08-30T15:02:09Z</time>
      </trkpt>
      <trkpt lat="42.85321" lon="-0.46582">
        <ele>1662.737549</ele>
        <time>2011-08-30T15:02:25Z</time>
      </trkpt>
      <trkpt lat="42.85324" lon="-0.46566">
        <ele>1661.776367</ele>
        <time>2011-08-30T15:02:38Z</time>
      </trkpt>
      <trkpt lat="42.85326" lon="-0.46553">
        <ele>1658.89209</ele>
        <time>2011-08-30T15:02:52Z</time>
      </trkpt>
      <trkpt lat="42.85327" lon="-0.46537">
        <ele>1657.450195</ele>
        <time>2011-08-30T15:03:06Z</time>
      </trkpt>
      <trkpt lat="42.85333" lon="-0.46527">
        <ele>1655.046875</ele>
        <time>2011-08-30T15:03:18Z</time>
      </trkpt>
      <trkpt lat="42.85336" lon="-0.46511">
        <ele>1653.60498</ele>
        <time>2011-08-30T15:03:29Z</time>
      </trkpt>
      <trkpt lat="42.85339" lon="-0.46494">
        <ele>1650.720947</ele>
        <time>2011-08-30T15:03:41Z</time>
      </trkpt>
      <trkpt lat="42.85343" lon="-0.46481">
        <ele>1648.317627</ele>
        <time>2011-08-30T15:03:53Z</time>
      </trkpt>
      <trkpt lat="42.85344" lon="-0.46463">
        <ele>1644.953125</ele>
        <time>2011-08-30T15:04:09Z</time>
      </trkpt>
      <trkpt lat="42.85349" lon="-0.46444">
        <ele>1643.030273</ele>
        <time>2011-08-30T15:04:24Z</time>
      </trkpt>
      <trkpt lat="42.85351" lon="-0.46432">
        <ele>1641.107666</ele>
        <time>2011-08-30T15:04:35Z</time>
      </trkpt>
      <trkpt lat="42.85349" lon="-0.46408">
        <ele>1638.70459</ele>
        <time>2011-08-30T15:04:51Z</time>
      </trkpt>
      <trkpt lat="42.85349" lon="-0.46393">
        <ele>1638.70459</ele>
        <time>2011-08-30T15:05:01Z</time>
      </trkpt>
      <trkpt lat="42.85354" lon="-0.46374">
        <ele>1635.339844</ele>
        <time>2011-08-30T15:05:14Z</time>
      </trkpt>
      <trkpt lat="42.85357" lon="-0.4636">
        <ele>1633.417236</ele>
        <time>2011-08-30T15:05:25Z</time>
      </trkpt>
      <trkpt lat="42.85359" lon="-0.4634">
        <ele>1631.01416</ele>
        <time>2011-08-30T15:05:39Z</time>
      </trkpt>
      <trkpt lat="42.85359" lon="-0.46324">
        <ele>1627.64917</ele>
        <time>2011-08-30T15:05:49Z</time>
      </trkpt>
      <trkpt lat="42.85355" lon="-0.46303">
        <ele>1624.284668</ele>
        <time>2011-08-30T15:06:06Z</time>
      </trkpt>
      <trkpt lat="42.85355" lon="-0.46283">
        <ele>1622.842773</ele>
        <time>2011-08-30T15:06:19Z</time>
      </trkpt>
      <trkpt lat="42.85359" lon="-0.46265">
        <ele>1621.400635</ele>
        <time>2011-08-30T15:06:32Z</time>
      </trkpt>
      <trkpt lat="42.8537" lon="-0.4625">
        <ele>1618.036133</ele>
        <time>2011-08-30T15:06:46Z</time>
      </trkpt>
      <trkpt lat="42.85375" lon="-0.46231">
        <ele>1614.671631</ele>
        <time>2011-08-30T15:07:02Z</time>
      </trkpt>
      <trkpt lat="42.85379" lon="-0.46212">
        <ele>1611.787598</ele>
        <time>2011-08-30T15:07:18Z</time>
      </trkpt>
      <trkpt lat="42.85375" lon="-0.46199">
        <ele>1608.422852</ele>
        <time>2011-08-30T15:07:29Z</time>
      </trkpt>
      <trkpt lat="42.8538" lon="-0.46184">
        <ele>1606.500244</ele>
        <time>2011-08-30T15:07:42Z</time>
      </trkpt>
      <trkpt lat="42.85381" lon="-0.46162">
        <ele>1605.539062</ele>
        <time>2011-08-30T15:07:55Z</time>
      </trkpt>
      <trkpt lat="42.8538" lon="-0.4614">
        <ele>1603.135742</ele>
        <time>2011-08-30T15:08:13Z</time>
      </trkpt>
      <trkpt lat="42.85382" lon="-0.46125">
        <ele>1600.732422</ele>
        <time>2011-08-30T15:08:25Z</time>
      </trkpt>
      <trkpt lat="42.85384" lon="-0.46108">
        <ele>1598.809814</ele>
        <time>2011-08-30T15:08:38Z</time>
      </trkpt>
      <trkpt lat="42.85386" lon="-0.46093">
        <ele>1596.887207</ele>
        <time>2011-08-30T15:08:51Z</time>
      </trkpt>
      <trkpt lat="42.85385" lon="-0.46069">
        <ele>1594.483643</ele>
        <time>2011-08-30T15:09:09Z</time>
      </trkpt>
      <trkpt lat="42.85385" lon="-0.46055">
        <ele>1591.599854</ele>
        <time>2011-08-30T15:09:25Z</time>
      </trkpt>
      <trkpt lat="42.85385" lon="-0.46047">
        <ele>1589.196533</ele>
        <time>2011-08-30T15:09:35Z</time>
      </trkpt>
      <trkpt lat="42.85381" lon="-0.4603">
        <ele>1587.754639</ele>
        <time>2011-08-30T15:09:47Z</time>
      </trkpt>
      <trkpt lat="42.85377" lon="-0.46023">
        <ele>1586.312744</ele>
        <time>2011-08-30T15:09:57Z</time>
      </trkpt>
      <trkpt lat="42.85373" lon="-0.46017">
        <ele>1583.909424</ele>
        <time>2011-08-30T15:10:02Z</time>
      </trkpt>
      <trkpt lat="42.85374" lon="-0.45998">
        <ele>1581.025635</ele>
        <time>2011-08-30T15:10:27Z</time>
      </trkpt>
      <trkpt lat="42.85374" lon="-0.45995">
        <ele>1580.544922</ele>
        <time>2011-08-30T15:10:29Z</time>
      </trkpt>
      <trkpt lat="42.85375" lon="-0.45985">
        <ele>1577.180176</ele>
        <time>2011-08-30T15:10:40Z</time>
      </trkpt>
      <trkpt lat="42.85379" lon="-0.45981">
        <ele>1576.21875</ele>
        <time>2011-08-30T15:10:46Z</time>
      </trkpt>
      <trkpt lat="42.85389" lon="-0.45963">
        <ele>1574.776855</ele>
        <time>2011-08-30T15:11:01Z</time>
      </trkpt>
      <trkpt lat="42.85397" lon="-0.45952">
        <ele>1574.776855</ele>
        <time>2011-08-30T15:11:13Z</time>
      </trkpt>
      <trkpt lat="42.85406" lon="-0.45934">
        <ele>1572.854248</ele>
        <time>2011-08-30T15:11:25Z</time>
      </trkpt>
      <trkpt lat="42.85404" lon="-0.45921">
        <ele>1573.334961</ele>
        <time>2011-08-30T15:11:37Z</time>
      </trkpt>
      <trkpt lat="42.85412" lon="-0.45905">
        <ele>1573.81543</ele>
        <time>2011-08-30T15:11:51Z</time>
      </trkpt>
      <trkpt lat="42.85415" lon="-0.45897">
        <ele>1572.854248</ele>
        <time>2011-08-30T15:11:58Z</time>
      </trkpt>
      <trkpt lat="42.8542" lon="-0.45893">
        <ele>1571.892822</ele>
        <time>2011-08-30T15:12:02Z</time>
      </trkpt>
      <trkpt lat="42.85421" lon="-0.45875">
        <ele>1569.489746</ele>
        <time>2011-08-30T15:12:16Z</time>
      </trkpt>
      <trkpt lat="42.85425" lon="-0.45867">
        <ele>1568.52832</ele>
        <time>2011-08-30T15:12:27Z</time>
      </trkpt>
      <trkpt lat="42.85428" lon="-0.45859">
        <ele>1567.086426</ele>
        <time>2011-08-30T15:12:35Z</time>
      </trkpt>
      <trkpt lat="42.85429" lon="-0.45857">
        <ele>1566.605713</ele>
        <time>2011-08-30T15:12:37Z</time>
      </trkpt>
      <trkpt lat="42.85429" lon="-0.45854">
        <ele>1565.644531</ele>
        <time>2011-08-30T15:12:39Z</time>
      </trkpt>
      <trkpt lat="42.85433" lon="-0.45838">
        <ele>1563.240967</ele>
        <time>2011-08-30T15:12:50Z</time>
      </trkpt>
      <trkpt lat="42.85433" lon="-0.4582">
        <ele>1562.279541</ele>
        <time>2011-08-30T15:13:06Z</time>
      </trkpt>
      <trkpt lat="42.85433" lon="-0.45811">
        <ele>1561.799072</ele>
        <time>2011-08-30T15:13:31Z</time>
      </trkpt>
      <trkpt lat="42.85437" lon="-0.45789">
        <ele>1560.356934</ele>
        <time>2011-08-30T15:13:48Z</time>
      </trkpt>
      <trkpt lat="42.85445" lon="-0.45767">
        <ele>1559.876221</ele>
        <time>2011-08-30T15:14:05Z</time>
      </trkpt>
      <trkpt lat="42.85449" lon="-0.45766">
        <ele>1558.915039</ele>
        <time>2011-08-30T15:14:19Z</time>
      </trkpt>
      <trkpt lat="42.85453" lon="-0.45771">
        <ele>1560.837646</ele>
        <time>2011-08-30T15:14:39Z</time>
      </trkpt>
      <trkpt lat="42.85453" lon="-0.45774">
        <ele>1563.721436</ele>
        <time>2011-08-30T15:14:46Z</time>
      </trkpt>
      <trkpt lat="42.85451" lon="-0.45781">
        <ele>1564.202393</ele>
        <time>2011-08-30T15:14:57Z</time>
      </trkpt>
      <trkpt lat="42.85458" lon="-0.45785">
        <ele>1567.086426</ele>
        <time>2011-08-30T15:15:22Z</time>
      </trkpt>
      <trkpt lat="42.85455" lon="-0.4578">
        <ele>1563.721436</ele>
        <time>2011-08-30T15:15:30Z</time>
      </trkpt>
      <trkpt lat="42.85451" lon="-0.45766">
        <ele>1561.799072</ele>
        <time>2011-08-30T15:15:45Z</time>
      </trkpt>
      <trkpt lat="42.85443" lon="-0.45749">
        <ele>1560.356934</ele>
        <time>2011-08-30T15:16:12Z</time>
      </trkpt>
      <trkpt lat="42.85442" lon="-0.45742">
        <ele>1559.876221</ele>
        <time>2011-08-30T15:16:26Z</time>
      </trkpt>
      <trkpt lat="42.85448" lon="-0.45745">
        <ele>1559.395752</ele>
        <time>2011-08-30T15:16:29Z</time>
      </trkpt>
      <trkpt lat="42.85453" lon="-0.45745">
        <ele>1559.395752</ele>
        <time>2011-08-30T15:16:32Z</time>
      </trkpt>
      <trkpt lat="42.85459" lon="-0.45745">
        <ele>1558.915039</ele>
        <time>2011-08-30T15:16:36Z</time>
      </trkpt>
      <trkpt lat="42.85476" lon="-0.45738">
        <ele>1558.434326</ele>
        <time>2011-08-30T15:16:53Z</time>
      </trkpt>
      <trkpt lat="42.85486" lon="-0.45725">
        <ele>1557.473145</ele>
        <time>2011-08-30T15:17:07Z</time>
      </trkpt>
      <trkpt lat="42.85493" lon="-0.45715">
        <ele>1556.511719</ele>
        <time>2011-08-30T15:17:22Z</time>
      </trkpt>
      <trkpt lat="42.85492" lon="-0.45716">
        <ele>1556.511719</ele>
        <time>2011-08-30T15:17:36Z</time>
      </trkpt>
      <trkpt lat="42.85503" lon="-0.45711">
        <ele>1555.550537</ele>
        <time>2011-08-30T15:17:57Z</time>
      </trkpt>
      <trkpt lat="42.85513" lon="-0.4569">
        <ele>1555.069824</ele>
        <time>2011-08-30T15:18:13Z</time>
      </trkpt>
      <trkpt lat="42.85514" lon="-0.45688">
        <ele>1555.069824</ele>
        <time>2011-08-30T15:18:15Z</time>
      </trkpt>
      <trkpt lat="42.85522" lon="-0.45685">
        <ele>1552.666504</ele>
        <time>2011-08-30T15:18:29Z</time>
      </trkpt>
      <trkpt lat="42.85526" lon="-0.45696">
        <ele>1551.705322</ele>
        <time>2011-08-30T15:19:09Z</time>
      </trkpt>
      <trkpt lat="42.85524" lon="-0.45666">
        <ele>1549.302002</ele>
        <time>2011-08-30T15:19:51Z</time>
      </trkpt>
      <trkpt lat="42.85527" lon="-0.45658">
        <ele>1545.937256</ele>
        <time>2011-08-30T15:20:09Z</time>
      </trkpt>
      <trkpt lat="42.8553" lon="-0.45656">
        <ele>1544.97583</ele>
        <time>2011-08-30T15:20:11Z</time>
      </trkpt>
      <trkpt lat="42.85537" lon="-0.45649">
        <ele>1542.092041</ele>
        <time>2011-08-30T15:20:20Z</time>
      </trkpt>
      <trkpt lat="42.85545" lon="-0.45645">
        <ele>1540.169434</ele>
        <time>2011-08-30T15:20:26Z</time>
      </trkpt>
      <trkpt lat="42.85576" lon="-0.45645">
        <ele>1539.208008</ele>
        <time>2011-08-30T15:20:58Z</time>
      </trkpt>
      <trkpt lat="42.85611" lon="-0.45635">
        <ele>1536.324219</ele>
        <time>2011-08-30T15:21:19Z</time>
      </trkpt>
      <trkpt lat="42.85644" lon="-0.4562">
        <ele>1532.479004</ele>
        <time>2011-08-30T15:21:42Z</time>
      </trkpt>
      <trkpt lat="42.85658" lon="-0.45615">
        <ele>1531.036865</ele>
        <time>2011-08-30T15:21:52Z</time>
      </trkpt>
      <trkpt lat="42.85664" lon="-0.45613">
        <ele>1529.594727</ele>
        <time>2011-08-30T15:21:57Z</time>
      </trkpt>
      <trkpt lat="42.85671" lon="-0.45603">
        <ele>1528.152832</ele>
        <time>2011-08-30T15:22:08Z</time>
      </trkpt>
      <trkpt lat="42.85682" lon="-0.45596">
        <ele>1525.268799</ele>
        <time>2011-08-30T15:22:23Z</time>
      </trkpt>
      <trkpt lat="42.85692" lon="-0.45589">
        <ele>1522.38501</ele>
        <time>2011-08-30T15:22:36Z</time>
      </trkpt>
      <trkpt lat="42.85717" lon="-0.45578">
        <ele>1519.020508</ele>
        <time>2011-08-30T15:22:53Z</time>
      </trkpt>
      <trkpt lat="42.85711" lon="-0.45572">
        <ele>1516.136475</ele>
        <time>2011-08-30T15:23:04Z</time>
      </trkpt>
      <trkpt lat="42.85726" lon="-0.45557">
        <ele>1514.213623</ele>
        <time>2011-08-30T15:23:33Z</time>
      </trkpt>
      <trkpt lat="42.85733" lon="-0.4555">
        <ele>1514.694336</ele>
        <time>2011-08-30T15:23:45Z</time>
      </trkpt>
      <trkpt lat="42.85758" lon="-0.45531">
        <ele>1515.175049</ele>
        <time>2011-08-30T15:24:07Z</time>
      </trkpt>
      <trkpt lat="42.85779" lon="-0.45496">
        <ele>1515.655762</ele>
        <time>2011-08-30T15:24:32Z</time>
      </trkpt>
      <trkpt lat="42.85788" lon="-0.45478">
        <ele>1515.175049</ele>
        <time>2011-08-30T15:24:42Z</time>
      </trkpt>
      <trkpt lat="42.85797" lon="-0.45455">
        <ele>1515.655762</ele>
        <time>2011-08-30T15:24:58Z</time>
      </trkpt>
      <trkpt lat="42.85815" lon="-0.45445">
        <ele>1515.175049</ele>
        <time>2011-08-30T15:25:15Z</time>
      </trkpt>
      <trkpt lat="42.85824" lon="-0.4544">
        <ele>1514.694336</ele>
        <time>2011-08-30T15:25:23Z</time>
      </trkpt>
      <trkpt lat="42.85849" lon="-0.45441">
        <ele>1514.694336</ele>
        <time>2011-08-30T15:25:37Z</time>
      </trkpt>
      <trkpt lat="42.85859" lon="-0.45447">
        <ele>1513.252441</ele>
        <time>2011-08-30T15:25:50Z</time>
      </trkpt>
      <trkpt lat="42.8587" lon="-0.45452">
        <ele>1511.810547</ele>
        <time>2011-08-30T15:26:00Z</time>
      </trkpt>
      <trkpt lat="42.8591" lon="-0.45452">
        <ele>1508.445801</ele>
        <time>2011-08-30T15:26:36Z</time>
      </trkpt>
      <trkpt lat="42.85931" lon="-0.45452">
        <ele>1505.562012</ele>
        <time>2011-08-30T15:26:52Z</time>
      </trkpt>
      <trkpt lat="42.85947" lon="-0.45453">
        <ele>1502.677979</ele>
        <time>2011-08-30T15:27:09Z</time>
      </trkpt>
      <trkpt lat="42.85962" lon="-0.45448">
        <ele>1500.274902</ele>
        <time>2011-08-30T15:27:25Z</time>
      </trkpt>
      <trkpt lat="42.85978" lon="-0.45445">
        <ele>1499.313232</ele>
        <time>2011-08-30T15:27:40Z</time>
      </trkpt>
      <trkpt lat="42.85997" lon="-0.45443">
        <ele>1497.390625</ele>
        <time>2011-08-30T15:27:56Z</time>
      </trkpt>
      <trkpt lat="42.86011" lon="-0.45445">
        <ele>1495.94873</ele>
        <time>2011-08-30T15:28:12Z</time>
      </trkpt>
      <trkpt lat="42.86025" lon="-0.45443">
        <ele>1494.506592</ele>
        <time>2011-08-30T15:28:26Z</time>
      </trkpt>
      <trkpt lat="42.86041" lon="-0.4544">
        <ele>1491.14209</ele>
        <time>2011-08-30T15:28:44Z</time>
      </trkpt>
      <trkpt lat="42.86044" lon="-0.45433">
        <ele>1489.700195</ele>
        <time>2011-08-30T15:28:58Z</time>
      </trkpt>
      <trkpt lat="42.86057" lon="-0.45432">
        <ele>1488.258301</ele>
        <time>2011-08-30T15:29:10Z</time>
      </trkpt>
      <trkpt lat="42.86068" lon="-0.45432">
        <ele>1485.85498</ele>
        <time>2011-08-30T15:29:21Z</time>
      </trkpt>
      <trkpt lat="42.86079" lon="-0.45432">
        <ele>1484.413086</ele>
        <time>2011-08-30T15:29:32Z</time>
      </trkpt>
      <trkpt lat="42.86101" lon="-0.45426">
        <ele>1481.528809</ele>
        <time>2011-08-30T15:29:50Z</time>
      </trkpt>
      <trkpt lat="42.8612" lon="-0.45414">
        <ele>1479.125488</ele>
        <time>2011-08-30T15:30:01Z</time>
      </trkpt>
      <trkpt lat="42.86131" lon="-0.45406">
        <ele>1477.683594</ele>
        <time>2011-08-30T15:30:13Z</time>
      </trkpt>
      <trkpt lat="42.86141" lon="-0.45393">
        <ele>1475.280273</ele>
        <time>2011-08-30T15:30:24Z</time>
      </trkpt>
      <trkpt lat="42.86151" lon="-0.4538">
        <ele>1472.877197</ele>
        <time>2011-08-30T15:30:39Z</time>
      </trkpt>
      <trkpt lat="42.86155" lon="-0.45366">
        <ele>1469.512695</ele>
        <time>2011-08-30T15:30:51Z</time>
      </trkpt>
      <trkpt lat="42.86162" lon="-0.45355">
        <ele>1469.031982</ele>
        <time>2011-08-30T15:31:01Z</time>
      </trkpt>
      <trkpt lat="42.86169" lon="-0.45333">
        <ele>1468.55127</ele>
        <time>2011-08-30T15:31:18Z</time>
      </trkpt>
      <trkpt lat="42.86188" lon="-0.4531">
        <ele>1468.070557</ele>
        <time>2011-08-30T15:31:32Z</time>
      </trkpt>
      <trkpt lat="42.86187" lon="-0.45298">
        <ele>1469.031982</ele>
        <time>2011-08-30T15:31:45Z</time>
      </trkpt>
      <trkpt lat="42.86183" lon="-0.45285">
        <ele>1469.512695</ele>
        <time>2011-08-30T15:31:59Z</time>
      </trkpt>
      <trkpt lat="42.86189" lon="-0.45273">
        <ele>1469.512695</ele>
        <time>2011-08-30T15:32:08Z</time>
      </trkpt>
      <trkpt lat="42.86203" lon="-0.45259">
        <ele>1470.473877</ele>
        <time>2011-08-30T15:32:20Z</time>
      </trkpt>
      <trkpt lat="42.8621" lon="-0.45248">
        <ele>1470.95459</ele>
        <time>2011-08-30T15:32:32Z</time>
      </trkpt>
      <trkpt lat="42.86209" lon="-0.45233">
        <ele>1470.95459</ele>
        <time>2011-08-30T15:32:46Z</time>
      </trkpt>
      <trkpt lat="42.86213" lon="-0.45223">
        <ele>1470.95459</ele>
        <time>2011-08-30T15:32:58Z</time>
      </trkpt>
      <trkpt lat="42.86257" lon="-0.45214">
        <ele>1470.95459</ele>
        <time>2011-08-30T15:33:22Z</time>
      </trkpt>
      <trkpt lat="42.86317" lon="-0.45201">
        <ele>1470.95459</ele>
        <time>2011-08-30T15:33:38Z</time>
      </trkpt>
      <trkpt lat="42.8634" lon="-0.45188">
        <ele>1471.435059</ele>
        <time>2011-08-30T15:33:53Z</time>
      </trkpt>
      <trkpt lat="42.86355" lon="-0.45178">
        <ele>1470.95459</ele>
        <time>2011-08-30T15:34:04Z</time>
      </trkpt>
      <trkpt lat="42.86364" lon="-0.45171">
        <ele>1471.435059</ele>
        <time>2011-08-30T15:34:13Z</time>
      </trkpt>
      <trkpt lat="42.86376" lon="-0.45162">
        <ele>1470.95459</ele>
        <time>2011-08-30T15:34:23Z</time>
      </trkpt>
      <trkpt lat="42.86391" lon="-0.45149">
        <ele>1470.473877</ele>
        <time>2011-08-30T15:34:34Z</time>
      </trkpt>
      <trkpt lat="42.86412" lon="-0.45132">
        <ele>1469.993164</ele>
        <time>2011-08-30T15:34:46Z</time>
      </trkpt>
      <trkpt lat="42.86423" lon="-0.45114">
        <ele>1470.473877</ele>
        <time>2011-08-30T15:34:58Z</time>
      </trkpt>
      <trkpt lat="42.8642" lon="-0.45096">
        <ele>1468.55127</ele>
        <time>2011-08-30T15:35:11Z</time>
      </trkpt>
      <trkpt lat="42.86418" lon="-0.45072">
        <ele>1467.5896</ele>
        <time>2011-08-30T15:35:26Z</time>
      </trkpt>
      <trkpt lat="42.86422" lon="-0.45045">
        <ele>1466.147705</ele>
        <time>2011-08-30T15:35:42Z</time>
      </trkpt>
      <trkpt lat="42.86423" lon="-0.45023">
        <ele>1464.225098</ele>
        <time>2011-08-30T15:35:55Z</time>
      </trkpt>
      <trkpt lat="42.86425" lon="-0.4502">
        <ele>1463.744385</ele>
        <time>2011-08-30T15:35:57Z</time>
      </trkpt>
      <trkpt lat="42.86424" lon="-0.45017">
        <ele>1462.30249</ele>
        <time>2011-08-30T15:35:59Z</time>
      </trkpt>
      <trkpt lat="42.86426" lon="-0.45009">
        <ele>1461.341309</ele>
        <time>2011-08-30T15:36:05Z</time>
      </trkpt>
      <trkpt lat="42.8643" lon="-0.44995">
        <ele>1458.937988</ele>
        <time>2011-08-30T15:36:15Z</time>
      </trkpt>
      <trkpt lat="42.86439" lon="-0.44985">
        <ele>1458.937988</ele>
        <time>2011-08-30T15:36:26Z</time>
      </trkpt>
      <trkpt lat="42.86443" lon="-0.44986">
        <ele>1458.457275</ele>
        <time>2011-08-30T15:36:32Z</time>
      </trkpt>
      <trkpt lat="42.8646" lon="-0.44999">
        <ele>1459.418701</ele>
        <time>2011-08-30T15:36:48Z</time>
      </trkpt>
      <trkpt lat="42.86468" lon="-0.45013">
        <ele>1459.89917</ele>
        <time>2011-08-30T15:36:58Z</time>
      </trkpt>
      <trkpt lat="42.86494" lon="-0.45015">
        <ele>1459.89917</ele>
        <time>2011-08-30T15:37:07Z</time>
      </trkpt>
      <trkpt lat="42.86505" lon="-0.45021">
        <ele>1458.937988</ele>
        <time>2011-08-30T15:37:18Z</time>
      </trkpt>
      <trkpt lat="42.86515" lon="-0.4504">
        <ele>1458.937988</ele>
        <time>2011-08-30T15:37:43Z</time>
      </trkpt>
      <trkpt lat="42.86534" lon="-0.45046">
        <ele>1459.418701</ele>
        <time>2011-08-30T15:37:55Z</time>
      </trkpt>
      <trkpt lat="42.86537" lon="-0.45048">
        <ele>1459.418701</ele>
        <time>2011-08-30T15:38:02Z</time>
      </trkpt>
      <trkpt lat="42.86549" lon="-0.45046">
        <ele>1458.937988</ele>
        <time>2011-08-30T15:38:12Z</time>
      </trkpt>
      <trkpt lat="42.86549" lon="-0.45046">
        <ele>1459.89917</ele>
        <time>2011-08-30T15:38:14Z</time>
      </trkpt>
      <trkpt lat="42.86558" lon="-0.45044">
        <ele>1459.89917</ele>
        <time>2011-08-30T15:38:31Z</time>
      </trkpt>
      <trkpt lat="42.86562" lon="-0.45037">
        <ele>1460.860596</ele>
        <time>2011-08-30T15:38:37Z</time>
      </trkpt>
      <trkpt lat="42.86592" lon="-0.45014">
        <ele>1460.379883</ele>
        <time>2011-08-30T15:38:55Z</time>
      </trkpt>
      <trkpt lat="42.86619" lon="-0.45">
        <ele>1460.379883</ele>
        <time>2011-08-30T15:39:12Z</time>
      </trkpt>
      <trkpt lat="42.86627" lon="-0.44998">
        <ele>1460.379883</ele>
        <time>2011-08-30T15:39:28Z</time>
      </trkpt>
      <trkpt lat="42.86628" lon="-0.44998">
        <ele>1461.341309</ele>
        <time>2011-08-30T15:39:30Z</time>
      </trkpt>
      <trkpt lat="42.86633" lon="-0.44999">
        <ele>1460.860596</ele>
        <time>2011-08-30T15:39:34Z</time>
      </trkpt>
      <trkpt lat="42.86658" lon="-0.45001">
        <ele>1460.860596</ele>
        <time>2011-08-30T15:39:48Z</time>
      </trkpt>
      <trkpt lat="42.86684" lon="-0.45008">
        <ele>1460.860596</ele>
        <time>2011-08-30T15:40:05Z</time>
      </trkpt>
      <trkpt lat="42.86693" lon="-0.45012">
        <ele>1457.015381</ele>
        <time>2011-08-30T15:40:15Z</time>
      </trkpt>
      <trkpt lat="42.86716" lon="-0.45031">
        <ele>1457.496094</ele>
        <time>2011-08-30T15:40:41Z</time>
      </trkpt>
      <trkpt lat="42.86732" lon="-0.45034">
        <ele>1455.092773</ele>
        <time>2011-08-30T15:40:59Z</time>
      </trkpt>
      <trkpt lat="42.86731" lon="-0.45033">
        <ele>1455.092773</ele>
        <time>2011-08-30T15:41:01Z</time>
      </trkpt>
      <trkpt lat="42.86733" lon="-0.45032">
        <ele>1454.612061</ele>
        <time>2011-08-30T15:41:04Z</time>
      </trkpt>
      <trkpt lat="42.86756" lon="-0.45016">
        <ele>1454.612061</ele>
        <time>2011-08-30T15:41:25Z</time>
      </trkpt>
      <trkpt lat="42.86776" lon="-0.44997">
        <ele>1455.573486</ele>
        <time>2011-08-30T15:41:44Z</time>
      </trkpt>
      <trkpt lat="42.8678" lon="-0.44993">
        <ele>1456.534668</ele>
        <time>2011-08-30T15:41:48Z</time>
      </trkpt>
      <trkpt lat="42.86783" lon="-0.44989">
        <ele>1457.015381</ele>
        <time>2011-08-30T15:41:52Z</time>
      </trkpt>
      <trkpt lat="42.86789" lon="-0.4498">
        <ele>1455.573486</ele>
        <time>2011-08-30T15:42:00Z</time>
      </trkpt>
      <trkpt lat="42.86795" lon="-0.44971">
        <ele>1455.573486</ele>
        <time>2011-08-30T15:42:08Z</time>
      </trkpt>
      <trkpt lat="42.86799" lon="-0.44946">
        <ele>1455.092773</ele>
        <time>2011-08-30T15:42:25Z</time>
      </trkpt>
      <trkpt lat="42.86794" lon="-0.4493">
        <ele>1452.689453</ele>
        <time>2011-08-30T15:42:36Z</time>
      </trkpt>
      <trkpt lat="42.86806" lon="-0.44915">
        <ele>1452.689453</ele>
        <time>2011-08-30T15:42:46Z</time>
      </trkpt>
      <trkpt lat="42.86811" lon="-0.44901">
        <ele>1452.689453</ele>
        <time>2011-08-30T15:42:54Z</time>
      </trkpt>
      <trkpt lat="42.86808" lon="-0.44885">
        <ele>1453.170166</ele>
        <time>2011-08-30T15:43:04Z</time>
      </trkpt>
      <trkpt lat="42.86832" lon="-0.44867">
        <ele>1453.650879</ele>
        <time>2011-08-30T15:43:16Z</time>
      </trkpt>
      <trkpt lat="42.86834" lon="-0.44863">
        <ele>1453.650879</ele>
        <time>2011-08-30T15:43:19Z</time>
      </trkpt>
      <trkpt lat="42.86852" lon="-0.44842">
        <ele>1453.650879</ele>
        <time>2011-08-30T15:43:35Z</time>
      </trkpt>
      <trkpt lat="42.8686" lon="-0.4483">
        <ele>1454.131592</ele>
        <time>2011-08-30T15:43:50Z</time>
      </trkpt>
      <trkpt lat="42.86891" lon="-0.44816">
        <ele>1453.170166</ele>
        <time>2011-08-30T15:44:05Z</time>
      </trkpt>
      <trkpt lat="42.86911" lon="-0.44811">
        <ele>1452.689453</ele>
        <time>2011-08-30T15:44:18Z</time>
      </trkpt>
      <trkpt lat="42.86917" lon="-0.44803">
        <ele>1449.80542</ele>
        <time>2011-08-30T15:44:33Z</time>
      </trkpt>
      <trkpt lat="42.86926" lon="-0.44792">
        <ele>1447.4021</ele>
        <time>2011-08-30T15:44:44Z</time>
      </trkpt>
      <trkpt lat="42.86934" lon="-0.44794">
        <ele>1446.440918</ele>
        <time>2011-08-30T15:44:50Z</time>
      </trkpt>
      <trkpt lat="42.86942" lon="-0.44803">
        <ele>1445.479492</ele>
        <time>2011-08-30T15:44:56Z</time>
      </trkpt>
      <trkpt lat="42.86946" lon="-0.44813">
        <ele>1444.518066</ele>
        <time>2011-08-30T15:45:02Z</time>
      </trkpt>
      <trkpt lat="42.86953" lon="-0.44828">
        <ele>1442.595703</ele>
        <time>2011-08-30T15:45:10Z</time>
      </trkpt>
      <trkpt lat="42.86958" lon="-0.44838">
        <ele>1441.634277</ele>
        <time>2011-08-30T15:45:17Z</time>
      </trkpt>
      <trkpt lat="42.8696" lon="-0.44845">
        <ele>1440.672852</ele>
        <time>2011-08-30T15:45:21Z</time>
      </trkpt>
      <trkpt lat="42.86966" lon="-0.44864">
        <ele>1437.789062</ele>
        <time>2011-08-30T15:45:33Z</time>
      </trkpt>
      <trkpt lat="42.86972" lon="-0.44885">
        <ele>1434.905029</ele>
        <time>2011-08-30T15:45:46Z</time>
      </trkpt>
      <trkpt lat="42.86974" lon="-0.44902">
        <ele>1432.982178</ele>
        <time>2011-08-30T15:45:56Z</time>
      </trkpt>
      <trkpt lat="42.86964" lon="-0.44929">
        <ele>1430.098389</ele>
        <time>2011-08-30T15:46:10Z</time>
      </trkpt>
      <trkpt lat="42.86942" lon="-0.44956">
        <ele>1428.175781</ele>
        <time>2011-08-30T15:46:25Z</time>
      </trkpt>
      <trkpt lat="42.86923" lon="-0.44975">
        <ele>1424.330566</ele>
        <time>2011-08-30T15:46:36Z</time>
      </trkpt>
      <trkpt lat="42.86913" lon="-0.45011">
        <ele>1421.446533</ele>
        <time>2011-08-30T15:46:57Z</time>
      </trkpt>
      <trkpt lat="42.86979" lon="-0.45038">
        <ele>1419.523926</ele>
        <time>2011-08-30T15:47:11Z</time>
      </trkpt>
      <trkpt lat="42.86974" lon="-0.4506">
        <ele>1416.15918</ele>
        <time>2011-08-30T15:47:23Z</time>
      </trkpt>
      <trkpt lat="42.86975" lon="-0.4508">
        <ele>1413.275391</ele>
        <time>2011-08-30T15:47:35Z</time>
      </trkpt>
      <trkpt lat="42.86972" lon="-0.45087">
        <ele>1412.794678</ele>
        <time>2011-08-30T15:47:39Z</time>
      </trkpt>
      <trkpt lat="42.86965" lon="-0.45095">
        <ele>1411.833496</ele>
        <time>2011-08-30T15:47:44Z</time>
      </trkpt>
      <trkpt lat="42.86971" lon="-0.45105">
        <ele>1408.949463</ele>
        <time>2011-08-30T15:47:53Z</time>
      </trkpt>
      <trkpt lat="42.86971" lon="-0.45104">
        <ele>1408.949463</ele>
        <time>2011-08-30T15:47:54Z</time>
      </trkpt>
      <trkpt lat="42.86975" lon="-0.451">
        <ele>1407.507568</ele>
        <time>2011-08-30T15:48:00Z</time>
      </trkpt>
      <trkpt lat="42.86975" lon="-0.45097">
        <ele>1406.06543</ele>
        <time>2011-08-30T15:48:02Z</time>
      </trkpt>
      <trkpt lat="42.86976" lon="-0.45089">
        <ele>1403.662109</ele>
        <time>2011-08-30T15:48:08Z</time>
      </trkpt>
      <trkpt lat="42.86977" lon="-0.45071">
        <ele>1400.778076</ele>
        <time>2011-08-30T15:48:20Z</time>
      </trkpt>
      <trkpt lat="42.86983" lon="-0.45064">
        <ele>1399.816895</ele>
        <time>2011-08-30T15:48:26Z</time>
      </trkpt>
      <trkpt lat="42.86987" lon="-0.45061">
        <ele>1397.894287</ele>
        <time>2011-08-30T15:48:28Z</time>
      </trkpt>
      <trkpt lat="42.86987" lon="-0.45052">
        <ele>1395.010254</ele>
        <time>2011-08-30T15:48:39Z</time>
      </trkpt>
      <trkpt lat="42.86991" lon="-0.45051">
        <ele>1394.049072</ele>
        <time>2011-08-30T15:48:41Z</time>
      </trkpt>
      <trkpt lat="42.87004" lon="-0.45048">
        <ele>1391.165039</ele>
        <time>2011-08-30T15:48:48Z</time>
      </trkpt>
      <trkpt lat="42.87005" lon="-0.45048">
        <ele>1390.684326</ele>
        <time>2011-08-30T15:48:49Z</time>
      </trkpt>
      <trkpt lat="42.87018" lon="-0.45044">
        <ele>1387.800293</ele>
        <time>2011-08-30T15:49:00Z</time>
      </trkpt>
      <trkpt lat="42.87019" lon="-0.45043">
        <ele>1387.31958</ele>
        <time>2011-08-30T15:49:01Z</time>
      </trkpt>
      <trkpt lat="42.87021" lon="-0.45039">
        <ele>1384.435791</ele>
        <time>2011-08-30T15:49:11Z</time>
      </trkpt>
      <trkpt lat="42.87021" lon="-0.45038">
        <ele>1383.474365</ele>
        <time>2011-08-30T15:49:13Z</time>
      </trkpt>
      <trkpt lat="42.87026" lon="-0.45034">
        <ele>1380.109863</ele>
        <time>2011-08-30T15:49:22Z</time>
      </trkpt>
      <trkpt lat="42.87033" lon="-0.4503">
        <ele>1377.226074</ele>
        <time>2011-08-30T15:49:32Z</time>
      </trkpt>
      <trkpt lat="42.8704" lon="-0.45021">
        <ele>1373.861328</ele>
        <time>2011-08-30T15:49:46Z</time>
      </trkpt>
      <trkpt lat="42.87046" lon="-0.45019">
        <ele>1370.015869</ele>
        <time>2011-08-30T15:49:56Z</time>
      </trkpt>
      <trkpt lat="42.87053" lon="-0.4501">
        <ele>1368.093262</ele>
        <time>2011-08-30T15:50:06Z</time>
      </trkpt>
      <trkpt lat="42.87058" lon="-0.45005">
        <ele>1367.13208</ele>
        <time>2011-08-30T15:50:14Z</time>
      </trkpt>
      <trkpt lat="42.8706" lon="-0.45007">
        <ele>1365.209473</ele>
        <time>2011-08-30T15:50:16Z</time>
      </trkpt>
      <trkpt lat="42.87065" lon="-0.45013">
        <ele>1362.325439</ele>
        <time>2011-08-30T15:50:27Z</time>
      </trkpt>
      <trkpt lat="42.87066" lon="-0.45014">
        <ele>1361.844971</ele>
        <time>2011-08-30T15:50:28Z</time>
      </trkpt>
      <trkpt lat="42.8707" lon="-0.45011">
        <ele>1358.960938</ele>
        <time>2011-08-30T15:50:40Z</time>
      </trkpt>
      <trkpt lat="42.8707" lon="-0.4501">
        <ele>1358.480225</ele>
        <time>2011-08-30T15:50:41Z</time>
      </trkpt>
      <trkpt lat="42.87074" lon="-0.44998">
        <ele>1356.557617</ele>
        <time>2011-08-30T15:50:51Z</time>
      </trkpt>
      <trkpt lat="42.87076" lon="-0.44992">
        <ele>1355.115479</ele>
        <time>2011-08-30T15:50:55Z</time>
      </trkpt>
      <trkpt lat="42.87081" lon="-0.44996">
        <ele>1352.712158</ele>
        <time>2011-08-30T15:51:01Z</time>
      </trkpt>
      <trkpt lat="42.87086" lon="-0.45">
        <ele>1352.712158</ele>
        <time>2011-08-30T15:51:06Z</time>
      </trkpt>
      <trkpt lat="42.87112" lon="-0.4499">
        <ele>1350.789551</ele>
        <time>2011-08-30T15:51:26Z</time>
      </trkpt>
      <trkpt lat="42.87138" lon="-0.44986">
        <ele>1347.905762</ele>
        <time>2011-08-30T15:51:47Z</time>
      </trkpt>
      <trkpt lat="42.8717" lon="-0.44972">
        <ele>1345.021729</ele>
        <time>2011-08-30T15:52:12Z</time>
      </trkpt>
      <trkpt lat="42.87198" lon="-0.44959">
        <ele>1343.579834</ele>
        <time>2011-08-30T15:52:34Z</time>
      </trkpt>
      <trkpt lat="42.87221" lon="-0.44948">
        <ele>1340.215332</ele>
        <time>2011-08-30T15:52:52Z</time>
      </trkpt>
      <trkpt lat="42.87243" lon="-0.4494">
        <ele>1337.331055</ele>
        <time>2011-08-30T15:53:09Z</time>
      </trkpt>
      <trkpt lat="42.87271" lon="-0.44917">
        <ele>1335.88916</ele>
        <time>2011-08-30T15:53:34Z</time>
      </trkpt>
      <trkpt lat="42.87282" lon="-0.44893">
        <ele>1337.331055</ele>
        <time>2011-08-30T15:53:53Z</time>
      </trkpt>
      <trkpt lat="42.87289" lon="-0.44876">
        <ele>1338.29248</ele>
        <time>2011-08-30T15:54:12Z</time>
      </trkpt>
      <trkpt lat="42.87289" lon="-0.44876">
        <ele>1338.29248</ele>
        <time>2011-08-30T15:54:21Z</time>
      </trkpt>
    </trkseg>
  </trk>
</gpx>